<?xml version="1.0" encoding="UTF-8" standalone="no" ?>
<gpx xmlns="http://www.topografix.com/GPX/1/1" xmlns:xsi="http://www.w3.org/2001/XMLSchema-instance" xsi:schemaLocation="http://www.topografix.com/GPX/1/1 http://www.topografix.com/GPX/1/1/gpx.xsd" version="1.1" creator="VisuGPX - https://www.visugpx.com">
  <metadata>
    <name>Montagne de Dindaret</name>
    <desc><![CDATA[Se garer à l'entrée du village de Valdrôme. Traverser le village en passant devant la mairie, et, quand la route redescend sur la droite, prendre le sentier balisé en jaune qui monte en face sur une crête. Vers 1200 m il traverse une piste et continue en face. Il rejoint une nouvelle piste au point 1357 m. Prendre cette piste sur droite et la suivre jusqu'à une barrière. Juste après la barrière, dans un virage, prendre un sentier sur la gauche. Quand il arrive à un carrefour prendre le sentier qui monte à gauche (raide) dans un combe. Arrivé à la crête tourner à gauche et la suivre jusqu'au sommet. Continuer sur la crête qui descend à un petit col pour remonter au sommet de Peyre Grosse (petit passage escarpé où il faut mettre les mains). Continuer la descente le long de la crête. Vers 1360 m prendre une piste qui part sur la gauche. La suivre jusqu'à ce qu'elle en rejoigne une autre que l'on quitte une centaine de mètres plus loin pour une ancienne piste d'exploitation envahie de végétation qui part sur la droite. Arrivé à un carrefour de pistes prendre la route forestière des Casses jusqu'au point 1240 m. Là prendre le sentier à gauche qui descend rejoindre une piste qui ramène au village.]]></desc>
  </metadata>
  <trk>
    <name><![CDATA[2017-07-02 16:04:52]]></name>
    <trkseg>
      <trkpt lat="44.50476" lon="5.57272">
        <ele>810.53</ele>
        <time>2017-07-02T07:22:55Z</time>
      </trkpt>
      <trkpt lat="44.50476" lon="5.57272">
        <ele>810.53</ele>
        <time>2017-07-02T07:22:59Z</time>
      </trkpt>
      <trkpt lat="44.50475" lon="5.57272">
        <ele>811.01</ele>
        <time>2017-07-02T07:23:15Z</time>
      </trkpt>
      <trkpt lat="44.50473" lon="5.57271">
        <ele>809.57</ele>
        <time>2017-07-02T07:23:21Z</time>
      </trkpt>
      <trkpt lat="44.50465" lon="5.57265">
        <ele>810.53</ele>
        <time>2017-07-02T07:23:38Z</time>
      </trkpt>
      <trkpt lat="44.50455" lon="5.57262">
        <ele>811.97</ele>
        <time>2017-07-02T07:23:52Z</time>
      </trkpt>
      <trkpt lat="44.50451" lon="5.5724">
        <ele>812.45</ele>
        <time>2017-07-02T07:24:06Z</time>
      </trkpt>
      <trkpt lat="44.50448" lon="5.57229">
        <ele>813.41</ele>
        <time>2017-07-02T07:24:14Z</time>
      </trkpt>
      <trkpt lat="44.50441" lon="5.57212">
        <ele>814.85</ele>
        <time>2017-07-02T07:24:26Z</time>
      </trkpt>
      <trkpt lat="44.50435" lon="5.572">
        <ele>815.34</ele>
        <time>2017-07-02T07:24:40Z</time>
      </trkpt>
      <trkpt lat="44.5043" lon="5.57183">
        <ele>812.93</ele>
        <time>2017-07-02T07:24:55Z</time>
      </trkpt>
      <trkpt lat="44.5043" lon="5.57169">
        <ele>814.37</ele>
        <time>2017-07-02T07:25:07Z</time>
      </trkpt>
      <trkpt lat="44.50426" lon="5.57152">
        <ele>815.34</ele>
        <time>2017-07-02T07:25:20Z</time>
      </trkpt>
      <trkpt lat="44.50418" lon="5.57133">
        <ele>815.82</ele>
        <time>2017-07-02T07:25:34Z</time>
      </trkpt>
      <trkpt lat="44.50416" lon="5.5713">
        <ele>816.3</ele>
        <time>2017-07-02T07:25:38Z</time>
      </trkpt>
      <trkpt lat="44.50409" lon="5.57119">
        <ele>817.26</ele>
        <time>2017-07-02T07:25:49Z</time>
      </trkpt>
      <trkpt lat="44.50396" lon="5.571">
        <ele>819.18</ele>
        <time>2017-07-02T07:26:05Z</time>
      </trkpt>
      <trkpt lat="44.50396" lon="5.57096">
        <ele>818.7</ele>
        <time>2017-07-02T07:26:25Z</time>
      </trkpt>
      <trkpt lat="44.50397" lon="5.57092">
        <ele>818.7</ele>
        <time>2017-07-02T07:26:39Z</time>
      </trkpt>
      <trkpt lat="44.50398" lon="5.57088">
        <ele>818.22</ele>
        <time>2017-07-02T07:27:22Z</time>
      </trkpt>
      <trkpt lat="44.50398" lon="5.57088">
        <ele>817.26</ele>
        <time>2017-07-02T07:27:31Z</time>
      </trkpt>
      <trkpt lat="44.50392" lon="5.57073">
        <ele>815.34</ele>
        <time>2017-07-02T07:27:43Z</time>
      </trkpt>
      <trkpt lat="44.50388" lon="5.57066">
        <ele>817.74</ele>
        <time>2017-07-02T07:27:49Z</time>
      </trkpt>
      <trkpt lat="44.50385" lon="5.57047">
        <ele>814.37</ele>
        <time>2017-07-02T07:35:06Z</time>
      </trkpt>
      <trkpt lat="44.50383" lon="5.5704">
        <ele>815.34</ele>
        <time>2017-07-02T07:35:19Z</time>
      </trkpt>
      <trkpt lat="44.50384" lon="5.57025">
        <ele>816.3</ele>
        <time>2017-07-02T07:35:32Z</time>
      </trkpt>
      <trkpt lat="44.50383" lon="5.57013">
        <ele>817.26</ele>
        <time>2017-07-02T07:35:42Z</time>
      </trkpt>
      <trkpt lat="44.50377" lon="5.56998">
        <ele>819.66</ele>
        <time>2017-07-02T07:35:57Z</time>
      </trkpt>
      <trkpt lat="44.50377" lon="5.5698">
        <ele>821.58</ele>
        <time>2017-07-02T07:36:11Z</time>
      </trkpt>
      <trkpt lat="44.50372" lon="5.56964">
        <ele>823.51</ele>
        <time>2017-07-02T07:36:24Z</time>
      </trkpt>
      <trkpt lat="44.50374" lon="5.56954">
        <ele>826.39</ele>
        <time>2017-07-02T07:36:40Z</time>
      </trkpt>
      <trkpt lat="44.50379" lon="5.5694">
        <ele>828.79</ele>
        <time>2017-07-02T07:36:56Z</time>
      </trkpt>
      <trkpt lat="44.50379" lon="5.56939">
        <ele>828.79</ele>
        <time>2017-07-02T07:36:57Z</time>
      </trkpt>
      <trkpt lat="44.50377" lon="5.56926">
        <ele>832.64</ele>
        <time>2017-07-02T07:37:14Z</time>
      </trkpt>
      <trkpt lat="44.50378" lon="5.56914">
        <ele>834.56</ele>
        <time>2017-07-02T07:37:27Z</time>
      </trkpt>
      <trkpt lat="44.50375" lon="5.56901">
        <ele>836.96</ele>
        <time>2017-07-02T07:37:41Z</time>
      </trkpt>
      <trkpt lat="44.50373" lon="5.56883">
        <ele>838.89</ele>
        <time>2017-07-02T07:37:57Z</time>
      </trkpt>
      <trkpt lat="44.50374" lon="5.56868">
        <ele>840.81</ele>
        <time>2017-07-02T07:38:11Z</time>
      </trkpt>
      <trkpt lat="44.50375" lon="5.56855">
        <ele>843.21</ele>
        <time>2017-07-02T07:38:24Z</time>
      </trkpt>
      <trkpt lat="44.50382" lon="5.5684">
        <ele>846.1</ele>
        <time>2017-07-02T07:38:40Z</time>
      </trkpt>
      <trkpt lat="44.50382" lon="5.56821">
        <ele>848.98</ele>
        <time>2017-07-02T07:38:56Z</time>
      </trkpt>
      <trkpt lat="44.50381" lon="5.56807">
        <ele>852.35</ele>
        <time>2017-07-02T07:39:14Z</time>
      </trkpt>
      <trkpt lat="44.5038" lon="5.5679">
        <ele>854.75</ele>
        <time>2017-07-02T07:39:30Z</time>
      </trkpt>
      <trkpt lat="44.50378" lon="5.56772">
        <ele>857.15</ele>
        <time>2017-07-02T07:39:47Z</time>
      </trkpt>
      <trkpt lat="44.50378" lon="5.56757">
        <ele>859.56</ele>
        <time>2017-07-02T07:40:02Z</time>
      </trkpt>
      <trkpt lat="44.50382" lon="5.56744">
        <ele>861.96</ele>
        <time>2017-07-02T07:40:17Z</time>
      </trkpt>
      <trkpt lat="44.50381" lon="5.56728">
        <ele>864.36</ele>
        <time>2017-07-02T07:40:35Z</time>
      </trkpt>
      <trkpt lat="44.50377" lon="5.56714">
        <ele>866.77</ele>
        <time>2017-07-02T07:40:51Z</time>
      </trkpt>
      <trkpt lat="44.50372" lon="5.567">
        <ele>869.17</ele>
        <time>2017-07-02T07:41:08Z</time>
      </trkpt>
      <trkpt lat="44.50374" lon="5.56687">
        <ele>871.57</ele>
        <time>2017-07-02T07:41:22Z</time>
      </trkpt>
      <trkpt lat="44.50373" lon="5.56674">
        <ele>873.5</ele>
        <time>2017-07-02T07:41:38Z</time>
      </trkpt>
      <trkpt lat="44.50371" lon="5.56661">
        <ele>875.9</ele>
        <time>2017-07-02T07:41:55Z</time>
      </trkpt>
      <trkpt lat="44.50368" lon="5.56643">
        <ele>877.82</ele>
        <time>2017-07-02T07:42:12Z</time>
      </trkpt>
      <trkpt lat="44.50365" lon="5.5663">
        <ele>879.74</ele>
        <time>2017-07-02T07:42:26Z</time>
      </trkpt>
      <trkpt lat="44.50364" lon="5.56615">
        <ele>881.67</ele>
        <time>2017-07-02T07:42:42Z</time>
      </trkpt>
      <trkpt lat="44.50361" lon="5.56605">
        <ele>884.55</ele>
        <time>2017-07-02T07:42:58Z</time>
      </trkpt>
      <trkpt lat="44.50357" lon="5.56593">
        <ele>886.95</ele>
        <time>2017-07-02T07:43:14Z</time>
      </trkpt>
      <trkpt lat="44.50352" lon="5.56586">
        <ele>890.32</ele>
        <time>2017-07-02T07:43:28Z</time>
      </trkpt>
      <trkpt lat="44.50346" lon="5.56575">
        <ele>892.72</ele>
        <time>2017-07-02T07:43:44Z</time>
      </trkpt>
      <trkpt lat="44.50341" lon="5.56565">
        <ele>895.61</ele>
        <time>2017-07-02T07:43:58Z</time>
      </trkpt>
      <trkpt lat="44.50333" lon="5.56556">
        <ele>897.53</ele>
        <time>2017-07-02T07:44:13Z</time>
      </trkpt>
      <trkpt lat="44.50325" lon="5.56538">
        <ele>899.45</ele>
        <time>2017-07-02T07:44:31Z</time>
      </trkpt>
      <trkpt lat="44.50315" lon="5.56519">
        <ele>900.89</ele>
        <time>2017-07-02T07:47:27Z</time>
      </trkpt>
      <trkpt lat="44.50306" lon="5.56506">
        <ele>901.85</ele>
        <time>2017-07-02T07:47:44Z</time>
      </trkpt>
      <trkpt lat="44.50297" lon="5.56494">
        <ele>903.3</ele>
        <time>2017-07-02T07:47:58Z</time>
      </trkpt>
      <trkpt lat="44.50288" lon="5.56482">
        <ele>904.74</ele>
        <time>2017-07-02T07:48:12Z</time>
      </trkpt>
      <trkpt lat="44.50281" lon="5.5647">
        <ele>905.7</ele>
        <time>2017-07-02T07:48:23Z</time>
      </trkpt>
      <trkpt lat="44.50278" lon="5.56461">
        <ele>906.18</ele>
        <time>2017-07-02T07:48:30Z</time>
      </trkpt>
      <trkpt lat="44.50271" lon="5.56445">
        <ele>907.14</ele>
        <time>2017-07-02T07:48:46Z</time>
      </trkpt>
      <trkpt lat="44.50261" lon="5.56437">
        <ele>908.58</ele>
        <time>2017-07-02T07:49:01Z</time>
      </trkpt>
      <trkpt lat="44.50245" lon="5.56425">
        <ele>908.58</ele>
        <time>2017-07-02T07:49:17Z</time>
      </trkpt>
      <trkpt lat="44.50244" lon="5.56425">
        <ele>908.58</ele>
        <time>2017-07-02T07:49:18Z</time>
      </trkpt>
      <trkpt lat="44.50228" lon="5.56418">
        <ele>909.06</ele>
        <time>2017-07-02T07:49:32Z</time>
      </trkpt>
      <trkpt lat="44.50211" lon="5.56408">
        <ele>906.66</ele>
        <time>2017-07-02T07:49:48Z</time>
      </trkpt>
      <trkpt lat="44.50196" lon="5.56398">
        <ele>904.74</ele>
        <time>2017-07-02T07:50:03Z</time>
      </trkpt>
      <trkpt lat="44.50186" lon="5.56389">
        <ele>901.85</ele>
        <time>2017-07-02T07:50:17Z</time>
      </trkpt>
      <trkpt lat="44.50173" lon="5.56374">
        <ele>901.85</ele>
        <time>2017-07-02T07:50:31Z</time>
      </trkpt>
      <trkpt lat="44.50157" lon="5.56366">
        <ele>901.85</ele>
        <time>2017-07-02T07:50:46Z</time>
      </trkpt>
      <trkpt lat="44.50143" lon="5.56357">
        <ele>901.85</ele>
        <time>2017-07-02T07:50:59Z</time>
      </trkpt>
      <trkpt lat="44.50126" lon="5.56346">
        <ele>901.85</ele>
        <time>2017-07-02T07:51:15Z</time>
      </trkpt>
      <trkpt lat="44.50109" lon="5.56334">
        <ele>902.82</ele>
        <time>2017-07-02T07:51:31Z</time>
      </trkpt>
      <trkpt lat="44.50096" lon="5.56325">
        <ele>903.3</ele>
        <time>2017-07-02T07:51:44Z</time>
      </trkpt>
      <trkpt lat="44.50083" lon="5.56317">
        <ele>904.74</ele>
        <time>2017-07-02T07:51:56Z</time>
      </trkpt>
      <trkpt lat="44.5007" lon="5.56313">
        <ele>906.66</ele>
        <time>2017-07-02T07:52:09Z</time>
      </trkpt>
      <trkpt lat="44.50058" lon="5.56305">
        <ele>908.58</ele>
        <time>2017-07-02T07:52:23Z</time>
      </trkpt>
      <trkpt lat="44.50046" lon="5.56298">
        <ele>910.51</ele>
        <time>2017-07-02T07:52:38Z</time>
      </trkpt>
      <trkpt lat="44.50032" lon="5.56291">
        <ele>912.43</ele>
        <time>2017-07-02T07:52:55Z</time>
      </trkpt>
      <trkpt lat="44.50019" lon="5.56286">
        <ele>915.31</ele>
        <time>2017-07-02T07:53:12Z</time>
      </trkpt>
      <trkpt lat="44.50009" lon="5.56279">
        <ele>916.75</ele>
        <time>2017-07-02T07:53:25Z</time>
      </trkpt>
      <trkpt lat="44.5" lon="5.56272">
        <ele>918.68</ele>
        <time>2017-07-02T07:53:41Z</time>
      </trkpt>
      <trkpt lat="44.49993" lon="5.56266">
        <ele>921.08</ele>
        <time>2017-07-02T07:53:55Z</time>
      </trkpt>
      <trkpt lat="44.49984" lon="5.56259">
        <ele>924.45</ele>
        <time>2017-07-02T07:54:11Z</time>
      </trkpt>
      <trkpt lat="44.49978" lon="5.56251">
        <ele>926.85</ele>
        <time>2017-07-02T07:54:25Z</time>
      </trkpt>
      <trkpt lat="44.49972" lon="5.56244">
        <ele>929.73</ele>
        <time>2017-07-02T07:54:40Z</time>
      </trkpt>
      <trkpt lat="44.49961" lon="5.56235">
        <ele>932.62</ele>
        <time>2017-07-02T07:54:57Z</time>
      </trkpt>
      <trkpt lat="44.49953" lon="5.56228">
        <ele>935.5</ele>
        <time>2017-07-02T07:55:14Z</time>
      </trkpt>
      <trkpt lat="44.49946" lon="5.56219">
        <ele>938.38</ele>
        <time>2017-07-02T07:55:30Z</time>
      </trkpt>
      <trkpt lat="44.49938" lon="5.56211">
        <ele>941.27</ele>
        <time>2017-07-02T07:55:47Z</time>
      </trkpt>
      <trkpt lat="44.4993" lon="5.56204">
        <ele>942.71</ele>
        <time>2017-07-02T07:56:01Z</time>
      </trkpt>
      <trkpt lat="44.49922" lon="5.56196">
        <ele>944.63</ele>
        <time>2017-07-02T07:56:17Z</time>
      </trkpt>
      <trkpt lat="44.49915" lon="5.56185">
        <ele>945.59</ele>
        <time>2017-07-02T07:56:30Z</time>
      </trkpt>
      <trkpt lat="44.49905" lon="5.56173">
        <ele>946.56</ele>
        <time>2017-07-02T07:56:46Z</time>
      </trkpt>
      <trkpt lat="44.49895" lon="5.56162">
        <ele>947.52</ele>
        <time>2017-07-02T07:57:00Z</time>
      </trkpt>
      <trkpt lat="44.49886" lon="5.56153">
        <ele>948.96</ele>
        <time>2017-07-02T07:57:12Z</time>
      </trkpt>
      <trkpt lat="44.49875" lon="5.56142">
        <ele>950.88</ele>
        <time>2017-07-02T07:57:27Z</time>
      </trkpt>
      <trkpt lat="44.49865" lon="5.56128">
        <ele>952.32</ele>
        <time>2017-07-02T07:57:43Z</time>
      </trkpt>
      <trkpt lat="44.49856" lon="5.56117">
        <ele>954.25</ele>
        <time>2017-07-02T07:57:59Z</time>
      </trkpt>
      <trkpt lat="44.49845" lon="5.56104">
        <ele>956.17</ele>
        <time>2017-07-02T07:58:15Z</time>
      </trkpt>
      <trkpt lat="44.49836" lon="5.56092">
        <ele>957.61</ele>
        <time>2017-07-02T07:58:31Z</time>
      </trkpt>
      <trkpt lat="44.49823" lon="5.5608">
        <ele>959.05</ele>
        <time>2017-07-02T07:58:47Z</time>
      </trkpt>
      <trkpt lat="44.49813" lon="5.56064">
        <ele>960.98</ele>
        <time>2017-07-02T07:59:02Z</time>
      </trkpt>
      <trkpt lat="44.49803" lon="5.56052">
        <ele>961.46</ele>
        <time>2017-07-02T07:59:15Z</time>
      </trkpt>
      <trkpt lat="44.4979" lon="5.56035">
        <ele>962.42</ele>
        <time>2017-07-02T07:59:32Z</time>
      </trkpt>
      <trkpt lat="44.49782" lon="5.56022">
        <ele>963.38</ele>
        <time>2017-07-02T07:59:45Z</time>
      </trkpt>
      <trkpt lat="44.49773" lon="5.56004">
        <ele>963.38</ele>
        <time>2017-07-02T07:59:58Z</time>
      </trkpt>
      <trkpt lat="44.49771" lon="5.55993">
        <ele>963.38</ele>
        <time>2017-07-02T08:00:09Z</time>
      </trkpt>
      <trkpt lat="44.49771" lon="5.5598">
        <ele>964.82</ele>
        <time>2017-07-02T08:00:21Z</time>
      </trkpt>
      <trkpt lat="44.49771" lon="5.55961">
        <ele>966.26</ele>
        <time>2017-07-02T08:00:34Z</time>
      </trkpt>
      <trkpt lat="44.49769" lon="5.55944">
        <ele>968.67</ele>
        <time>2017-07-02T08:00:46Z</time>
      </trkpt>
      <trkpt lat="44.49772" lon="5.55931">
        <ele>971.07</ele>
        <time>2017-07-02T08:01:01Z</time>
      </trkpt>
      <trkpt lat="44.49771" lon="5.55923">
        <ele>974.43</ele>
        <time>2017-07-02T08:01:17Z</time>
      </trkpt>
      <trkpt lat="44.49773" lon="5.55915">
        <ele>975.39</ele>
        <time>2017-07-02T08:01:36Z</time>
      </trkpt>
      <trkpt lat="44.49774" lon="5.55912">
        <ele>976.36</ele>
        <time>2017-07-02T08:02:01Z</time>
      </trkpt>
      <trkpt lat="44.4977" lon="5.55905">
        <ele>978.28</ele>
        <time>2017-07-02T08:02:15Z</time>
      </trkpt>
      <trkpt lat="44.49761" lon="5.55897">
        <ele>980.2</ele>
        <time>2017-07-02T08:02:29Z</time>
      </trkpt>
      <trkpt lat="44.49752" lon="5.55889">
        <ele>982.6</ele>
        <time>2017-07-02T08:02:44Z</time>
      </trkpt>
      <trkpt lat="44.49743" lon="5.55875">
        <ele>984.53</ele>
        <time>2017-07-02T08:03:01Z</time>
      </trkpt>
      <trkpt lat="44.49732" lon="5.55864">
        <ele>986.93</ele>
        <time>2017-07-02T08:03:16Z</time>
      </trkpt>
      <trkpt lat="44.4972" lon="5.55858">
        <ele>988.85</ele>
        <time>2017-07-02T08:03:32Z</time>
      </trkpt>
      <trkpt lat="44.49703" lon="5.55853">
        <ele>990.78</ele>
        <time>2017-07-02T08:03:47Z</time>
      </trkpt>
      <trkpt lat="44.49691" lon="5.55849">
        <ele>992.22</ele>
        <time>2017-07-02T08:04:02Z</time>
      </trkpt>
      <trkpt lat="44.49683" lon="5.55841">
        <ele>994.14</ele>
        <time>2017-07-02T08:04:19Z</time>
      </trkpt>
      <trkpt lat="44.49677" lon="5.55829">
        <ele>995.58</ele>
        <time>2017-07-02T08:04:34Z</time>
      </trkpt>
      <trkpt lat="44.49668" lon="5.55816">
        <ele>997.02</ele>
        <time>2017-07-02T08:04:49Z</time>
      </trkpt>
      <trkpt lat="44.49657" lon="5.55806">
        <ele>998.47</ele>
        <time>2017-07-02T08:05:04Z</time>
      </trkpt>
      <trkpt lat="44.49645" lon="5.55798">
        <ele>1000.39</ele>
        <time>2017-07-02T08:05:23Z</time>
      </trkpt>
      <trkpt lat="44.49628" lon="5.55794">
        <ele>1001.83</ele>
        <time>2017-07-02T08:05:41Z</time>
      </trkpt>
      <trkpt lat="44.49616" lon="5.55792">
        <ele>1004.23</ele>
        <time>2017-07-02T08:05:57Z</time>
      </trkpt>
      <trkpt lat="44.49601" lon="5.55784">
        <ele>1005.68</ele>
        <time>2017-07-02T08:06:13Z</time>
      </trkpt>
      <trkpt lat="44.4959" lon="5.55782">
        <ele>1007.6</ele>
        <time>2017-07-02T08:06:29Z</time>
      </trkpt>
      <trkpt lat="44.49581" lon="5.55775">
        <ele>1009.04</ele>
        <time>2017-07-02T08:06:43Z</time>
      </trkpt>
      <trkpt lat="44.49571" lon="5.55765">
        <ele>1010.48</ele>
        <time>2017-07-02T08:06:58Z</time>
      </trkpt>
      <trkpt lat="44.49566" lon="5.55758">
        <ele>1011.93</ele>
        <time>2017-07-02T08:07:12Z</time>
      </trkpt>
      <trkpt lat="44.49584" lon="5.55769">
        <ele>1014.33</ele>
        <time>2017-07-02T08:07:42Z</time>
      </trkpt>
      <trkpt lat="44.49594" lon="5.55769">
        <ele>1015.77</ele>
        <time>2017-07-02T08:07:54Z</time>
      </trkpt>
      <trkpt lat="44.49606" lon="5.55768">
        <ele>1016.25</ele>
        <time>2017-07-02T08:08:08Z</time>
      </trkpt>
      <trkpt lat="44.49603" lon="5.55765">
        <ele>1019.13</ele>
        <time>2017-07-02T08:08:20Z</time>
      </trkpt>
      <trkpt lat="44.49594" lon="5.5576">
        <ele>1020.58</ele>
        <time>2017-07-02T08:08:36Z</time>
      </trkpt>
      <trkpt lat="44.49583" lon="5.55756">
        <ele>1022.02</ele>
        <time>2017-07-02T08:08:50Z</time>
      </trkpt>
      <trkpt lat="44.49577" lon="5.55749">
        <ele>1023.46</ele>
        <time>2017-07-02T08:09:05Z</time>
      </trkpt>
      <trkpt lat="44.49569" lon="5.55738">
        <ele>1025.86</ele>
        <time>2017-07-02T08:09:22Z</time>
      </trkpt>
      <trkpt lat="44.49561" lon="5.55724">
        <ele>1026.83</ele>
        <time>2017-07-02T08:09:38Z</time>
      </trkpt>
      <trkpt lat="44.49553" lon="5.55712">
        <ele>1028.27</ele>
        <time>2017-07-02T08:09:54Z</time>
      </trkpt>
      <trkpt lat="44.49542" lon="5.55705">
        <ele>1029.71</ele>
        <time>2017-07-02T08:10:07Z</time>
      </trkpt>
      <trkpt lat="44.49525" lon="5.55704">
        <ele>1031.63</ele>
        <time>2017-07-02T08:10:21Z</time>
      </trkpt>
      <trkpt lat="44.4951" lon="5.55708">
        <ele>1032.11</ele>
        <time>2017-07-02T08:10:33Z</time>
      </trkpt>
      <trkpt lat="44.49493" lon="5.55712">
        <ele>1034.04</ele>
        <time>2017-07-02T08:10:48Z</time>
      </trkpt>
      <trkpt lat="44.49481" lon="5.55711">
        <ele>1035.96</ele>
        <time>2017-07-02T08:11:03Z</time>
      </trkpt>
      <trkpt lat="44.49476" lon="5.55706">
        <ele>1037.4</ele>
        <time>2017-07-02T08:11:17Z</time>
      </trkpt>
      <trkpt lat="44.49468" lon="5.55699">
        <ele>1038.84</ele>
        <time>2017-07-02T08:11:34Z</time>
      </trkpt>
      <trkpt lat="44.4945" lon="5.55694">
        <ele>1039.8</ele>
        <time>2017-07-02T08:11:49Z</time>
      </trkpt>
      <trkpt lat="44.49426" lon="5.55694">
        <ele>1042.21</ele>
        <time>2017-07-02T08:12:06Z</time>
      </trkpt>
      <trkpt lat="44.49416" lon="5.55685">
        <ele>1043.65</ele>
        <time>2017-07-02T08:12:23Z</time>
      </trkpt>
      <trkpt lat="44.49406" lon="5.55676">
        <ele>1045.57</ele>
        <time>2017-07-02T08:12:38Z</time>
      </trkpt>
      <trkpt lat="44.49403" lon="5.55665">
        <ele>1047.01</ele>
        <time>2017-07-02T08:12:51Z</time>
      </trkpt>
      <trkpt lat="44.49396" lon="5.55654">
        <ele>1048.45</ele>
        <time>2017-07-02T08:13:07Z</time>
      </trkpt>
      <trkpt lat="44.49386" lon="5.55648">
        <ele>1050.38</ele>
        <time>2017-07-02T08:13:25Z</time>
      </trkpt>
      <trkpt lat="44.49362" lon="5.55645">
        <ele>1051.82</ele>
        <time>2017-07-02T08:13:38Z</time>
      </trkpt>
      <trkpt lat="44.4934" lon="5.55655">
        <ele>1053.26</ele>
        <time>2017-07-02T08:13:53Z</time>
      </trkpt>
      <trkpt lat="44.49333" lon="5.55659">
        <ele>1053.74</ele>
        <time>2017-07-02T08:14:08Z</time>
      </trkpt>
      <trkpt lat="44.4932" lon="5.55658">
        <ele>1055.67</ele>
        <time>2017-07-02T08:14:22Z</time>
      </trkpt>
      <trkpt lat="44.49315" lon="5.5565">
        <ele>1058.07</ele>
        <time>2017-07-02T08:14:36Z</time>
      </trkpt>
      <trkpt lat="44.49309" lon="5.55636">
        <ele>1059.99</ele>
        <time>2017-07-02T08:14:51Z</time>
      </trkpt>
      <trkpt lat="44.49302" lon="5.5562">
        <ele>1061.43</ele>
        <time>2017-07-02T08:15:08Z</time>
      </trkpt>
      <trkpt lat="44.49297" lon="5.55608">
        <ele>1062.87</ele>
        <time>2017-07-02T08:15:22Z</time>
      </trkpt>
      <trkpt lat="44.4929" lon="5.556">
        <ele>1064.32</ele>
        <time>2017-07-02T08:15:37Z</time>
      </trkpt>
      <trkpt lat="44.49271" lon="5.55588">
        <ele>1065.76</ele>
        <time>2017-07-02T08:15:56Z</time>
      </trkpt>
      <trkpt lat="44.4926" lon="5.55587">
        <ele>1066.72</ele>
        <time>2017-07-02T08:16:11Z</time>
      </trkpt>
      <trkpt lat="44.49245" lon="5.55581">
        <ele>1068.16</ele>
        <time>2017-07-02T08:16:28Z</time>
      </trkpt>
      <trkpt lat="44.49229" lon="5.5558">
        <ele>1069.6</ele>
        <time>2017-07-02T08:16:43Z</time>
      </trkpt>
      <trkpt lat="44.49218" lon="5.55578">
        <ele>1071.53</ele>
        <time>2017-07-02T08:16:57Z</time>
      </trkpt>
      <trkpt lat="44.49206" lon="5.55572">
        <ele>1073.45</ele>
        <time>2017-07-02T08:17:12Z</time>
      </trkpt>
      <trkpt lat="44.49198" lon="5.55567">
        <ele>1075.37</ele>
        <time>2017-07-02T08:17:28Z</time>
      </trkpt>
      <trkpt lat="44.49178" lon="5.55564">
        <ele>1076.81</ele>
        <time>2017-07-02T08:17:44Z</time>
      </trkpt>
      <trkpt lat="44.4917" lon="5.55564">
        <ele>1077.78</ele>
        <time>2017-07-02T08:17:56Z</time>
      </trkpt>
      <trkpt lat="44.49169" lon="5.55563">
        <ele>1078.26</ele>
        <time>2017-07-02T08:17:58Z</time>
      </trkpt>
      <trkpt lat="44.49166" lon="5.55553">
        <ele>1080.18</ele>
        <time>2017-07-02T08:18:11Z</time>
      </trkpt>
      <trkpt lat="44.49164" lon="5.55545">
        <ele>1081.14</ele>
        <time>2017-07-02T08:18:16Z</time>
      </trkpt>
      <trkpt lat="44.49164" lon="5.55542">
        <ele>1081.14</ele>
        <time>2017-07-02T08:18:19Z</time>
      </trkpt>
      <trkpt lat="44.49162" lon="5.55529">
        <ele>1083.06</ele>
        <time>2017-07-02T08:18:33Z</time>
      </trkpt>
      <trkpt lat="44.49156" lon="5.55524">
        <ele>1084.02</ele>
        <time>2017-07-02T08:18:45Z</time>
      </trkpt>
      <trkpt lat="44.49143" lon="5.55523">
        <ele>1084.02</ele>
        <time>2017-07-02T08:18:56Z</time>
      </trkpt>
      <trkpt lat="44.49134" lon="5.55519">
        <ele>1086.43</ele>
        <time>2017-07-02T08:19:10Z</time>
      </trkpt>
      <trkpt lat="44.49123" lon="5.55516">
        <ele>1087.87</ele>
        <time>2017-07-02T08:19:23Z</time>
      </trkpt>
      <trkpt lat="44.49114" lon="5.55506">
        <ele>1089.31</ele>
        <time>2017-07-02T08:19:37Z</time>
      </trkpt>
      <trkpt lat="44.49108" lon="5.55495">
        <ele>1091.23</ele>
        <time>2017-07-02T08:19:50Z</time>
      </trkpt>
      <trkpt lat="44.49101" lon="5.55478">
        <ele>1092.68</ele>
        <time>2017-07-02T08:20:05Z</time>
      </trkpt>
      <trkpt lat="44.491" lon="5.55469">
        <ele>1094.6</ele>
        <time>2017-07-02T08:20:18Z</time>
      </trkpt>
      <trkpt lat="44.49099" lon="5.55453">
        <ele>1096.52</ele>
        <time>2017-07-02T08:20:34Z</time>
      </trkpt>
      <trkpt lat="44.491" lon="5.55448">
        <ele>1097</ele>
        <time>2017-07-02T08:20:38Z</time>
      </trkpt>
      <trkpt lat="44.49103" lon="5.5543">
        <ele>1098.92</ele>
        <time>2017-07-02T08:20:52Z</time>
      </trkpt>
      <trkpt lat="44.49107" lon="5.55418">
        <ele>1101.81</ele>
        <time>2017-07-02T08:21:08Z</time>
      </trkpt>
      <trkpt lat="44.49108" lon="5.55405">
        <ele>1103.73</ele>
        <time>2017-07-02T08:21:21Z</time>
      </trkpt>
      <trkpt lat="44.49105" lon="5.55398">
        <ele>1105.17</ele>
        <time>2017-07-02T08:21:35Z</time>
      </trkpt>
      <trkpt lat="44.4909" lon="5.5539">
        <ele>1105.65</ele>
        <time>2017-07-02T08:21:51Z</time>
      </trkpt>
      <trkpt lat="44.49085" lon="5.55378">
        <ele>1107.58</ele>
        <time>2017-07-02T08:22:06Z</time>
      </trkpt>
      <trkpt lat="44.49083" lon="5.55371">
        <ele>1109.5</ele>
        <time>2017-07-02T08:22:18Z</time>
      </trkpt>
      <trkpt lat="44.49076" lon="5.55359">
        <ele>1110.94</ele>
        <time>2017-07-02T08:22:35Z</time>
      </trkpt>
      <trkpt lat="44.49068" lon="5.55347">
        <ele>1112.38</ele>
        <time>2017-07-02T08:22:49Z</time>
      </trkpt>
      <trkpt lat="44.49063" lon="5.55335">
        <ele>1113.82</ele>
        <time>2017-07-02T08:23:04Z</time>
      </trkpt>
      <trkpt lat="44.49047" lon="5.55318">
        <ele>1115.27</ele>
        <time>2017-07-02T08:23:21Z</time>
      </trkpt>
      <trkpt lat="44.49043" lon="5.55305">
        <ele>1116.71</ele>
        <time>2017-07-02T08:23:35Z</time>
      </trkpt>
      <trkpt lat="44.49032" lon="5.55297">
        <ele>1117.67</ele>
        <time>2017-07-02T08:23:49Z</time>
      </trkpt>
      <trkpt lat="44.49024" lon="5.55292">
        <ele>1119.11</ele>
        <time>2017-07-02T08:24:01Z</time>
      </trkpt>
      <trkpt lat="44.49017" lon="5.55281">
        <ele>1120.55</ele>
        <time>2017-07-02T08:24:16Z</time>
      </trkpt>
      <trkpt lat="44.49014" lon="5.5527">
        <ele>1121.52</ele>
        <time>2017-07-02T08:24:28Z</time>
      </trkpt>
      <trkpt lat="44.49014" lon="5.55269">
        <ele>1122.96</ele>
        <time>2017-07-02T08:24:43Z</time>
      </trkpt>
      <trkpt lat="44.49013" lon="5.55266">
        <ele>1124.88</ele>
        <time>2017-07-02T08:25:00Z</time>
      </trkpt>
      <trkpt lat="44.49022" lon="5.55269">
        <ele>1126.32</ele>
        <time>2017-07-02T08:25:14Z</time>
      </trkpt>
      <trkpt lat="44.49031" lon="5.55273">
        <ele>1127.76</ele>
        <time>2017-07-02T08:25:26Z</time>
      </trkpt>
      <trkpt lat="44.4904" lon="5.55287">
        <ele>1128.73</ele>
        <time>2017-07-02T08:25:37Z</time>
      </trkpt>
      <trkpt lat="44.4905" lon="5.55294">
        <ele>1130.17</ele>
        <time>2017-07-02T08:25:50Z</time>
      </trkpt>
      <trkpt lat="44.49059" lon="5.553">
        <ele>1132.09</ele>
        <time>2017-07-02T08:26:03Z</time>
      </trkpt>
      <trkpt lat="44.49071" lon="5.55311">
        <ele>1133.53</ele>
        <time>2017-07-02T08:26:19Z</time>
      </trkpt>
      <trkpt lat="44.49082" lon="5.55312">
        <ele>1135.45</ele>
        <time>2017-07-02T08:26:32Z</time>
      </trkpt>
      <trkpt lat="44.49095" lon="5.55321">
        <ele>1136.42</ele>
        <time>2017-07-02T08:26:46Z</time>
      </trkpt>
      <trkpt lat="44.49105" lon="5.5533">
        <ele>1137.86</ele>
        <time>2017-07-02T08:26:59Z</time>
      </trkpt>
      <trkpt lat="44.49105" lon="5.55323">
        <ele>1139.78</ele>
        <time>2017-07-02T08:27:12Z</time>
      </trkpt>
      <trkpt lat="44.49102" lon="5.55312">
        <ele>1142.66</ele>
        <time>2017-07-02T08:27:28Z</time>
      </trkpt>
      <trkpt lat="44.49099" lon="5.55298">
        <ele>1145.55</ele>
        <time>2017-07-02T08:27:45Z</time>
      </trkpt>
      <trkpt lat="44.4909" lon="5.55291">
        <ele>1147.47</ele>
        <time>2017-07-02T08:28:02Z</time>
      </trkpt>
      <trkpt lat="44.49082" lon="5.5528">
        <ele>1150.35</ele>
        <time>2017-07-02T08:28:18Z</time>
      </trkpt>
      <trkpt lat="44.49075" lon="5.55271">
        <ele>1153.24</ele>
        <time>2017-07-02T08:28:35Z</time>
      </trkpt>
      <trkpt lat="44.49071" lon="5.55265">
        <ele>1155.64</ele>
        <time>2017-07-02T08:28:52Z</time>
      </trkpt>
      <trkpt lat="44.49062" lon="5.55253">
        <ele>1158.05</ele>
        <time>2017-07-02T08:29:06Z</time>
      </trkpt>
      <trkpt lat="44.49055" lon="5.55239">
        <ele>1159.97</ele>
        <time>2017-07-02T08:29:21Z</time>
      </trkpt>
      <trkpt lat="44.49053" lon="5.55227">
        <ele>1161.89</ele>
        <time>2017-07-02T08:29:35Z</time>
      </trkpt>
      <trkpt lat="44.49055" lon="5.55208">
        <ele>1164.29</ele>
        <time>2017-07-02T08:29:52Z</time>
      </trkpt>
      <trkpt lat="44.49056" lon="5.5519">
        <ele>1166.22</ele>
        <time>2017-07-02T08:30:06Z</time>
      </trkpt>
      <trkpt lat="44.49057" lon="5.55174">
        <ele>1168.14</ele>
        <time>2017-07-02T08:30:21Z</time>
      </trkpt>
      <trkpt lat="44.49062" lon="5.5516">
        <ele>1170.54</ele>
        <time>2017-07-02T08:30:38Z</time>
      </trkpt>
      <trkpt lat="44.49066" lon="5.55149">
        <ele>1172.95</ele>
        <time>2017-07-02T08:30:52Z</time>
      </trkpt>
      <trkpt lat="44.49066" lon="5.55137">
        <ele>1173.43</ele>
        <time>2017-07-02T08:31:04Z</time>
      </trkpt>
      <trkpt lat="44.49059" lon="5.55132">
        <ele>1174.87</ele>
        <time>2017-07-02T08:31:18Z</time>
      </trkpt>
      <trkpt lat="44.49053" lon="5.55126">
        <ele>1176.79</ele>
        <time>2017-07-02T08:31:31Z</time>
      </trkpt>
      <trkpt lat="44.49048" lon="5.55115">
        <ele>1179.19</ele>
        <time>2017-07-02T08:31:45Z</time>
      </trkpt>
      <trkpt lat="44.4904" lon="5.55105">
        <ele>1182.56</ele>
        <time>2017-07-02T08:32:01Z</time>
      </trkpt>
      <trkpt lat="44.49036" lon="5.55092">
        <ele>1184.48</ele>
        <time>2017-07-02T08:32:17Z</time>
      </trkpt>
      <trkpt lat="44.49035" lon="5.55081">
        <ele>1184.96</ele>
        <time>2017-07-02T08:32:31Z</time>
      </trkpt>
      <trkpt lat="44.49022" lon="5.55082">
        <ele>1187.37</ele>
        <time>2017-07-02T08:37:55Z</time>
      </trkpt>
      <trkpt lat="44.49016" lon="5.55077">
        <ele>1187.85</ele>
        <time>2017-07-02T08:38:13Z</time>
      </trkpt>
      <trkpt lat="44.49015" lon="5.5507">
        <ele>1189.29</ele>
        <time>2017-07-02T08:38:23Z</time>
      </trkpt>
      <trkpt lat="44.49013" lon="5.55065">
        <ele>1192.17</ele>
        <time>2017-07-02T08:38:40Z</time>
      </trkpt>
      <trkpt lat="44.49012" lon="5.55063">
        <ele>1195.54</ele>
        <time>2017-07-02T08:38:56Z</time>
      </trkpt>
      <trkpt lat="44.49002" lon="5.55057">
        <ele>1196.5</ele>
        <time>2017-07-02T08:39:11Z</time>
      </trkpt>
      <trkpt lat="44.48991" lon="5.55053">
        <ele>1196.5</ele>
        <time>2017-07-02T08:39:25Z</time>
      </trkpt>
      <trkpt lat="44.48985" lon="5.55045">
        <ele>1196.98</ele>
        <time>2017-07-02T08:39:38Z</time>
      </trkpt>
      <trkpt lat="44.48982" lon="5.55037">
        <ele>1198.9</ele>
        <time>2017-07-02T08:39:51Z</time>
      </trkpt>
      <trkpt lat="44.4898" lon="5.55028">
        <ele>1201.3</ele>
        <time>2017-07-02T08:40:04Z</time>
      </trkpt>
      <trkpt lat="44.48978" lon="5.55018">
        <ele>1203.71</ele>
        <time>2017-07-02T08:40:17Z</time>
      </trkpt>
      <trkpt lat="44.48978" lon="5.55006">
        <ele>1206.59</ele>
        <time>2017-07-02T08:40:35Z</time>
      </trkpt>
      <trkpt lat="44.48978" lon="5.55001">
        <ele>1207.07</ele>
        <time>2017-07-02T08:40:53Z</time>
      </trkpt>
      <trkpt lat="44.48979" lon="5.54997">
        <ele>1208.03</ele>
        <time>2017-07-02T08:41:08Z</time>
      </trkpt>
      <trkpt lat="44.48982" lon="5.55">
        <ele>1209.96</ele>
        <time>2017-07-02T08:41:23Z</time>
      </trkpt>
      <trkpt lat="44.4899" lon="5.5501">
        <ele>1212.36</ele>
        <time>2017-07-02T08:41:38Z</time>
      </trkpt>
      <trkpt lat="44.48999" lon="5.55014">
        <ele>1214.76</ele>
        <time>2017-07-02T08:41:54Z</time>
      </trkpt>
      <trkpt lat="44.49009" lon="5.55017">
        <ele>1216.69</ele>
        <time>2017-07-02T08:42:08Z</time>
      </trkpt>
      <trkpt lat="44.4902" lon="5.55017">
        <ele>1218.13</ele>
        <time>2017-07-02T08:42:23Z</time>
      </trkpt>
      <trkpt lat="44.49029" lon="5.55017">
        <ele>1220.05</ele>
        <time>2017-07-02T08:42:35Z</time>
      </trkpt>
      <trkpt lat="44.4904" lon="5.55022">
        <ele>1222.45</ele>
        <time>2017-07-02T08:42:49Z</time>
      </trkpt>
      <trkpt lat="44.4905" lon="5.55025">
        <ele>1223.9</ele>
        <time>2017-07-02T08:43:04Z</time>
      </trkpt>
      <trkpt lat="44.4906" lon="5.55029">
        <ele>1226.78</ele>
        <time>2017-07-02T08:43:17Z</time>
      </trkpt>
      <trkpt lat="44.49069" lon="5.5503">
        <ele>1229.18</ele>
        <time>2017-07-02T08:43:31Z</time>
      </trkpt>
      <trkpt lat="44.49068" lon="5.55025">
        <ele>1231.59</ele>
        <time>2017-07-02T08:43:46Z</time>
      </trkpt>
      <trkpt lat="44.49066" lon="5.55018">
        <ele>1233.51</ele>
        <time>2017-07-02T08:43:59Z</time>
      </trkpt>
      <trkpt lat="44.49061" lon="5.55007">
        <ele>1235.91</ele>
        <time>2017-07-02T08:44:13Z</time>
      </trkpt>
      <trkpt lat="44.49055" lon="5.54995">
        <ele>1237.83</ele>
        <time>2017-07-02T08:44:28Z</time>
      </trkpt>
      <trkpt lat="44.49056" lon="5.54989">
        <ele>1240.24</ele>
        <time>2017-07-02T08:44:40Z</time>
      </trkpt>
      <trkpt lat="44.49064" lon="5.54994">
        <ele>1241.68</ele>
        <time>2017-07-02T08:44:55Z</time>
      </trkpt>
      <trkpt lat="44.49073" lon="5.54999">
        <ele>1245.04</ele>
        <time>2017-07-02T08:45:12Z</time>
      </trkpt>
      <trkpt lat="44.4908" lon="5.55">
        <ele>1247.93</ele>
        <time>2017-07-02T08:45:25Z</time>
      </trkpt>
      <trkpt lat="44.4908" lon="5.54994">
        <ele>1249.85</ele>
        <time>2017-07-02T08:45:38Z</time>
      </trkpt>
      <trkpt lat="44.49078" lon="5.54981">
        <ele>1252.74</ele>
        <time>2017-07-02T08:45:53Z</time>
      </trkpt>
      <trkpt lat="44.49075" lon="5.54964">
        <ele>1255.14</ele>
        <time>2017-07-02T08:46:09Z</time>
      </trkpt>
      <trkpt lat="44.4907" lon="5.54953">
        <ele>1257.54</ele>
        <time>2017-07-02T08:46:26Z</time>
      </trkpt>
      <trkpt lat="44.49061" lon="5.54945">
        <ele>1258.5</ele>
        <time>2017-07-02T08:46:39Z</time>
      </trkpt>
      <trkpt lat="44.4905" lon="5.54934">
        <ele>1259.94</ele>
        <time>2017-07-02T08:46:53Z</time>
      </trkpt>
      <trkpt lat="44.49044" lon="5.54927">
        <ele>1259.94</ele>
        <time>2017-07-02T08:47:08Z</time>
      </trkpt>
      <trkpt lat="44.49038" lon="5.54925">
        <ele>1259.94</ele>
        <time>2017-07-02T08:47:21Z</time>
      </trkpt>
      <trkpt lat="44.49028" lon="5.54921">
        <ele>1259.94</ele>
        <time>2017-07-02T08:47:31Z</time>
      </trkpt>
      <trkpt lat="44.49013" lon="5.54916">
        <ele>1260.43</ele>
        <time>2017-07-02T08:47:47Z</time>
      </trkpt>
      <trkpt lat="44.49" lon="5.54911">
        <ele>1261.87</ele>
        <time>2017-07-02T08:48:01Z</time>
      </trkpt>
      <trkpt lat="44.48998" lon="5.5491">
        <ele>1261.87</ele>
        <time>2017-07-02T08:48:03Z</time>
      </trkpt>
      <trkpt lat="44.48987" lon="5.54902">
        <ele>1263.31</ele>
        <time>2017-07-02T08:48:16Z</time>
      </trkpt>
      <trkpt lat="44.48976" lon="5.54895">
        <ele>1264.27</ele>
        <time>2017-07-02T08:48:28Z</time>
      </trkpt>
      <trkpt lat="44.48963" lon="5.54888">
        <ele>1265.71</ele>
        <time>2017-07-02T08:48:42Z</time>
      </trkpt>
      <trkpt lat="44.48952" lon="5.54884">
        <ele>1266.67</ele>
        <time>2017-07-02T08:48:55Z</time>
      </trkpt>
      <trkpt lat="44.48937" lon="5.54877">
        <ele>1268.6</ele>
        <time>2017-07-02T08:49:11Z</time>
      </trkpt>
      <trkpt lat="44.48928" lon="5.54873">
        <ele>1270.52</ele>
        <time>2017-07-02T08:49:22Z</time>
      </trkpt>
      <trkpt lat="44.48914" lon="5.54872">
        <ele>1272.92</ele>
        <time>2017-07-02T08:49:38Z</time>
      </trkpt>
      <trkpt lat="44.48908" lon="5.54873">
        <ele>1274.36</ele>
        <time>2017-07-02T08:49:47Z</time>
      </trkpt>
      <trkpt lat="44.48897" lon="5.54869">
        <ele>1277.25</ele>
        <time>2017-07-02T08:50:02Z</time>
      </trkpt>
      <trkpt lat="44.48881" lon="5.54871">
        <ele>1279.65</ele>
        <time>2017-07-02T08:50:19Z</time>
      </trkpt>
      <trkpt lat="44.48871" lon="5.54871">
        <ele>1282.54</ele>
        <time>2017-07-02T08:50:34Z</time>
      </trkpt>
      <trkpt lat="44.48858" lon="5.54871">
        <ele>1285.42</ele>
        <time>2017-07-02T08:50:52Z</time>
      </trkpt>
      <trkpt lat="44.48848" lon="5.5487">
        <ele>1287.82</ele>
        <time>2017-07-02T08:51:08Z</time>
      </trkpt>
      <trkpt lat="44.48836" lon="5.54868">
        <ele>1290.23</ele>
        <time>2017-07-02T08:51:24Z</time>
      </trkpt>
      <trkpt lat="44.48823" lon="5.54868">
        <ele>1292.15</ele>
        <time>2017-07-02T08:51:39Z</time>
      </trkpt>
      <trkpt lat="44.48813" lon="5.54868">
        <ele>1295.03</ele>
        <time>2017-07-02T08:51:54Z</time>
      </trkpt>
      <trkpt lat="44.48802" lon="5.54869">
        <ele>1296.96</ele>
        <time>2017-07-02T08:52:09Z</time>
      </trkpt>
      <trkpt lat="44.4879" lon="5.54867">
        <ele>1299.84</ele>
        <time>2017-07-02T08:52:24Z</time>
      </trkpt>
      <trkpt lat="44.48778" lon="5.54869">
        <ele>1302.24</ele>
        <time>2017-07-02T08:52:39Z</time>
      </trkpt>
      <trkpt lat="44.48767" lon="5.5487">
        <ele>1304.65</ele>
        <time>2017-07-02T08:52:55Z</time>
      </trkpt>
      <trkpt lat="44.48755" lon="5.54869">
        <ele>1307.05</ele>
        <time>2017-07-02T08:53:09Z</time>
      </trkpt>
      <trkpt lat="44.48744" lon="5.5487">
        <ele>1309.45</ele>
        <time>2017-07-02T08:53:23Z</time>
      </trkpt>
      <trkpt lat="44.48741" lon="5.5487">
        <ele>1310.41</ele>
        <time>2017-07-02T08:53:26Z</time>
      </trkpt>
      <trkpt lat="44.48729" lon="5.54871">
        <ele>1312.82</ele>
        <time>2017-07-02T08:53:41Z</time>
      </trkpt>
      <trkpt lat="44.48717" lon="5.54871">
        <ele>1315.22</ele>
        <time>2017-07-02T08:53:55Z</time>
      </trkpt>
      <trkpt lat="44.48707" lon="5.54871">
        <ele>1317.62</ele>
        <time>2017-07-02T08:54:09Z</time>
      </trkpt>
      <trkpt lat="44.48694" lon="5.54869">
        <ele>1320.03</ele>
        <time>2017-07-02T08:54:23Z</time>
      </trkpt>
      <trkpt lat="44.48683" lon="5.54867">
        <ele>1321.47</ele>
        <time>2017-07-02T08:54:39Z</time>
      </trkpt>
      <trkpt lat="44.4867" lon="5.54863">
        <ele>1322.91</ele>
        <time>2017-07-02T08:54:54Z</time>
      </trkpt>
      <trkpt lat="44.48654" lon="5.54859">
        <ele>1323.87</ele>
        <time>2017-07-02T08:55:08Z</time>
      </trkpt>
      <trkpt lat="44.48635" lon="5.54855">
        <ele>1324.35</ele>
        <time>2017-07-02T08:55:25Z</time>
      </trkpt>
      <trkpt lat="44.48615" lon="5.54852">
        <ele>1324.35</ele>
        <time>2017-07-02T08:55:43Z</time>
      </trkpt>
      <trkpt lat="44.486" lon="5.5485">
        <ele>1325.8</ele>
        <time>2017-07-02T08:55:59Z</time>
      </trkpt>
      <trkpt lat="44.48586" lon="5.54847">
        <ele>1327.72</ele>
        <time>2017-07-02T08:56:13Z</time>
      </trkpt>
      <trkpt lat="44.48578" lon="5.54845">
        <ele>1328.68</ele>
        <time>2017-07-02T08:56:21Z</time>
      </trkpt>
      <trkpt lat="44.48576" lon="5.54845">
        <ele>1328.68</ele>
        <time>2017-07-02T08:56:23Z</time>
      </trkpt>
      <trkpt lat="44.48567" lon="5.54846">
        <ele>1329.64</ele>
        <time>2017-07-02T08:56:32Z</time>
      </trkpt>
      <trkpt lat="44.48556" lon="5.54844">
        <ele>1330.6</ele>
        <time>2017-07-02T08:56:43Z</time>
      </trkpt>
      <trkpt lat="44.48543" lon="5.54842">
        <ele>1332.04</ele>
        <time>2017-07-02T08:56:56Z</time>
      </trkpt>
      <trkpt lat="44.48533" lon="5.5484">
        <ele>1333.01</ele>
        <time>2017-07-02T08:57:11Z</time>
      </trkpt>
      <trkpt lat="44.48521" lon="5.54835">
        <ele>1335.89</ele>
        <time>2017-07-02T08:57:25Z</time>
      </trkpt>
      <trkpt lat="44.48506" lon="5.54827">
        <ele>1338.29</ele>
        <time>2017-07-02T08:57:40Z</time>
      </trkpt>
      <trkpt lat="44.48496" lon="5.54827">
        <ele>1339.73</ele>
        <time>2017-07-02T08:57:52Z</time>
      </trkpt>
      <trkpt lat="44.4849" lon="5.54832">
        <ele>1340.7</ele>
        <time>2017-07-02T08:58:09Z</time>
      </trkpt>
      <trkpt lat="44.48488" lon="5.54829">
        <ele>1343.1</ele>
        <time>2017-07-02T09:01:56Z</time>
      </trkpt>
      <trkpt lat="44.48488" lon="5.54812">
        <ele>1342.14</ele>
        <time>2017-07-02T09:02:10Z</time>
      </trkpt>
      <trkpt lat="44.48482" lon="5.54793">
        <ele>1340.7</ele>
        <time>2017-07-02T09:02:25Z</time>
      </trkpt>
      <trkpt lat="44.48473" lon="5.5477">
        <ele>1340.22</ele>
        <time>2017-07-02T09:02:42Z</time>
      </trkpt>
      <trkpt lat="44.48473" lon="5.54746">
        <ele>1339.73</ele>
        <time>2017-07-02T09:02:57Z</time>
      </trkpt>
      <trkpt lat="44.48473" lon="5.54744">
        <ele>1339.73</ele>
        <time>2017-07-02T09:02:58Z</time>
      </trkpt>
      <trkpt lat="44.48483" lon="5.54725">
        <ele>1337.81</ele>
        <time>2017-07-02T09:03:13Z</time>
      </trkpt>
      <trkpt lat="44.485" lon="5.54718">
        <ele>1335.41</ele>
        <time>2017-07-02T09:03:29Z</time>
      </trkpt>
      <trkpt lat="44.48511" lon="5.54712">
        <ele>1334.45</ele>
        <time>2017-07-02T09:03:41Z</time>
      </trkpt>
      <trkpt lat="44.4853" lon="5.54705">
        <ele>1332.04</ele>
        <time>2017-07-02T09:03:57Z</time>
      </trkpt>
      <trkpt lat="44.48542" lon="5.54693">
        <ele>1330.6</ele>
        <time>2017-07-02T09:04:10Z</time>
      </trkpt>
      <trkpt lat="44.48545" lon="5.54677">
        <ele>1329.16</ele>
        <time>2017-07-02T09:04:25Z</time>
      </trkpt>
      <trkpt lat="44.4855" lon="5.54668">
        <ele>1329.16</ele>
        <time>2017-07-02T09:04:42Z</time>
      </trkpt>
      <trkpt lat="44.48549" lon="5.54664">
        <ele>1328.2</ele>
        <time>2017-07-02T09:04:45Z</time>
      </trkpt>
      <trkpt lat="44.48538" lon="5.5464">
        <ele>1326.28</ele>
        <time>2017-07-02T09:05:05Z</time>
      </trkpt>
      <trkpt lat="44.48526" lon="5.54622">
        <ele>1324.35</ele>
        <time>2017-07-02T09:05:21Z</time>
      </trkpt>
      <trkpt lat="44.48515" lon="5.54599">
        <ele>1322.43</ele>
        <time>2017-07-02T09:05:36Z</time>
      </trkpt>
      <trkpt lat="44.48508" lon="5.54569">
        <ele>1320.51</ele>
        <time>2017-07-02T09:05:54Z</time>
      </trkpt>
      <trkpt lat="44.48499" lon="5.54544">
        <ele>1319.55</ele>
        <time>2017-07-02T09:06:09Z</time>
      </trkpt>
      <trkpt lat="44.48489" lon="5.54519">
        <ele>1318.59</ele>
        <time>2017-07-02T09:06:25Z</time>
      </trkpt>
      <trkpt lat="44.48483" lon="5.54498">
        <ele>1317.62</ele>
        <time>2017-07-02T09:06:39Z</time>
      </trkpt>
      <trkpt lat="44.48474" lon="5.5447">
        <ele>1315.22</ele>
        <time>2017-07-02T09:06:57Z</time>
      </trkpt>
      <trkpt lat="44.48473" lon="5.54467">
        <ele>1315.22</ele>
        <time>2017-07-02T09:06:59Z</time>
      </trkpt>
      <trkpt lat="44.48467" lon="5.5444">
        <ele>1313.78</ele>
        <time>2017-07-02T09:07:14Z</time>
      </trkpt>
      <trkpt lat="44.48466" lon="5.54428">
        <ele>1313.78</ele>
        <time>2017-07-02T09:07:21Z</time>
      </trkpt>
      <trkpt lat="44.4847" lon="5.54399">
        <ele>1313.3</ele>
        <time>2017-07-02T09:07:36Z</time>
      </trkpt>
      <trkpt lat="44.48469" lon="5.54373">
        <ele>1312.34</ele>
        <time>2017-07-02T09:07:52Z</time>
      </trkpt>
      <trkpt lat="44.48469" lon="5.54347">
        <ele>1310.9</ele>
        <time>2017-07-02T09:08:07Z</time>
      </trkpt>
      <trkpt lat="44.48471" lon="5.54318">
        <ele>1310.41</ele>
        <time>2017-07-02T09:08:23Z</time>
      </trkpt>
      <trkpt lat="44.48471" lon="5.54311">
        <ele>1309.93</ele>
        <time>2017-07-02T09:08:27Z</time>
      </trkpt>
      <trkpt lat="44.48473" lon="5.54283">
        <ele>1308.49</ele>
        <time>2017-07-02T09:08:42Z</time>
      </trkpt>
      <trkpt lat="44.48475" lon="5.54274">
        <ele>1308.01</ele>
        <time>2017-07-02T09:08:47Z</time>
      </trkpt>
      <trkpt lat="44.48479" lon="5.5425">
        <ele>1306.57</ele>
        <time>2017-07-02T09:09:00Z</time>
      </trkpt>
      <trkpt lat="44.48481" lon="5.54239">
        <ele>1306.57</ele>
        <time>2017-07-02T09:09:06Z</time>
      </trkpt>
      <trkpt lat="44.48486" lon="5.54213">
        <ele>1305.13</ele>
        <time>2017-07-02T09:09:22Z</time>
      </trkpt>
      <trkpt lat="44.48491" lon="5.54184">
        <ele>1304.17</ele>
        <time>2017-07-02T09:09:38Z</time>
      </trkpt>
      <trkpt lat="44.485" lon="5.54154">
        <ele>1302.72</ele>
        <time>2017-07-02T09:09:56Z</time>
      </trkpt>
      <trkpt lat="44.48505" lon="5.54148">
        <ele>1301.76</ele>
        <time>2017-07-02T09:10:01Z</time>
      </trkpt>
      <trkpt lat="44.48521" lon="5.54132">
        <ele>1300.8</ele>
        <time>2017-07-02T09:10:16Z</time>
      </trkpt>
      <trkpt lat="44.48534" lon="5.54118">
        <ele>1299.84</ele>
        <time>2017-07-02T09:10:29Z</time>
      </trkpt>
      <trkpt lat="44.48537" lon="5.54113">
        <ele>1299.84</ele>
        <time>2017-07-02T09:10:33Z</time>
      </trkpt>
      <trkpt lat="44.48549" lon="5.5409">
        <ele>1297.92</ele>
        <time>2017-07-02T09:10:49Z</time>
      </trkpt>
      <trkpt lat="44.48557" lon="5.54074">
        <ele>1296.96</ele>
        <time>2017-07-02T09:11:00Z</time>
      </trkpt>
      <trkpt lat="44.48563" lon="5.54046">
        <ele>1295.51</ele>
        <time>2017-07-02T09:11:17Z</time>
      </trkpt>
      <trkpt lat="44.48572" lon="5.54026">
        <ele>1295.03</ele>
        <time>2017-07-02T09:11:31Z</time>
      </trkpt>
      <trkpt lat="44.48584" lon="5.54003">
        <ele>1293.59</ele>
        <time>2017-07-02T09:11:47Z</time>
      </trkpt>
      <trkpt lat="44.48588" lon="5.53971">
        <ele>1291.67</ele>
        <time>2017-07-02T09:12:05Z</time>
      </trkpt>
      <trkpt lat="44.48589" lon="5.53963">
        <ele>1291.19</ele>
        <time>2017-07-02T09:12:10Z</time>
      </trkpt>
      <trkpt lat="44.48595" lon="5.53936">
        <ele>1289.27</ele>
        <time>2017-07-02T09:12:26Z</time>
      </trkpt>
      <trkpt lat="44.486" lon="5.53923">
        <ele>1288.78</ele>
        <time>2017-07-02T09:12:34Z</time>
      </trkpt>
      <trkpt lat="44.48607" lon="5.53906">
        <ele>1288.3</ele>
        <time>2017-07-02T09:12:45Z</time>
      </trkpt>
      <trkpt lat="44.48616" lon="5.5388">
        <ele>1288.3</ele>
        <time>2017-07-02T09:13:01Z</time>
      </trkpt>
      <trkpt lat="44.4862" lon="5.53864">
        <ele>1287.82</ele>
        <time>2017-07-02T09:13:11Z</time>
      </trkpt>
      <trkpt lat="44.48622" lon="5.53857">
        <ele>1286.86</ele>
        <time>2017-07-02T09:13:15Z</time>
      </trkpt>
      <trkpt lat="44.48626" lon="5.53829">
        <ele>1285.9</ele>
        <time>2017-07-02T09:13:32Z</time>
      </trkpt>
      <trkpt lat="44.48628" lon="5.53817">
        <ele>1284.94</ele>
        <time>2017-07-02T09:13:39Z</time>
      </trkpt>
      <trkpt lat="44.48631" lon="5.53787">
        <ele>1283.5</ele>
        <time>2017-07-02T09:13:56Z</time>
      </trkpt>
      <trkpt lat="44.4864" lon="5.53759">
        <ele>1282.06</ele>
        <time>2017-07-02T09:14:12Z</time>
      </trkpt>
      <trkpt lat="44.48642" lon="5.53756">
        <ele>1282.06</ele>
        <time>2017-07-02T09:14:14Z</time>
      </trkpt>
      <trkpt lat="44.48644" lon="5.5375">
        <ele>1281.09</ele>
        <time>2017-07-02T09:14:28Z</time>
      </trkpt>
      <trkpt lat="44.4865" lon="5.53736">
        <ele>1280.61</ele>
        <time>2017-07-02T09:14:48Z</time>
      </trkpt>
      <trkpt lat="44.48654" lon="5.53726">
        <ele>1280.13</ele>
        <time>2017-07-02T09:15:02Z</time>
      </trkpt>
      <trkpt lat="44.48654" lon="5.53725">
        <ele>1280.13</ele>
        <time>2017-07-02T09:15:03Z</time>
      </trkpt>
      <trkpt lat="44.48656" lon="5.5372">
        <ele>1280.13</ele>
        <time>2017-07-02T09:15:06Z</time>
      </trkpt>
      <trkpt lat="44.48656" lon="5.53701">
        <ele>1278.69</ele>
        <time>2017-07-02T09:15:18Z</time>
      </trkpt>
      <trkpt lat="44.48653" lon="5.53671">
        <ele>1276.77</ele>
        <time>2017-07-02T09:15:36Z</time>
      </trkpt>
      <trkpt lat="44.48651" lon="5.53641">
        <ele>1275.33</ele>
        <time>2017-07-02T09:15:53Z</time>
      </trkpt>
      <trkpt lat="44.48651" lon="5.5361">
        <ele>1274.85</ele>
        <time>2017-07-02T09:16:09Z</time>
      </trkpt>
      <trkpt lat="44.48652" lon="5.5358">
        <ele>1272.92</ele>
        <time>2017-07-02T09:16:25Z</time>
      </trkpt>
      <trkpt lat="44.48649" lon="5.53549">
        <ele>1271</ele>
        <time>2017-07-02T09:16:44Z</time>
      </trkpt>
      <trkpt lat="44.48653" lon="5.53517">
        <ele>1269.56</ele>
        <time>2017-07-02T09:17:03Z</time>
      </trkpt>
      <trkpt lat="44.48662" lon="5.53485">
        <ele>1267.64</ele>
        <time>2017-07-02T09:17:20Z</time>
      </trkpt>
      <trkpt lat="44.48669" lon="5.53459">
        <ele>1265.23</ele>
        <time>2017-07-02T09:17:36Z</time>
      </trkpt>
      <trkpt lat="44.48669" lon="5.53458">
        <ele>1264.75</ele>
        <time>2017-07-02T09:17:37Z</time>
      </trkpt>
      <trkpt lat="44.48672" lon="5.5345">
        <ele>1264.75</ele>
        <time>2017-07-02T09:17:42Z</time>
      </trkpt>
      <trkpt lat="44.48684" lon="5.53421">
        <ele>1262.83</ele>
        <time>2017-07-02T09:18:00Z</time>
      </trkpt>
      <trkpt lat="44.48694" lon="5.53401">
        <ele>1261.39</ele>
        <time>2017-07-02T09:18:14Z</time>
      </trkpt>
      <trkpt lat="44.48707" lon="5.53383">
        <ele>1259.46</ele>
        <time>2017-07-02T09:18:28Z</time>
      </trkpt>
      <trkpt lat="44.48724" lon="5.53367">
        <ele>1257.06</ele>
        <time>2017-07-02T09:18:43Z</time>
      </trkpt>
      <trkpt lat="44.48746" lon="5.53363">
        <ele>1255.14</ele>
        <time>2017-07-02T09:19:00Z</time>
      </trkpt>
      <trkpt lat="44.48767" lon="5.53364">
        <ele>1252.25</ele>
        <time>2017-07-02T09:19:17Z</time>
      </trkpt>
      <trkpt lat="44.48788" lon="5.53366">
        <ele>1249.85</ele>
        <time>2017-07-02T09:19:34Z</time>
      </trkpt>
      <trkpt lat="44.48807" lon="5.53358">
        <ele>1246.97</ele>
        <time>2017-07-02T09:19:51Z</time>
      </trkpt>
      <trkpt lat="44.48819" lon="5.53338">
        <ele>1245.04</ele>
        <time>2017-07-02T09:20:05Z</time>
      </trkpt>
      <trkpt lat="44.48827" lon="5.53316">
        <ele>1241.68</ele>
        <time>2017-07-02T09:20:19Z</time>
      </trkpt>
      <trkpt lat="44.4883" lon="5.53283">
        <ele>1238.8</ele>
        <time>2017-07-02T09:20:38Z</time>
      </trkpt>
      <trkpt lat="44.48836" lon="5.53245">
        <ele>1235.91</ele>
        <time>2017-07-02T09:21:00Z</time>
      </trkpt>
      <trkpt lat="44.48843" lon="5.53213">
        <ele>1233.03</ele>
        <time>2017-07-02T09:21:19Z</time>
      </trkpt>
      <trkpt lat="44.48848" lon="5.53186">
        <ele>1231.59</ele>
        <time>2017-07-02T09:21:35Z</time>
      </trkpt>
      <trkpt lat="44.48853" lon="5.5316">
        <ele>1230.14</ele>
        <time>2017-07-02T09:21:50Z</time>
      </trkpt>
      <trkpt lat="44.48861" lon="5.53134">
        <ele>1229.18</ele>
        <time>2017-07-02T09:22:06Z</time>
      </trkpt>
      <trkpt lat="44.4887" lon="5.53104">
        <ele>1229.18</ele>
        <time>2017-07-02T09:22:23Z</time>
      </trkpt>
      <trkpt lat="44.48876" lon="5.53073">
        <ele>1228.7</ele>
        <time>2017-07-02T09:22:40Z</time>
      </trkpt>
      <trkpt lat="44.4888" lon="5.53047">
        <ele>1228.7</ele>
        <time>2017-07-02T09:22:55Z</time>
      </trkpt>
      <trkpt lat="44.48889" lon="5.53014">
        <ele>1228.22</ele>
        <time>2017-07-02T09:23:14Z</time>
      </trkpt>
      <trkpt lat="44.4889" lon="5.53012">
        <ele>1228.22</ele>
        <time>2017-07-02T09:23:15Z</time>
      </trkpt>
      <trkpt lat="44.489" lon="5.5298">
        <ele>1229.18</ele>
        <time>2017-07-02T09:23:34Z</time>
      </trkpt>
      <trkpt lat="44.48909" lon="5.52957">
        <ele>1228.22</ele>
        <time>2017-07-02T09:23:48Z</time>
      </trkpt>
      <trkpt lat="44.48918" lon="5.52926">
        <ele>1227.26</ele>
        <time>2017-07-02T09:24:07Z</time>
      </trkpt>
      <trkpt lat="44.48928" lon="5.529">
        <ele>1226.3</ele>
        <time>2017-07-02T09:24:22Z</time>
      </trkpt>
      <trkpt lat="44.48942" lon="5.52894">
        <ele>1226.3</ele>
        <time>2017-07-02T09:24:34Z</time>
      </trkpt>
      <trkpt lat="44.48963" lon="5.52898">
        <ele>1225.82</ele>
        <time>2017-07-02T09:24:50Z</time>
      </trkpt>
      <trkpt lat="44.4898" lon="5.52897">
        <ele>1225.34</ele>
        <time>2017-07-02T09:25:04Z</time>
      </trkpt>
      <trkpt lat="44.49002" lon="5.52892">
        <ele>1224.86</ele>
        <time>2017-07-02T09:25:21Z</time>
      </trkpt>
      <trkpt lat="44.49022" lon="5.52875">
        <ele>1224.86</ele>
        <time>2017-07-02T09:25:37Z</time>
      </trkpt>
      <trkpt lat="44.49032" lon="5.52858">
        <ele>1223.42</ele>
        <time>2017-07-02T09:25:49Z</time>
      </trkpt>
      <trkpt lat="44.49038" lon="5.52835">
        <ele>1223.42</ele>
        <time>2017-07-02T09:26:04Z</time>
      </trkpt>
      <trkpt lat="44.49041" lon="5.52805">
        <ele>1222.45</ele>
        <time>2017-07-02T09:26:20Z</time>
      </trkpt>
      <trkpt lat="44.4905" lon="5.52772">
        <ele>1220.05</ele>
        <time>2017-07-02T09:26:39Z</time>
      </trkpt>
      <trkpt lat="44.49061" lon="5.52751">
        <ele>1220.05</ele>
        <time>2017-07-02T09:26:54Z</time>
      </trkpt>
      <trkpt lat="44.49062" lon="5.52749">
        <ele>1220.05</ele>
        <time>2017-07-02T09:26:56Z</time>
      </trkpt>
      <trkpt lat="44.4908" lon="5.52738">
        <ele>1219.57</ele>
        <time>2017-07-02T09:27:12Z</time>
      </trkpt>
      <trkpt lat="44.491" lon="5.52727">
        <ele>1218.13</ele>
        <time>2017-07-02T09:27:27Z</time>
      </trkpt>
      <trkpt lat="44.49122" lon="5.5271">
        <ele>1217.65</ele>
        <time>2017-07-02T09:27:45Z</time>
      </trkpt>
      <trkpt lat="44.49124" lon="5.52708">
        <ele>1217.65</ele>
        <time>2017-07-02T09:27:47Z</time>
      </trkpt>
      <trkpt lat="44.49139" lon="5.5269">
        <ele>1216.69</ele>
        <time>2017-07-02T09:28:03Z</time>
      </trkpt>
      <trkpt lat="44.49157" lon="5.52676">
        <ele>1216.21</ele>
        <time>2017-07-02T09:28:17Z</time>
      </trkpt>
      <trkpt lat="44.49173" lon="5.5267">
        <ele>1215.72</ele>
        <time>2017-07-02T09:28:30Z</time>
      </trkpt>
      <trkpt lat="44.49175" lon="5.52669">
        <ele>1215.72</ele>
        <time>2017-07-02T09:28:31Z</time>
      </trkpt>
      <trkpt lat="44.49196" lon="5.52657">
        <ele>1214.28</ele>
        <time>2017-07-02T09:28:48Z</time>
      </trkpt>
      <trkpt lat="44.49217" lon="5.52648">
        <ele>1213.8</ele>
        <time>2017-07-02T09:29:04Z</time>
      </trkpt>
      <trkpt lat="44.49239" lon="5.52633">
        <ele>1212.36</ele>
        <time>2017-07-02T09:29:21Z</time>
      </trkpt>
      <trkpt lat="44.49252" lon="5.5262">
        <ele>1210.92</ele>
        <time>2017-07-02T09:29:33Z</time>
      </trkpt>
      <trkpt lat="44.49268" lon="5.52605">
        <ele>1209.96</ele>
        <time>2017-07-02T09:29:47Z</time>
      </trkpt>
      <trkpt lat="44.49274" lon="5.52598">
        <ele>1209.48</ele>
        <time>2017-07-02T09:29:53Z</time>
      </trkpt>
      <trkpt lat="44.49291" lon="5.52577">
        <ele>1207.55</ele>
        <time>2017-07-02T09:30:10Z</time>
      </trkpt>
      <trkpt lat="44.49305" lon="5.52555">
        <ele>1206.11</ele>
        <time>2017-07-02T09:30:25Z</time>
      </trkpt>
      <trkpt lat="44.49319" lon="5.52537">
        <ele>1205.15</ele>
        <time>2017-07-02T09:30:39Z</time>
      </trkpt>
      <trkpt lat="44.49335" lon="5.52521">
        <ele>1203.23</ele>
        <time>2017-07-02T09:30:55Z</time>
      </trkpt>
      <trkpt lat="44.49345" lon="5.52514">
        <ele>1203.23</ele>
        <time>2017-07-02T09:31:03Z</time>
      </trkpt>
      <trkpt lat="44.49366" lon="5.52492">
        <ele>1201.79</ele>
        <time>2017-07-02T09:31:22Z</time>
      </trkpt>
      <trkpt lat="44.49385" lon="5.52477">
        <ele>1200.82</ele>
        <time>2017-07-02T09:31:39Z</time>
      </trkpt>
      <trkpt lat="44.49403" lon="5.52471">
        <ele>1199.38</ele>
        <time>2017-07-02T09:31:54Z</time>
      </trkpt>
      <trkpt lat="44.4942" lon="5.52467">
        <ele>1198.9</ele>
        <time>2017-07-02T09:32:09Z</time>
      </trkpt>
      <trkpt lat="44.4943" lon="5.52465">
        <ele>1198.9</ele>
        <time>2017-07-02T09:32:24Z</time>
      </trkpt>
      <trkpt lat="44.49446" lon="5.52455">
        <ele>1197.94</ele>
        <time>2017-07-02T09:32:37Z</time>
      </trkpt>
      <trkpt lat="44.49466" lon="5.52438">
        <ele>1196.5</ele>
        <time>2017-07-02T09:32:56Z</time>
      </trkpt>
      <trkpt lat="44.49485" lon="5.52416">
        <ele>1195.54</ele>
        <time>2017-07-02T09:33:14Z</time>
      </trkpt>
      <trkpt lat="44.49497" lon="5.5239">
        <ele>1194.09</ele>
        <time>2017-07-02T09:33:32Z</time>
      </trkpt>
      <trkpt lat="44.49499" lon="5.52381">
        <ele>1193.61</ele>
        <time>2017-07-02T09:33:37Z</time>
      </trkpt>
      <trkpt lat="44.49501" lon="5.52374">
        <ele>1193.13</ele>
        <time>2017-07-02T09:33:41Z</time>
      </trkpt>
      <trkpt lat="44.49511" lon="5.52346">
        <ele>1192.17</ele>
        <time>2017-07-02T09:33:57Z</time>
      </trkpt>
      <trkpt lat="44.49526" lon="5.52326">
        <ele>1190.25</ele>
        <time>2017-07-02T09:34:12Z</time>
      </trkpt>
      <trkpt lat="44.49543" lon="5.52307">
        <ele>1189.29</ele>
        <time>2017-07-02T09:34:28Z</time>
      </trkpt>
      <trkpt lat="44.49554" lon="5.52292">
        <ele>1189.29</ele>
        <time>2017-07-02T09:34:41Z</time>
      </trkpt>
      <trkpt lat="44.49554" lon="5.52265">
        <ele>1189.29</ele>
        <time>2017-07-02T09:34:57Z</time>
      </trkpt>
      <trkpt lat="44.49546" lon="5.52237">
        <ele>1188.33</ele>
        <time>2017-07-02T09:35:14Z</time>
      </trkpt>
      <trkpt lat="44.49547" lon="5.52222">
        <ele>1186.4</ele>
        <time>2017-07-02T09:35:29Z</time>
      </trkpt>
      <trkpt lat="44.49547" lon="5.52211">
        <ele>1185.92</ele>
        <time>2017-07-02T09:35:48Z</time>
      </trkpt>
      <trkpt lat="44.4955" lon="5.52206">
        <ele>1185.92</ele>
        <time>2017-07-02T09:35:54Z</time>
      </trkpt>
      <trkpt lat="44.49557" lon="5.52191">
        <ele>1184.96</ele>
        <time>2017-07-02T09:36:09Z</time>
      </trkpt>
      <trkpt lat="44.49571" lon="5.52183">
        <ele>1184.96</ele>
        <time>2017-07-02T09:36:26Z</time>
      </trkpt>
      <trkpt lat="44.49574" lon="5.52183">
        <ele>1184.96</ele>
        <time>2017-07-02T09:36:28Z</time>
      </trkpt>
      <trkpt lat="44.49576" lon="5.52183">
        <ele>1184.96</ele>
        <time>2017-07-02T09:36:30Z</time>
      </trkpt>
      <trkpt lat="44.49584" lon="5.52185">
        <ele>1184.96</ele>
        <time>2017-07-02T09:36:47Z</time>
      </trkpt>
      <trkpt lat="44.49587" lon="5.5218">
        <ele>1187.37</ele>
        <time>2017-07-02T09:41:56Z</time>
      </trkpt>
      <trkpt lat="44.4959" lon="5.52175">
        <ele>1187.37</ele>
        <time>2017-07-02T09:42:15Z</time>
      </trkpt>
      <trkpt lat="44.49597" lon="5.52158">
        <ele>1187.37</ele>
        <time>2017-07-02T09:42:31Z</time>
      </trkpt>
      <trkpt lat="44.49601" lon="5.52148">
        <ele>1187.37</ele>
        <time>2017-07-02T09:42:39Z</time>
      </trkpt>
      <trkpt lat="44.49613" lon="5.52119">
        <ele>1185.44</ele>
        <time>2017-07-02T09:42:59Z</time>
      </trkpt>
      <trkpt lat="44.49622" lon="5.52101">
        <ele>1184</ele>
        <time>2017-07-02T09:43:12Z</time>
      </trkpt>
      <trkpt lat="44.49625" lon="5.52084">
        <ele>1184.48</ele>
        <time>2017-07-02T09:43:22Z</time>
      </trkpt>
      <trkpt lat="44.49623" lon="5.52062">
        <ele>1184.96</ele>
        <time>2017-07-02T09:43:36Z</time>
      </trkpt>
      <trkpt lat="44.49623" lon="5.52053">
        <ele>1183.52</ele>
        <time>2017-07-02T09:43:42Z</time>
      </trkpt>
      <trkpt lat="44.49625" lon="5.52041">
        <ele>1182.56</ele>
        <time>2017-07-02T09:43:49Z</time>
      </trkpt>
      <trkpt lat="44.49629" lon="5.52013">
        <ele>1181.6</ele>
        <time>2017-07-02T09:44:05Z</time>
      </trkpt>
      <trkpt lat="44.49628" lon="5.51983">
        <ele>1179.19</ele>
        <time>2017-07-02T09:44:23Z</time>
      </trkpt>
      <trkpt lat="44.49626" lon="5.51947">
        <ele>1179.19</ele>
        <time>2017-07-02T09:44:43Z</time>
      </trkpt>
      <trkpt lat="44.49628" lon="5.51917">
        <ele>1177.75</ele>
        <time>2017-07-02T09:45:00Z</time>
      </trkpt>
      <trkpt lat="44.49628" lon="5.51884">
        <ele>1175.83</ele>
        <time>2017-07-02T09:45:18Z</time>
      </trkpt>
      <trkpt lat="44.49631" lon="5.51858">
        <ele>1175.35</ele>
        <time>2017-07-02T09:45:34Z</time>
      </trkpt>
      <trkpt lat="44.49636" lon="5.51823">
        <ele>1173.91</ele>
        <time>2017-07-02T09:45:54Z</time>
      </trkpt>
      <trkpt lat="44.49639" lon="5.51788">
        <ele>1173.43</ele>
        <time>2017-07-02T09:46:13Z</time>
      </trkpt>
      <trkpt lat="44.49635" lon="5.51769">
        <ele>1172.47</ele>
        <time>2017-07-02T09:46:25Z</time>
      </trkpt>
      <trkpt lat="44.4962" lon="5.51762">
        <ele>1171.02</ele>
        <time>2017-07-02T09:46:40Z</time>
      </trkpt>
      <trkpt lat="44.49606" lon="5.51756">
        <ele>1171.02</ele>
        <time>2017-07-02T09:46:54Z</time>
      </trkpt>
      <trkpt lat="44.49592" lon="5.51748">
        <ele>1171.02</ele>
        <time>2017-07-02T09:47:07Z</time>
      </trkpt>
      <trkpt lat="44.49576" lon="5.51741">
        <ele>1171.98</ele>
        <time>2017-07-02T09:47:21Z</time>
      </trkpt>
      <trkpt lat="44.4957" lon="5.51739">
        <ele>1172.95</ele>
        <time>2017-07-02T09:47:27Z</time>
      </trkpt>
      <trkpt lat="44.49556" lon="5.51732">
        <ele>1174.39</ele>
        <time>2017-07-02T09:47:41Z</time>
      </trkpt>
      <trkpt lat="44.49547" lon="5.51726">
        <ele>1175.83</ele>
        <time>2017-07-02T09:47:58Z</time>
      </trkpt>
      <trkpt lat="44.49545" lon="5.51725">
        <ele>1175.83</ele>
        <time>2017-07-02T09:48:13Z</time>
      </trkpt>
      <trkpt lat="44.49541" lon="5.51725">
        <ele>1175.35</ele>
        <time>2017-07-02T09:48:33Z</time>
      </trkpt>
      <trkpt lat="44.49536" lon="5.51728">
        <ele>1176.31</ele>
        <time>2017-07-02T09:48:40Z</time>
      </trkpt>
      <trkpt lat="44.49531" lon="5.51735">
        <ele>1179.67</ele>
        <time>2017-07-02T09:48:52Z</time>
      </trkpt>
      <trkpt lat="44.49527" lon="5.5174">
        <ele>1182.56</ele>
        <time>2017-07-02T09:49:00Z</time>
      </trkpt>
      <trkpt lat="44.49515" lon="5.51753">
        <ele>1184.96</ele>
        <time>2017-07-02T09:49:15Z</time>
      </trkpt>
      <trkpt lat="44.49506" lon="5.51764">
        <ele>1187.37</ele>
        <time>2017-07-02T09:49:31Z</time>
      </trkpt>
      <trkpt lat="44.49501" lon="5.51773">
        <ele>1190.73</ele>
        <time>2017-07-02T09:49:44Z</time>
      </trkpt>
      <trkpt lat="44.49495" lon="5.51782">
        <ele>1193.13</ele>
        <time>2017-07-02T09:49:59Z</time>
      </trkpt>
      <trkpt lat="44.49488" lon="5.51791">
        <ele>1196.02</ele>
        <time>2017-07-02T09:50:12Z</time>
      </trkpt>
      <trkpt lat="44.49479" lon="5.51797">
        <ele>1198.42</ele>
        <time>2017-07-02T09:50:27Z</time>
      </trkpt>
      <trkpt lat="44.49472" lon="5.51803">
        <ele>1201.79</ele>
        <time>2017-07-02T09:50:40Z</time>
      </trkpt>
      <trkpt lat="44.49464" lon="5.5181">
        <ele>1204.19</ele>
        <time>2017-07-02T09:50:55Z</time>
      </trkpt>
      <trkpt lat="44.49456" lon="5.51814">
        <ele>1206.11</ele>
        <time>2017-07-02T09:51:10Z</time>
      </trkpt>
      <trkpt lat="44.49448" lon="5.51816">
        <ele>1208.03</ele>
        <time>2017-07-02T09:51:27Z</time>
      </trkpt>
      <trkpt lat="44.4944" lon="5.51817">
        <ele>1210.92</ele>
        <time>2017-07-02T09:51:41Z</time>
      </trkpt>
      <trkpt lat="44.49431" lon="5.51818">
        <ele>1212.84</ele>
        <time>2017-07-02T09:51:53Z</time>
      </trkpt>
      <trkpt lat="44.49419" lon="5.51819">
        <ele>1214.76</ele>
        <time>2017-07-02T09:52:08Z</time>
      </trkpt>
      <trkpt lat="44.49414" lon="5.51818">
        <ele>1217.17</ele>
        <time>2017-07-02T09:52:21Z</time>
      </trkpt>
      <trkpt lat="44.49406" lon="5.51823">
        <ele>1220.05</ele>
        <time>2017-07-02T09:52:34Z</time>
      </trkpt>
      <trkpt lat="44.49396" lon="5.51829">
        <ele>1223.42</ele>
        <time>2017-07-02T09:52:52Z</time>
      </trkpt>
      <trkpt lat="44.49387" lon="5.51834">
        <ele>1225.82</ele>
        <time>2017-07-02T09:53:08Z</time>
      </trkpt>
      <trkpt lat="44.49381" lon="5.51839">
        <ele>1228.7</ele>
        <time>2017-07-02T09:53:22Z</time>
      </trkpt>
      <trkpt lat="44.49376" lon="5.51844">
        <ele>1230.62</ele>
        <time>2017-07-02T09:53:35Z</time>
      </trkpt>
      <trkpt lat="44.49371" lon="5.51852">
        <ele>1232.55</ele>
        <time>2017-07-02T09:53:49Z</time>
      </trkpt>
      <trkpt lat="44.49365" lon="5.51859">
        <ele>1234.47</ele>
        <time>2017-07-02T09:54:02Z</time>
      </trkpt>
      <trkpt lat="44.49359" lon="5.51867">
        <ele>1237.35</ele>
        <time>2017-07-02T09:54:16Z</time>
      </trkpt>
      <trkpt lat="44.49354" lon="5.5188">
        <ele>1239.76</ele>
        <time>2017-07-02T09:54:31Z</time>
      </trkpt>
      <trkpt lat="44.49348" lon="5.51891">
        <ele>1241.68</ele>
        <time>2017-07-02T09:54:45Z</time>
      </trkpt>
      <trkpt lat="44.49344" lon="5.51896">
        <ele>1245.04</ele>
        <time>2017-07-02T09:54:56Z</time>
      </trkpt>
      <trkpt lat="44.49339" lon="5.51901">
        <ele>1246.97</ele>
        <time>2017-07-02T09:55:08Z</time>
      </trkpt>
      <trkpt lat="44.49333" lon="5.51903">
        <ele>1249.85</ele>
        <time>2017-07-02T09:55:20Z</time>
      </trkpt>
      <trkpt lat="44.49327" lon="5.51907">
        <ele>1252.74</ele>
        <time>2017-07-02T09:55:34Z</time>
      </trkpt>
      <trkpt lat="44.49322" lon="5.51911">
        <ele>1256.1</ele>
        <time>2017-07-02T09:55:47Z</time>
      </trkpt>
      <trkpt lat="44.49318" lon="5.51915">
        <ele>1258.02</ele>
        <time>2017-07-02T09:55:59Z</time>
      </trkpt>
      <trkpt lat="44.49311" lon="5.51923">
        <ele>1258.5</ele>
        <time>2017-07-02T09:56:14Z</time>
      </trkpt>
      <trkpt lat="44.49307" lon="5.5193">
        <ele>1261.39</ele>
        <time>2017-07-02T09:56:30Z</time>
      </trkpt>
      <trkpt lat="44.49303" lon="5.5194">
        <ele>1263.79</ele>
        <time>2017-07-02T09:56:44Z</time>
      </trkpt>
      <trkpt lat="44.493" lon="5.51949">
        <ele>1266.19</ele>
        <time>2017-07-02T09:56:57Z</time>
      </trkpt>
      <trkpt lat="44.49292" lon="5.51954">
        <ele>1268.12</ele>
        <time>2017-07-02T09:57:13Z</time>
      </trkpt>
      <trkpt lat="44.49287" lon="5.51963">
        <ele>1271.48</ele>
        <time>2017-07-02T09:57:27Z</time>
      </trkpt>
      <trkpt lat="44.49283" lon="5.51971">
        <ele>1273.88</ele>
        <time>2017-07-02T09:57:43Z</time>
      </trkpt>
      <trkpt lat="44.49281" lon="5.51982">
        <ele>1277.25</ele>
        <time>2017-07-02T09:57:55Z</time>
      </trkpt>
      <trkpt lat="44.49279" lon="5.5199">
        <ele>1279.65</ele>
        <time>2017-07-02T09:58:09Z</time>
      </trkpt>
      <trkpt lat="44.49276" lon="5.52">
        <ele>1281.09</ele>
        <time>2017-07-02T09:58:24Z</time>
      </trkpt>
      <trkpt lat="44.49271" lon="5.52005">
        <ele>1284.46</ele>
        <time>2017-07-02T09:58:38Z</time>
      </trkpt>
      <trkpt lat="44.49268" lon="5.52013">
        <ele>1286.86</ele>
        <time>2017-07-02T09:58:52Z</time>
      </trkpt>
      <trkpt lat="44.49264" lon="5.52024">
        <ele>1290.23</ele>
        <time>2017-07-02T09:59:08Z</time>
      </trkpt>
      <trkpt lat="44.4926" lon="5.52031">
        <ele>1291.19</ele>
        <time>2017-07-02T09:59:20Z</time>
      </trkpt>
      <trkpt lat="44.49257" lon="5.52038">
        <ele>1293.59</ele>
        <time>2017-07-02T09:59:32Z</time>
      </trkpt>
      <trkpt lat="44.49254" lon="5.52044">
        <ele>1296.96</ele>
        <time>2017-07-02T09:59:42Z</time>
      </trkpt>
      <trkpt lat="44.49248" lon="5.52056">
        <ele>1300.32</ele>
        <time>2017-07-02T09:59:59Z</time>
      </trkpt>
      <trkpt lat="44.49241" lon="5.52061">
        <ele>1301.76</ele>
        <time>2017-07-02T10:00:14Z</time>
      </trkpt>
      <trkpt lat="44.49239" lon="5.52062">
        <ele>1302.72</ele>
        <time>2017-07-02T10:00:17Z</time>
      </trkpt>
      <trkpt lat="44.49233" lon="5.52071">
        <ele>1305.61</ele>
        <time>2017-07-02T10:00:31Z</time>
      </trkpt>
      <trkpt lat="44.49222" lon="5.52079">
        <ele>1307.53</ele>
        <time>2017-07-02T10:00:47Z</time>
      </trkpt>
      <trkpt lat="44.49213" lon="5.52087">
        <ele>1309.93</ele>
        <time>2017-07-02T10:01:03Z</time>
      </trkpt>
      <trkpt lat="44.49208" lon="5.5209">
        <ele>1311.86</ele>
        <time>2017-07-02T10:01:18Z</time>
      </trkpt>
      <trkpt lat="44.49201" lon="5.52099">
        <ele>1313.3</ele>
        <time>2017-07-02T10:01:33Z</time>
      </trkpt>
      <trkpt lat="44.49191" lon="5.52106">
        <ele>1316.18</ele>
        <time>2017-07-02T10:01:50Z</time>
      </trkpt>
      <trkpt lat="44.49184" lon="5.52112">
        <ele>1317.62</ele>
        <time>2017-07-02T10:02:04Z</time>
      </trkpt>
      <trkpt lat="44.49176" lon="5.52119">
        <ele>1319.07</ele>
        <time>2017-07-02T10:02:16Z</time>
      </trkpt>
      <trkpt lat="44.49168" lon="5.52124">
        <ele>1320.51</ele>
        <time>2017-07-02T10:02:30Z</time>
      </trkpt>
      <trkpt lat="44.49163" lon="5.5213">
        <ele>1321.47</ele>
        <time>2017-07-02T10:02:43Z</time>
      </trkpt>
      <trkpt lat="44.49157" lon="5.52137">
        <ele>1323.87</ele>
        <time>2017-07-02T10:02:56Z</time>
      </trkpt>
      <trkpt lat="44.49147" lon="5.52148">
        <ele>1325.8</ele>
        <time>2017-07-02T10:03:10Z</time>
      </trkpt>
      <trkpt lat="44.49139" lon="5.52154">
        <ele>1328.68</ele>
        <time>2017-07-02T10:03:20Z</time>
      </trkpt>
      <trkpt lat="44.49132" lon="5.52163">
        <ele>1332.04</ele>
        <time>2017-07-02T10:03:34Z</time>
      </trkpt>
      <trkpt lat="44.49125" lon="5.5217">
        <ele>1334.93</ele>
        <time>2017-07-02T10:03:51Z</time>
      </trkpt>
      <trkpt lat="44.49115" lon="5.52178">
        <ele>1336.85</ele>
        <time>2017-07-02T10:04:06Z</time>
      </trkpt>
      <trkpt lat="44.49105" lon="5.52187">
        <ele>1339.73</ele>
        <time>2017-07-02T10:04:21Z</time>
      </trkpt>
      <trkpt lat="44.49093" lon="5.52196">
        <ele>1342.14</ele>
        <time>2017-07-02T10:04:37Z</time>
      </trkpt>
      <trkpt lat="44.49083" lon="5.52204">
        <ele>1343.58</ele>
        <time>2017-07-02T10:04:49Z</time>
      </trkpt>
      <trkpt lat="44.49069" lon="5.52216">
        <ele>1345.98</ele>
        <time>2017-07-02T10:05:05Z</time>
      </trkpt>
      <trkpt lat="44.49057" lon="5.52224">
        <ele>1349.35</ele>
        <time>2017-07-02T10:05:19Z</time>
      </trkpt>
      <trkpt lat="44.49041" lon="5.52235">
        <ele>1350.31</ele>
        <time>2017-07-02T10:05:36Z</time>
      </trkpt>
      <trkpt lat="44.49029" lon="5.52245">
        <ele>1353.19</ele>
        <time>2017-07-02T10:05:51Z</time>
      </trkpt>
      <trkpt lat="44.49024" lon="5.52248">
        <ele>1354.63</ele>
        <time>2017-07-02T10:05:56Z</time>
      </trkpt>
      <trkpt lat="44.49009" lon="5.52254">
        <ele>1355.12</ele>
        <time>2017-07-02T10:06:10Z</time>
      </trkpt>
      <trkpt lat="44.48995" lon="5.52263">
        <ele>1355.6</ele>
        <time>2017-07-02T10:06:24Z</time>
      </trkpt>
      <trkpt lat="44.48994" lon="5.52264">
        <ele>1355.6</ele>
        <time>2017-07-02T10:06:25Z</time>
      </trkpt>
      <trkpt lat="44.48991" lon="5.52266">
        <ele>1358</ele>
        <time>2017-07-02T10:06:27Z</time>
      </trkpt>
      <trkpt lat="44.48987" lon="5.52268">
        <ele>1356.08</ele>
        <time>2017-07-02T10:06:30Z</time>
      </trkpt>
      <trkpt lat="44.48985" lon="5.52269">
        <ele>1357.52</ele>
        <time>2017-07-02T10:06:32Z</time>
      </trkpt>
      <trkpt lat="44.4898" lon="5.52272">
        <ele>1356.56</ele>
        <time>2017-07-02T10:06:37Z</time>
      </trkpt>
      <trkpt lat="44.48969" lon="5.52279">
        <ele>1358.48</ele>
        <time>2017-07-02T10:06:48Z</time>
      </trkpt>
      <trkpt lat="44.48963" lon="5.52282">
        <ele>1359.92</ele>
        <time>2017-07-02T10:06:53Z</time>
      </trkpt>
      <trkpt lat="44.48948" lon="5.52289">
        <ele>1362.81</ele>
        <time>2017-07-02T10:07:06Z</time>
      </trkpt>
      <trkpt lat="44.48947" lon="5.52289">
        <ele>1362.81</ele>
        <time>2017-07-02T10:07:07Z</time>
      </trkpt>
      <trkpt lat="44.4894" lon="5.52292">
        <ele>1362.81</ele>
        <time>2017-07-02T10:07:13Z</time>
      </trkpt>
      <trkpt lat="44.48935" lon="5.52293">
        <ele>1362.33</ele>
        <time>2017-07-02T10:07:18Z</time>
      </trkpt>
      <trkpt lat="44.48933" lon="5.52294">
        <ele>1363.77</ele>
        <time>2017-07-02T10:07:20Z</time>
      </trkpt>
      <trkpt lat="44.48927" lon="5.52297">
        <ele>1365.69</ele>
        <time>2017-07-02T10:07:26Z</time>
      </trkpt>
      <trkpt lat="44.48909" lon="5.52306">
        <ele>1366.65</ele>
        <time>2017-07-02T10:07:42Z</time>
      </trkpt>
      <trkpt lat="44.48894" lon="5.52314">
        <ele>1366.65</ele>
        <time>2017-07-02T10:07:57Z</time>
      </trkpt>
      <trkpt lat="44.48877" lon="5.5232">
        <ele>1369.05</ele>
        <time>2017-07-02T10:08:12Z</time>
      </trkpt>
      <trkpt lat="44.48858" lon="5.5233">
        <ele>1370.02</ele>
        <time>2017-07-02T10:08:29Z</time>
      </trkpt>
      <trkpt lat="44.48857" lon="5.52331">
        <ele>1368.57</ele>
        <time>2017-07-02T10:08:31Z</time>
      </trkpt>
      <trkpt lat="44.48853" lon="5.52333">
        <ele>1370.02</ele>
        <time>2017-07-02T10:08:35Z</time>
      </trkpt>
      <trkpt lat="44.48839" lon="5.5234">
        <ele>1371.94</ele>
        <time>2017-07-02T10:08:50Z</time>
      </trkpt>
      <trkpt lat="44.48837" lon="5.52339">
        <ele>1373.38</ele>
        <time>2017-07-02T10:08:53Z</time>
      </trkpt>
      <trkpt lat="44.48835" lon="5.52339">
        <ele>1371.94</ele>
        <time>2017-07-02T10:08:55Z</time>
      </trkpt>
      <trkpt lat="44.48832" lon="5.52339">
        <ele>1374.82</ele>
        <time>2017-07-02T10:08:58Z</time>
      </trkpt>
      <trkpt lat="44.4883" lon="5.52338">
        <ele>1374.34</ele>
        <time>2017-07-02T10:09:00Z</time>
      </trkpt>
      <trkpt lat="44.48826" lon="5.52337">
        <ele>1372.42</ele>
        <time>2017-07-02T10:09:03Z</time>
      </trkpt>
      <trkpt lat="44.48824" lon="5.52337">
        <ele>1374.82</ele>
        <time>2017-07-02T10:09:05Z</time>
      </trkpt>
      <trkpt lat="44.48814" lon="5.52336">
        <ele>1371.94</ele>
        <time>2017-07-02T10:09:20Z</time>
      </trkpt>
      <trkpt lat="44.48814" lon="5.52336">
        <ele>1370.5</ele>
        <time>2017-07-02T10:09:43Z</time>
      </trkpt>
      <trkpt lat="44.48808" lon="5.52331">
        <ele>1368.57</ele>
        <time>2017-07-02T10:12:02Z</time>
      </trkpt>
      <trkpt lat="44.48808" lon="5.52334">
        <ele>1370.02</ele>
        <time>2017-07-02T10:12:12Z</time>
      </trkpt>
      <trkpt lat="44.48808" lon="5.52339">
        <ele>1368.09</ele>
        <time>2017-07-02T10:12:16Z</time>
      </trkpt>
      <trkpt lat="44.48809" lon="5.52347">
        <ele>1370.02</ele>
        <time>2017-07-02T10:12:22Z</time>
      </trkpt>
      <trkpt lat="44.48806" lon="5.52364">
        <ele>1373.38</ele>
        <time>2017-07-02T10:12:33Z</time>
      </trkpt>
      <trkpt lat="44.48804" lon="5.52375">
        <ele>1371.46</ele>
        <time>2017-07-02T10:12:41Z</time>
      </trkpt>
      <trkpt lat="44.488" lon="5.52383">
        <ele>1371.46</ele>
        <time>2017-07-02T10:12:47Z</time>
      </trkpt>
      <trkpt lat="44.48795" lon="5.52404">
        <ele>1372.42</ele>
        <time>2017-07-02T10:13:02Z</time>
      </trkpt>
      <trkpt lat="44.48792" lon="5.52421">
        <ele>1372.42</ele>
        <time>2017-07-02T10:13:16Z</time>
      </trkpt>
      <trkpt lat="44.4879" lon="5.52432">
        <ele>1373.86</ele>
        <time>2017-07-02T10:13:25Z</time>
      </trkpt>
      <trkpt lat="44.48788" lon="5.5245">
        <ele>1376.75</ele>
        <time>2017-07-02T10:13:41Z</time>
      </trkpt>
      <trkpt lat="44.48787" lon="5.52456">
        <ele>1378.19</ele>
        <time>2017-07-02T10:13:46Z</time>
      </trkpt>
      <trkpt lat="44.48783" lon="5.52472">
        <ele>1379.15</ele>
        <time>2017-07-02T10:14:01Z</time>
      </trkpt>
      <trkpt lat="44.48781" lon="5.52487">
        <ele>1380.11</ele>
        <time>2017-07-02T10:14:16Z</time>
      </trkpt>
      <trkpt lat="44.4878" lon="5.52503">
        <ele>1382.99</ele>
        <time>2017-07-02T10:14:32Z</time>
      </trkpt>
      <trkpt lat="44.4878" lon="5.52513">
        <ele>1385.88</ele>
        <time>2017-07-02T10:14:44Z</time>
      </trkpt>
      <trkpt lat="44.48784" lon="5.52522">
        <ele>1389.72</ele>
        <time>2017-07-02T10:15:00Z</time>
      </trkpt>
      <trkpt lat="44.48785" lon="5.52523">
        <ele>1389.72</ele>
        <time>2017-07-02T10:15:01Z</time>
      </trkpt>
      <trkpt lat="44.48789" lon="5.52533">
        <ele>1392.13</ele>
        <time>2017-07-02T10:15:16Z</time>
      </trkpt>
      <trkpt lat="44.48791" lon="5.52545">
        <ele>1393.57</ele>
        <time>2017-07-02T10:15:32Z</time>
      </trkpt>
      <trkpt lat="44.48794" lon="5.52559">
        <ele>1396.45</ele>
        <time>2017-07-02T10:15:51Z</time>
      </trkpt>
      <trkpt lat="44.48794" lon="5.52571">
        <ele>1399.82</ele>
        <time>2017-07-02T10:16:02Z</time>
      </trkpt>
      <trkpt lat="44.48791" lon="5.5258">
        <ele>1399.82</ele>
        <time>2017-07-02T10:16:12Z</time>
      </trkpt>
      <trkpt lat="44.48787" lon="5.52598">
        <ele>1401.26</ele>
        <time>2017-07-02T10:16:29Z</time>
      </trkpt>
      <trkpt lat="44.48779" lon="5.52612">
        <ele>1403.18</ele>
        <time>2017-07-02T10:16:43Z</time>
      </trkpt>
      <trkpt lat="44.48773" lon="5.52625">
        <ele>1403.66</ele>
        <time>2017-07-02T10:16:57Z</time>
      </trkpt>
      <trkpt lat="44.48766" lon="5.52642">
        <ele>1406.07</ele>
        <time>2017-07-02T10:17:12Z</time>
      </trkpt>
      <trkpt lat="44.48764" lon="5.52656">
        <ele>1408.95</ele>
        <time>2017-07-02T10:17:25Z</time>
      </trkpt>
      <trkpt lat="44.48765" lon="5.52671">
        <ele>1409.91</ele>
        <time>2017-07-02T10:17:40Z</time>
      </trkpt>
      <trkpt lat="44.48762" lon="5.52689">
        <ele>1411.83</ele>
        <time>2017-07-02T10:17:57Z</time>
      </trkpt>
      <trkpt lat="44.48758" lon="5.52696">
        <ele>1413.28</ele>
        <time>2017-07-02T10:18:04Z</time>
      </trkpt>
      <trkpt lat="44.4875" lon="5.5271">
        <ele>1415.2</ele>
        <time>2017-07-02T10:18:18Z</time>
      </trkpt>
      <trkpt lat="44.48749" lon="5.52713">
        <ele>1416.16</ele>
        <time>2017-07-02T10:18:20Z</time>
      </trkpt>
      <trkpt lat="44.48747" lon="5.5272">
        <ele>1418.08</ele>
        <time>2017-07-02T10:18:27Z</time>
      </trkpt>
      <trkpt lat="44.4874" lon="5.52736">
        <ele>1420</ele>
        <time>2017-07-02T10:18:43Z</time>
      </trkpt>
      <trkpt lat="44.48735" lon="5.52748">
        <ele>1422.89</ele>
        <time>2017-07-02T10:18:57Z</time>
      </trkpt>
      <trkpt lat="44.48728" lon="5.52762">
        <ele>1424.81</ele>
        <time>2017-07-02T10:19:14Z</time>
      </trkpt>
      <trkpt lat="44.48724" lon="5.52773">
        <ele>1426.73</ele>
        <time>2017-07-02T10:19:28Z</time>
      </trkpt>
      <trkpt lat="44.48721" lon="5.52785">
        <ele>1429.62</ele>
        <time>2017-07-02T10:19:41Z</time>
      </trkpt>
      <trkpt lat="44.48716" lon="5.52802">
        <ele>1432.5</ele>
        <time>2017-07-02T10:19:57Z</time>
      </trkpt>
      <trkpt lat="44.48715" lon="5.52804">
        <ele>1432.5</ele>
        <time>2017-07-02T10:20:00Z</time>
      </trkpt>
      <trkpt lat="44.48708" lon="5.52821">
        <ele>1433.94</ele>
        <time>2017-07-02T10:20:16Z</time>
      </trkpt>
      <trkpt lat="44.48703" lon="5.52836">
        <ele>1435.87</ele>
        <time>2017-07-02T10:20:30Z</time>
      </trkpt>
      <trkpt lat="44.48695" lon="5.52846">
        <ele>1435.87</ele>
        <time>2017-07-02T10:20:42Z</time>
      </trkpt>
      <trkpt lat="44.48683" lon="5.5286">
        <ele>1436.83</ele>
        <time>2017-07-02T10:20:58Z</time>
      </trkpt>
      <trkpt lat="44.48674" lon="5.52873">
        <ele>1439.71</ele>
        <time>2017-07-02T10:21:11Z</time>
      </trkpt>
      <trkpt lat="44.48669" lon="5.52885">
        <ele>1438.75</ele>
        <time>2017-07-02T10:21:22Z</time>
      </trkpt>
      <trkpt lat="44.48668" lon="5.52897">
        <ele>1438.75</ele>
        <time>2017-07-02T10:21:32Z</time>
      </trkpt>
      <trkpt lat="44.48665" lon="5.52907">
        <ele>1440.19</ele>
        <time>2017-07-02T10:21:40Z</time>
      </trkpt>
      <trkpt lat="44.48661" lon="5.5292">
        <ele>1439.23</ele>
        <time>2017-07-02T10:21:49Z</time>
      </trkpt>
      <trkpt lat="44.4866" lon="5.52924">
        <ele>1440.67</ele>
        <time>2017-07-02T10:21:52Z</time>
      </trkpt>
      <trkpt lat="44.48657" lon="5.52942">
        <ele>1441.15</ele>
        <time>2017-07-02T10:22:05Z</time>
      </trkpt>
      <trkpt lat="44.48657" lon="5.52943">
        <ele>1441.15</ele>
        <time>2017-07-02T10:22:06Z</time>
      </trkpt>
      <trkpt lat="44.48645" lon="5.52966">
        <ele>1439.71</ele>
        <time>2017-07-02T10:22:26Z</time>
      </trkpt>
      <trkpt lat="44.48644" lon="5.52967">
        <ele>1439.71</ele>
        <time>2017-07-02T10:22:27Z</time>
      </trkpt>
      <trkpt lat="44.48632" lon="5.52989">
        <ele>1437.79</ele>
        <time>2017-07-02T10:22:45Z</time>
      </trkpt>
      <trkpt lat="44.48626" lon="5.53001">
        <ele>1437.79</ele>
        <time>2017-07-02T10:22:58Z</time>
      </trkpt>
      <trkpt lat="44.48622" lon="5.53004">
        <ele>1436.35</ele>
        <time>2017-07-02T10:23:02Z</time>
      </trkpt>
      <trkpt lat="44.4862" lon="5.53008">
        <ele>1434.91</ele>
        <time>2017-07-02T10:23:05Z</time>
      </trkpt>
      <trkpt lat="44.48607" lon="5.53023">
        <ele>1431.54</ele>
        <time>2017-07-02T10:23:20Z</time>
      </trkpt>
      <trkpt lat="44.48595" lon="5.53044">
        <ele>1429.62</ele>
        <time>2017-07-02T10:23:37Z</time>
      </trkpt>
      <trkpt lat="44.48594" lon="5.5305">
        <ele>1426.73</ele>
        <time>2017-07-02T10:23:51Z</time>
      </trkpt>
      <trkpt lat="44.48592" lon="5.53054">
        <ele>1426.73</ele>
        <time>2017-07-02T10:23:57Z</time>
      </trkpt>
      <trkpt lat="44.48586" lon="5.5308">
        <ele>1425.29</ele>
        <time>2017-07-02T10:24:15Z</time>
      </trkpt>
      <trkpt lat="44.48583" lon="5.53101">
        <ele>1424.81</ele>
        <time>2017-07-02T10:24:30Z</time>
      </trkpt>
      <trkpt lat="44.48581" lon="5.53128">
        <ele>1424.81</ele>
        <time>2017-07-02T10:24:47Z</time>
      </trkpt>
      <trkpt lat="44.48575" lon="5.53153">
        <ele>1425.77</ele>
        <time>2017-07-02T10:25:03Z</time>
      </trkpt>
      <trkpt lat="44.48566" lon="5.53182">
        <ele>1426.73</ele>
        <time>2017-07-02T10:25:21Z</time>
      </trkpt>
      <trkpt lat="44.48565" lon="5.53186">
        <ele>1425.29</ele>
        <time>2017-07-02T10:25:23Z</time>
      </trkpt>
      <trkpt lat="44.48558" lon="5.53209">
        <ele>1424.33</ele>
        <time>2017-07-02T10:25:38Z</time>
      </trkpt>
      <trkpt lat="44.48551" lon="5.53237">
        <ele>1426.25</ele>
        <time>2017-07-02T10:25:55Z</time>
      </trkpt>
      <trkpt lat="44.48542" lon="5.53264">
        <ele>1426.25</ele>
        <time>2017-07-02T10:26:12Z</time>
      </trkpt>
      <trkpt lat="44.4854" lon="5.53276">
        <ele>1426.73</ele>
        <time>2017-07-02T10:26:19Z</time>
      </trkpt>
      <trkpt lat="44.48532" lon="5.53299">
        <ele>1427.7</ele>
        <time>2017-07-02T10:26:34Z</time>
      </trkpt>
      <trkpt lat="44.4853" lon="5.53302">
        <ele>1426.73</ele>
        <time>2017-07-02T10:26:36Z</time>
      </trkpt>
      <trkpt lat="44.48521" lon="5.53324">
        <ele>1428.18</ele>
        <time>2017-07-02T10:26:50Z</time>
      </trkpt>
      <trkpt lat="44.4852" lon="5.53327">
        <ele>1426.25</ele>
        <time>2017-07-02T10:26:52Z</time>
      </trkpt>
      <trkpt lat="44.48512" lon="5.53356">
        <ele>1425.29</ele>
        <time>2017-07-02T10:27:09Z</time>
      </trkpt>
      <trkpt lat="44.48507" lon="5.53386">
        <ele>1424.81</ele>
        <time>2017-07-02T10:27:27Z</time>
      </trkpt>
      <trkpt lat="44.48503" lon="5.53408">
        <ele>1426.73</ele>
        <time>2017-07-02T10:27:41Z</time>
      </trkpt>
      <trkpt lat="44.485" lon="5.53436">
        <ele>1427.7</ele>
        <time>2017-07-02T10:27:58Z</time>
      </trkpt>
      <trkpt lat="44.48497" lon="5.53461">
        <ele>1426.73</ele>
        <time>2017-07-02T10:28:14Z</time>
      </trkpt>
      <trkpt lat="44.48495" lon="5.53486">
        <ele>1429.14</ele>
        <time>2017-07-02T10:28:30Z</time>
      </trkpt>
      <trkpt lat="44.48496" lon="5.53505">
        <ele>1430.1</ele>
        <time>2017-07-02T10:28:43Z</time>
      </trkpt>
      <trkpt lat="44.48498" lon="5.53515">
        <ele>1432.02</ele>
        <time>2017-07-02T10:28:57Z</time>
      </trkpt>
      <trkpt lat="44.48498" lon="5.53516">
        <ele>1432.98</ele>
        <time>2017-07-02T10:29:15Z</time>
      </trkpt>
      <trkpt lat="44.48498" lon="5.53517">
        <ele>1431.54</ele>
        <time>2017-07-02T10:29:18Z</time>
      </trkpt>
      <trkpt lat="44.48499" lon="5.53521">
        <ele>1433.46</ele>
        <time>2017-07-02T10:29:33Z</time>
      </trkpt>
      <trkpt lat="44.48498" lon="5.53538">
        <ele>1435.87</ele>
        <time>2017-07-02T10:29:48Z</time>
      </trkpt>
      <trkpt lat="44.48497" lon="5.53555">
        <ele>1437.31</ele>
        <time>2017-07-02T10:30:02Z</time>
      </trkpt>
      <trkpt lat="44.48496" lon="5.53572">
        <ele>1438.27</ele>
        <time>2017-07-02T10:30:15Z</time>
      </trkpt>
      <trkpt lat="44.48493" lon="5.5359">
        <ele>1440.67</ele>
        <time>2017-07-02T10:30:29Z</time>
      </trkpt>
      <trkpt lat="44.48489" lon="5.53609">
        <ele>1442.6</ele>
        <time>2017-07-02T10:30:44Z</time>
      </trkpt>
      <trkpt lat="44.48484" lon="5.53628">
        <ele>1445.48</ele>
        <time>2017-07-02T10:31:01Z</time>
      </trkpt>
      <trkpt lat="44.4848" lon="5.53645">
        <ele>1446.92</ele>
        <time>2017-07-02T10:31:17Z</time>
      </trkpt>
      <trkpt lat="44.48475" lon="5.53666">
        <ele>1447.88</ele>
        <time>2017-07-02T10:31:32Z</time>
      </trkpt>
      <trkpt lat="44.48474" lon="5.53674">
        <ele>1447.88</ele>
        <time>2017-07-02T10:31:37Z</time>
      </trkpt>
      <trkpt lat="44.48469" lon="5.53697">
        <ele>1448.36</ele>
        <time>2017-07-02T10:31:52Z</time>
      </trkpt>
      <trkpt lat="44.48464" lon="5.53721">
        <ele>1447.88</ele>
        <time>2017-07-02T10:32:08Z</time>
      </trkpt>
      <trkpt lat="44.48463" lon="5.53728">
        <ele>1447.88</ele>
        <time>2017-07-02T10:32:13Z</time>
      </trkpt>
      <trkpt lat="44.48457" lon="5.53751">
        <ele>1449.32</ele>
        <time>2017-07-02T10:32:29Z</time>
      </trkpt>
      <trkpt lat="44.48449" lon="5.53772">
        <ele>1450.29</ele>
        <time>2017-07-02T10:32:44Z</time>
      </trkpt>
      <trkpt lat="44.48443" lon="5.53793">
        <ele>1451.25</ele>
        <time>2017-07-02T10:32:59Z</time>
      </trkpt>
      <trkpt lat="44.48434" lon="5.53815">
        <ele>1452.21</ele>
        <time>2017-07-02T10:33:14Z</time>
      </trkpt>
      <trkpt lat="44.4843" lon="5.5383">
        <ele>1451.25</ele>
        <time>2017-07-02T10:33:29Z</time>
      </trkpt>
      <trkpt lat="44.48428" lon="5.53835">
        <ele>1451.25</ele>
        <time>2017-07-02T10:33:44Z</time>
      </trkpt>
      <trkpt lat="44.48426" lon="5.53839">
        <ele>1451.25</ele>
        <time>2017-07-02T10:33:48Z</time>
      </trkpt>
      <trkpt lat="44.48422" lon="5.53854">
        <ele>1451.25</ele>
        <time>2017-07-02T10:34:01Z</time>
      </trkpt>
      <trkpt lat="44.48421" lon="5.53857">
        <ele>1452.69</ele>
        <time>2017-07-02T10:34:03Z</time>
      </trkpt>
      <trkpt lat="44.48418" lon="5.53879">
        <ele>1453.17</ele>
        <time>2017-07-02T10:34:17Z</time>
      </trkpt>
      <trkpt lat="44.48417" lon="5.53888">
        <ele>1451.73</ele>
        <time>2017-07-02T10:34:23Z</time>
      </trkpt>
      <trkpt lat="44.4841" lon="5.53914">
        <ele>1451.73</ele>
        <time>2017-07-02T10:34:40Z</time>
      </trkpt>
      <trkpt lat="44.48405" lon="5.53927">
        <ele>1452.21</ele>
        <time>2017-07-02T10:34:49Z</time>
      </trkpt>
      <trkpt lat="44.484" lon="5.5394">
        <ele>1451.25</ele>
        <time>2017-07-02T10:34:58Z</time>
      </trkpt>
      <trkpt lat="44.48389" lon="5.53958">
        <ele>1452.69</ele>
        <time>2017-07-02T10:35:13Z</time>
      </trkpt>
      <trkpt lat="44.48382" lon="5.53979">
        <ele>1453.65</ele>
        <time>2017-07-02T10:35:28Z</time>
      </trkpt>
      <trkpt lat="44.48379" lon="5.53997">
        <ele>1454.61</ele>
        <time>2017-07-02T10:35:42Z</time>
      </trkpt>
      <trkpt lat="44.48377" lon="5.54014">
        <ele>1456.05</ele>
        <time>2017-07-02T10:35:54Z</time>
      </trkpt>
      <trkpt lat="44.48374" lon="5.54032">
        <ele>1458.94</ele>
        <time>2017-07-02T10:36:07Z</time>
      </trkpt>
      <trkpt lat="44.48372" lon="5.54043">
        <ele>1460.86</ele>
        <time>2017-07-02T10:36:15Z</time>
      </trkpt>
      <trkpt lat="44.48368" lon="5.54056">
        <ele>1460.86</ele>
        <time>2017-07-02T10:36:24Z</time>
      </trkpt>
      <trkpt lat="44.48362" lon="5.54081">
        <ele>1461.34</ele>
        <time>2017-07-02T10:36:41Z</time>
      </trkpt>
      <trkpt lat="44.48357" lon="5.54103">
        <ele>1462.3</ele>
        <time>2017-07-02T10:36:56Z</time>
      </trkpt>
      <trkpt lat="44.48352" lon="5.54122">
        <ele>1464.71</ele>
        <time>2017-07-02T10:37:09Z</time>
      </trkpt>
      <trkpt lat="44.48345" lon="5.54141">
        <ele>1466.15</ele>
        <time>2017-07-02T10:37:24Z</time>
      </trkpt>
      <trkpt lat="44.48343" lon="5.54145">
        <ele>1465.67</ele>
        <time>2017-07-02T10:37:28Z</time>
      </trkpt>
      <trkpt lat="44.48336" lon="5.54157">
        <ele>1464.71</ele>
        <time>2017-07-02T10:37:37Z</time>
      </trkpt>
      <trkpt lat="44.48325" lon="5.54165">
        <ele>1463.74</ele>
        <time>2017-07-02T10:37:52Z</time>
      </trkpt>
      <trkpt lat="44.4832" lon="5.54172">
        <ele>1463.26</ele>
        <time>2017-07-02T10:38:01Z</time>
      </trkpt>
      <trkpt lat="44.48309" lon="5.54181">
        <ele>1465.19</ele>
        <time>2017-07-02T10:38:18Z</time>
      </trkpt>
      <trkpt lat="44.48305" lon="5.54188">
        <ele>1468.07</ele>
        <time>2017-07-02T10:38:30Z</time>
      </trkpt>
      <trkpt lat="44.483" lon="5.54202">
        <ele>1470.95</ele>
        <time>2017-07-02T10:38:47Z</time>
      </trkpt>
      <trkpt lat="44.48295" lon="5.54212">
        <ele>1473.36</ele>
        <time>2017-07-02T10:39:02Z</time>
      </trkpt>
      <trkpt lat="44.48292" lon="5.5423">
        <ele>1473.84</ele>
        <time>2017-07-02T10:39:17Z</time>
      </trkpt>
      <trkpt lat="44.48293" lon="5.54234">
        <ele>1474.8</ele>
        <time>2017-07-02T10:39:23Z</time>
      </trkpt>
      <trkpt lat="44.48293" lon="5.5425">
        <ele>1478.16</ele>
        <time>2017-07-02T10:39:39Z</time>
      </trkpt>
      <trkpt lat="44.48293" lon="5.54254">
        <ele>1479.13</ele>
        <time>2017-07-02T10:39:42Z</time>
      </trkpt>
      <trkpt lat="44.48291" lon="5.54269">
        <ele>1480.57</ele>
        <time>2017-07-02T10:39:57Z</time>
      </trkpt>
      <trkpt lat="44.4829" lon="5.54278">
        <ele>1482.01</ele>
        <time>2017-07-02T10:40:06Z</time>
      </trkpt>
      <trkpt lat="44.48289" lon="5.54295">
        <ele>1484.41</ele>
        <time>2017-07-02T10:40:22Z</time>
      </trkpt>
      <trkpt lat="44.48289" lon="5.54313">
        <ele>1487.3</ele>
        <time>2017-07-02T10:40:39Z</time>
      </trkpt>
      <trkpt lat="44.48288" lon="5.54323">
        <ele>1489.22</ele>
        <time>2017-07-02T10:40:49Z</time>
      </trkpt>
      <trkpt lat="44.48287" lon="5.54339">
        <ele>1491.62</ele>
        <time>2017-07-02T10:41:04Z</time>
      </trkpt>
      <trkpt lat="44.48285" lon="5.54355">
        <ele>1493.06</ele>
        <time>2017-07-02T10:41:18Z</time>
      </trkpt>
      <trkpt lat="44.48284" lon="5.54369">
        <ele>1495.95</ele>
        <time>2017-07-02T10:41:32Z</time>
      </trkpt>
      <trkpt lat="44.48282" lon="5.54383">
        <ele>1498.83</ele>
        <time>2017-07-02T10:41:48Z</time>
      </trkpt>
      <trkpt lat="44.4828" lon="5.54397">
        <ele>1501.72</ele>
        <time>2017-07-02T10:42:03Z</time>
      </trkpt>
      <trkpt lat="44.48279" lon="5.54399">
        <ele>1503.16</ele>
        <time>2017-07-02T10:42:05Z</time>
      </trkpt>
      <trkpt lat="44.48275" lon="5.54414">
        <ele>1504.6</ele>
        <time>2017-07-02T10:42:20Z</time>
      </trkpt>
      <trkpt lat="44.4827" lon="5.54429">
        <ele>1506.52</ele>
        <time>2017-07-02T10:42:34Z</time>
      </trkpt>
      <trkpt lat="44.48264" lon="5.54446">
        <ele>1508.45</ele>
        <time>2017-07-02T10:42:49Z</time>
      </trkpt>
      <trkpt lat="44.48259" lon="5.54465">
        <ele>1510.37</ele>
        <time>2017-07-02T10:43:06Z</time>
      </trkpt>
      <trkpt lat="44.48255" lon="5.54483">
        <ele>1512.29</ele>
        <time>2017-07-02T10:43:22Z</time>
      </trkpt>
      <trkpt lat="44.48253" lon="5.54499">
        <ele>1515.18</ele>
        <time>2017-07-02T10:43:37Z</time>
      </trkpt>
      <trkpt lat="44.48253" lon="5.545">
        <ele>1515.18</ele>
        <time>2017-07-02T10:43:38Z</time>
      </trkpt>
      <trkpt lat="44.48255" lon="5.54511">
        <ele>1517.58</ele>
        <time>2017-07-02T10:43:53Z</time>
      </trkpt>
      <trkpt lat="44.48255" lon="5.54522">
        <ele>1520.46</ele>
        <time>2017-07-02T10:44:08Z</time>
      </trkpt>
      <trkpt lat="44.48255" lon="5.54529">
        <ele>1521.9</ele>
        <time>2017-07-02T10:44:17Z</time>
      </trkpt>
      <trkpt lat="44.48255" lon="5.54538">
        <ele>1523.83</ele>
        <time>2017-07-02T10:51:44Z</time>
      </trkpt>
      <trkpt lat="44.48253" lon="5.54543">
        <ele>1523.83</ele>
        <time>2017-07-02T10:51:58Z</time>
      </trkpt>
      <trkpt lat="44.48244" lon="5.54565">
        <ele>1522.87</ele>
        <time>2017-07-02T10:52:17Z</time>
      </trkpt>
      <trkpt lat="44.48233" lon="5.54586">
        <ele>1520.46</ele>
        <time>2017-07-02T10:52:36Z</time>
      </trkpt>
      <trkpt lat="44.48221" lon="5.54604">
        <ele>1519.02</ele>
        <time>2017-07-02T10:52:53Z</time>
      </trkpt>
      <trkpt lat="44.4821" lon="5.54622">
        <ele>1516.62</ele>
        <time>2017-07-02T10:53:09Z</time>
      </trkpt>
      <trkpt lat="44.48197" lon="5.54642">
        <ele>1514.21</ele>
        <time>2017-07-02T10:53:26Z</time>
      </trkpt>
      <trkpt lat="44.48184" lon="5.54661">
        <ele>1511.81</ele>
        <time>2017-07-02T10:53:45Z</time>
      </trkpt>
      <trkpt lat="44.48177" lon="5.54664">
        <ele>1510.37</ele>
        <time>2017-07-02T10:54:00Z</time>
      </trkpt>
      <trkpt lat="44.48173" lon="5.54666">
        <ele>1509.89</ele>
        <time>2017-07-02T10:54:11Z</time>
      </trkpt>
      <trkpt lat="44.4817" lon="5.54669">
        <ele>1507.97</ele>
        <time>2017-07-02T10:54:24Z</time>
      </trkpt>
      <trkpt lat="44.48165" lon="5.54692">
        <ele>1515.66</ele>
        <time>2017-07-02T11:47:40Z</time>
      </trkpt>
      <trkpt lat="44.48161" lon="5.54697">
        <ele>1514.69</ele>
        <time>2017-07-02T11:47:45Z</time>
      </trkpt>
      <trkpt lat="44.48161" lon="5.54698">
        <ele>1513.73</ele>
        <time>2017-07-02T11:47:46Z</time>
      </trkpt>
      <trkpt lat="44.48156" lon="5.54707">
        <ele>1513.25</ele>
        <time>2017-07-02T11:47:54Z</time>
      </trkpt>
      <trkpt lat="44.48142" lon="5.54729">
        <ele>1510.85</ele>
        <time>2017-07-02T11:48:14Z</time>
      </trkpt>
      <trkpt lat="44.48129" lon="5.54748">
        <ele>1508.45</ele>
        <time>2017-07-02T11:48:33Z</time>
      </trkpt>
      <trkpt lat="44.48119" lon="5.54766">
        <ele>1506.52</ele>
        <time>2017-07-02T11:48:51Z</time>
      </trkpt>
      <trkpt lat="44.48116" lon="5.54779">
        <ele>1503.64</ele>
        <time>2017-07-02T11:49:07Z</time>
      </trkpt>
      <trkpt lat="44.48113" lon="5.54786">
        <ele>1500.27</ele>
        <time>2017-07-02T11:49:19Z</time>
      </trkpt>
      <trkpt lat="44.48109" lon="5.54793">
        <ele>1496.91</ele>
        <time>2017-07-02T11:49:29Z</time>
      </trkpt>
      <trkpt lat="44.48108" lon="5.54794">
        <ele>1496.43</ele>
        <time>2017-07-02T11:49:31Z</time>
      </trkpt>
      <trkpt lat="44.48102" lon="5.54805">
        <ele>1493.06</ele>
        <time>2017-07-02T11:49:42Z</time>
      </trkpt>
      <trkpt lat="44.48101" lon="5.54805">
        <ele>1493.06</ele>
        <time>2017-07-02T11:49:43Z</time>
      </trkpt>
      <trkpt lat="44.48091" lon="5.54806">
        <ele>1489.22</ele>
        <time>2017-07-02T11:49:55Z</time>
      </trkpt>
      <trkpt lat="44.48082" lon="5.54813">
        <ele>1486.34</ele>
        <time>2017-07-02T11:50:08Z</time>
      </trkpt>
      <trkpt lat="44.48079" lon="5.54823">
        <ele>1483.93</ele>
        <time>2017-07-02T11:50:22Z</time>
      </trkpt>
      <trkpt lat="44.48077" lon="5.54834">
        <ele>1481.53</ele>
        <time>2017-07-02T11:50:36Z</time>
      </trkpt>
      <trkpt lat="44.48073" lon="5.5484">
        <ele>1478.16</ele>
        <time>2017-07-02T11:50:43Z</time>
      </trkpt>
      <trkpt lat="44.48069" lon="5.54846">
        <ele>1476.24</ele>
        <time>2017-07-02T11:50:49Z</time>
      </trkpt>
      <trkpt lat="44.48063" lon="5.5487">
        <ele>1472.88</ele>
        <time>2017-07-02T11:51:03Z</time>
      </trkpt>
      <trkpt lat="44.48058" lon="5.54881">
        <ele>1470.95</ele>
        <time>2017-07-02T11:51:11Z</time>
      </trkpt>
      <trkpt lat="44.48056" lon="5.54882">
        <ele>1470.95</ele>
        <time>2017-07-02T11:51:13Z</time>
      </trkpt>
      <trkpt lat="44.48053" lon="5.54888">
        <ele>1469.99</ele>
        <time>2017-07-02T11:51:17Z</time>
      </trkpt>
      <trkpt lat="44.48052" lon="5.5489">
        <ele>1469.03</ele>
        <time>2017-07-02T11:51:19Z</time>
      </trkpt>
      <trkpt lat="44.48043" lon="5.54899">
        <ele>1466.15</ele>
        <time>2017-07-02T11:51:29Z</time>
      </trkpt>
      <trkpt lat="44.4804" lon="5.54903">
        <ele>1465.19</ele>
        <time>2017-07-02T11:51:33Z</time>
      </trkpt>
      <trkpt lat="44.4803" lon="5.54927">
        <ele>1463.74</ele>
        <time>2017-07-02T11:51:48Z</time>
      </trkpt>
      <trkpt lat="44.48022" lon="5.54945">
        <ele>1463.26</ele>
        <time>2017-07-02T11:52:01Z</time>
      </trkpt>
      <trkpt lat="44.4802" lon="5.54948">
        <ele>1463.26</ele>
        <time>2017-07-02T11:52:04Z</time>
      </trkpt>
      <trkpt lat="44.48019" lon="5.54951">
        <ele>1464.71</ele>
        <time>2017-07-02T11:52:06Z</time>
      </trkpt>
      <trkpt lat="44.48008" lon="5.54967">
        <ele>1463.26</ele>
        <time>2017-07-02T11:52:20Z</time>
      </trkpt>
      <trkpt lat="44.48002" lon="5.54972">
        <ele>1462.3</ele>
        <time>2017-07-02T11:52:26Z</time>
      </trkpt>
      <trkpt lat="44.47997" lon="5.54976">
        <ele>1461.34</ele>
        <time>2017-07-02T11:52:31Z</time>
      </trkpt>
      <trkpt lat="44.47993" lon="5.54985">
        <ele>1461.34</ele>
        <time>2017-07-02T11:52:47Z</time>
      </trkpt>
      <trkpt lat="44.47991" lon="5.54986">
        <ele>1460.86</ele>
        <time>2017-07-02T11:53:04Z</time>
      </trkpt>
      <trkpt lat="44.47989" lon="5.54984">
        <ele>1461.34</ele>
        <time>2017-07-02T11:53:26Z</time>
      </trkpt>
      <trkpt lat="44.47985" lon="5.54988">
        <ele>1462.3</ele>
        <time>2017-07-02T11:53:47Z</time>
      </trkpt>
      <trkpt lat="44.47975" lon="5.54999">
        <ele>1464.71</ele>
        <time>2017-07-02T11:54:04Z</time>
      </trkpt>
      <trkpt lat="44.47969" lon="5.55006">
        <ele>1465.19</ele>
        <time>2017-07-02T11:54:13Z</time>
      </trkpt>
      <trkpt lat="44.47966" lon="5.55011">
        <ele>1465.19</ele>
        <time>2017-07-02T11:54:18Z</time>
      </trkpt>
      <trkpt lat="44.4796" lon="5.55031">
        <ele>1467.59</ele>
        <time>2017-07-02T11:54:35Z</time>
      </trkpt>
      <trkpt lat="44.47952" lon="5.55048">
        <ele>1469.99</ele>
        <time>2017-07-02T11:54:49Z</time>
      </trkpt>
      <trkpt lat="44.47951" lon="5.55049">
        <ele>1469.99</ele>
        <time>2017-07-02T11:54:50Z</time>
      </trkpt>
      <trkpt lat="44.47946" lon="5.55058">
        <ele>1471.44</ele>
        <time>2017-07-02T11:54:58Z</time>
      </trkpt>
      <trkpt lat="44.47943" lon="5.55072">
        <ele>1473.84</ele>
        <time>2017-07-02T11:55:13Z</time>
      </trkpt>
      <trkpt lat="44.47941" lon="5.55086">
        <ele>1476.72</ele>
        <time>2017-07-02T11:55:30Z</time>
      </trkpt>
      <trkpt lat="44.47937" lon="5.55096">
        <ele>1480.09</ele>
        <time>2017-07-02T11:55:46Z</time>
      </trkpt>
      <trkpt lat="44.4793" lon="5.55109">
        <ele>1482.49</ele>
        <time>2017-07-02T11:56:01Z</time>
      </trkpt>
      <trkpt lat="44.4792" lon="5.5512">
        <ele>1482.49</ele>
        <time>2017-07-02T11:56:15Z</time>
      </trkpt>
      <trkpt lat="44.47911" lon="5.55133">
        <ele>1483.93</ele>
        <time>2017-07-02T11:56:29Z</time>
      </trkpt>
      <trkpt lat="44.47902" lon="5.55147">
        <ele>1486.34</ele>
        <time>2017-07-02T11:56:45Z</time>
      </trkpt>
      <trkpt lat="44.47892" lon="5.55158">
        <ele>1488.74</ele>
        <time>2017-07-02T11:56:57Z</time>
      </trkpt>
      <trkpt lat="44.47891" lon="5.5516">
        <ele>1489.22</ele>
        <time>2017-07-02T11:56:59Z</time>
      </trkpt>
      <trkpt lat="44.47882" lon="5.55177">
        <ele>1492.1</ele>
        <time>2017-07-02T11:57:14Z</time>
      </trkpt>
      <trkpt lat="44.47874" lon="5.55193">
        <ele>1493.06</ele>
        <time>2017-07-02T11:57:29Z</time>
      </trkpt>
      <trkpt lat="44.47871" lon="5.552">
        <ele>1494.99</ele>
        <time>2017-07-02T11:57:37Z</time>
      </trkpt>
      <trkpt lat="44.47869" lon="5.55204">
        <ele>1494.03</ele>
        <time>2017-07-02T11:57:42Z</time>
      </trkpt>
      <trkpt lat="44.47864" lon="5.5521">
        <ele>1496.91</ele>
        <time>2017-07-02T11:57:52Z</time>
      </trkpt>
      <trkpt lat="44.4786" lon="5.55217">
        <ele>1499.79</ele>
        <time>2017-07-02T11:58:06Z</time>
      </trkpt>
      <trkpt lat="44.47852" lon="5.55227">
        <ele>1500.27</ele>
        <time>2017-07-02T11:58:22Z</time>
      </trkpt>
      <trkpt lat="44.47847" lon="5.55237">
        <ele>1502.68</ele>
        <time>2017-07-02T11:58:37Z</time>
      </trkpt>
      <trkpt lat="44.47846" lon="5.55243">
        <ele>1505.56</ele>
        <time>2017-07-02T11:58:51Z</time>
      </trkpt>
      <trkpt lat="44.47842" lon="5.55245">
        <ele>1504.12</ele>
        <time>2017-07-02T11:58:58Z</time>
      </trkpt>
      <trkpt lat="44.47834" lon="5.55255">
        <ele>1503.16</ele>
        <time>2017-07-02T11:59:13Z</time>
      </trkpt>
      <trkpt lat="44.47829" lon="5.55262">
        <ele>1503.16</ele>
        <time>2017-07-02T11:59:23Z</time>
      </trkpt>
      <trkpt lat="44.47827" lon="5.55268">
        <ele>1506.04</ele>
        <time>2017-07-02T11:59:34Z</time>
      </trkpt>
      <trkpt lat="44.47828" lon="5.55272">
        <ele>1511.33</ele>
        <time>2017-07-02T12:01:20Z</time>
      </trkpt>
      <trkpt lat="44.47829" lon="5.55275">
        <ele>1512.77</ele>
        <time>2017-07-02T12:01:24Z</time>
      </trkpt>
      <trkpt lat="44.4783" lon="5.55279">
        <ele>1514.69</ele>
        <time>2017-07-02T12:01:36Z</time>
      </trkpt>
      <trkpt lat="44.47829" lon="5.55281">
        <ele>1514.69</ele>
        <time>2017-07-02T12:01:52Z</time>
      </trkpt>
      <trkpt lat="44.47826" lon="5.55279">
        <ele>1516.14</ele>
        <time>2017-07-02T12:02:12Z</time>
      </trkpt>
      <trkpt lat="44.47826" lon="5.55279">
        <ele>1514.69</ele>
        <time>2017-07-02T12:02:37Z</time>
      </trkpt>
      <trkpt lat="44.47824" lon="5.55281">
        <ele>1513.73</ele>
        <time>2017-07-02T12:02:55Z</time>
      </trkpt>
      <trkpt lat="44.47824" lon="5.55282">
        <ele>1515.18</ele>
        <time>2017-07-02T12:02:59Z</time>
      </trkpt>
      <trkpt lat="44.47823" lon="5.55286">
        <ele>1518.06</ele>
        <time>2017-07-02T12:03:08Z</time>
      </trkpt>
      <trkpt lat="44.47823" lon="5.55289">
        <ele>1516.62</ele>
        <time>2017-07-02T12:03:24Z</time>
      </trkpt>
      <trkpt lat="44.47822" lon="5.5529">
        <ele>1518.06</ele>
        <time>2017-07-02T12:03:37Z</time>
      </trkpt>
      <trkpt lat="44.47821" lon="5.55292">
        <ele>1519.5</ele>
        <time>2017-07-02T12:03:54Z</time>
      </trkpt>
      <trkpt lat="44.4782" lon="5.553">
        <ele>1521.9</ele>
        <time>2017-07-02T12:04:12Z</time>
      </trkpt>
      <trkpt lat="44.47818" lon="5.55303">
        <ele>1522.39</ele>
        <time>2017-07-02T12:05:47Z</time>
      </trkpt>
      <trkpt lat="44.47817" lon="5.55305">
        <ele>1520.94</ele>
        <time>2017-07-02T12:06:03Z</time>
      </trkpt>
      <trkpt lat="44.47817" lon="5.55305">
        <ele>1521.9</ele>
        <time>2017-07-02T12:06:05Z</time>
      </trkpt>
      <trkpt lat="44.4781" lon="5.55312">
        <ele>1520.94</ele>
        <time>2017-07-02T12:06:19Z</time>
      </trkpt>
      <trkpt lat="44.47807" lon="5.55318">
        <ele>1524.31</ele>
        <time>2017-07-02T12:06:30Z</time>
      </trkpt>
      <trkpt lat="44.47805" lon="5.55319">
        <ele>1521.9</ele>
        <time>2017-07-02T12:06:33Z</time>
      </trkpt>
      <trkpt lat="44.47802" lon="5.55321">
        <ele>1521.9</ele>
        <time>2017-07-02T12:06:36Z</time>
      </trkpt>
      <trkpt lat="44.47795" lon="5.55332">
        <ele>1521.9</ele>
        <time>2017-07-02T12:06:51Z</time>
      </trkpt>
      <trkpt lat="44.47794" lon="5.55343">
        <ele>1522.87</ele>
        <time>2017-07-02T12:07:03Z</time>
      </trkpt>
      <trkpt lat="44.47794" lon="5.55348">
        <ele>1523.35</ele>
        <time>2017-07-02T12:07:17Z</time>
      </trkpt>
      <trkpt lat="44.47792" lon="5.55351">
        <ele>1524.31</ele>
        <time>2017-07-02T12:07:22Z</time>
      </trkpt>
      <trkpt lat="44.47784" lon="5.55365">
        <ele>1523.35</ele>
        <time>2017-07-02T12:07:37Z</time>
      </trkpt>
      <trkpt lat="44.47779" lon="5.55375">
        <ele>1524.79</ele>
        <time>2017-07-02T12:07:45Z</time>
      </trkpt>
      <trkpt lat="44.47769" lon="5.55394">
        <ele>1523.35</ele>
        <time>2017-07-02T12:08:00Z</time>
      </trkpt>
      <trkpt lat="44.47754" lon="5.55415">
        <ele>1522.87</ele>
        <time>2017-07-02T12:08:18Z</time>
      </trkpt>
      <trkpt lat="44.4774" lon="5.55435">
        <ele>1519.5</ele>
        <time>2017-07-02T12:08:35Z</time>
      </trkpt>
      <trkpt lat="44.47732" lon="5.55446">
        <ele>1518.06</ele>
        <time>2017-07-02T12:08:49Z</time>
      </trkpt>
      <trkpt lat="44.47728" lon="5.55452">
        <ele>1516.62</ele>
        <time>2017-07-02T12:09:17Z</time>
      </trkpt>
      <trkpt lat="44.47727" lon="5.55459">
        <ele>1516.62</ele>
        <time>2017-07-02T12:09:22Z</time>
      </trkpt>
      <trkpt lat="44.47712" lon="5.5548">
        <ele>1514.21</ele>
        <time>2017-07-02T12:09:40Z</time>
      </trkpt>
      <trkpt lat="44.47708" lon="5.55485">
        <ele>1515.66</ele>
        <time>2017-07-02T12:09:45Z</time>
      </trkpt>
      <trkpt lat="44.47692" lon="5.55503">
        <ele>1514.21</ele>
        <time>2017-07-02T12:10:03Z</time>
      </trkpt>
      <trkpt lat="44.47671" lon="5.55523">
        <ele>1512.29</ele>
        <time>2017-07-02T12:10:22Z</time>
      </trkpt>
      <trkpt lat="44.47649" lon="5.55539">
        <ele>1509.41</ele>
        <time>2017-07-02T12:10:42Z</time>
      </trkpt>
      <trkpt lat="44.47644" lon="5.55553">
        <ele>1507.48</ele>
        <time>2017-07-02T12:10:55Z</time>
      </trkpt>
      <trkpt lat="44.47632" lon="5.55562">
        <ele>1505.56</ele>
        <time>2017-07-02T12:11:08Z</time>
      </trkpt>
      <trkpt lat="44.47618" lon="5.55565">
        <ele>1505.08</ele>
        <time>2017-07-02T12:11:22Z</time>
      </trkpt>
      <trkpt lat="44.47608" lon="5.55574">
        <ele>1501.72</ele>
        <time>2017-07-02T12:11:35Z</time>
      </trkpt>
      <trkpt lat="44.47603" lon="5.55576">
        <ele>1500.27</ele>
        <time>2017-07-02T12:11:40Z</time>
      </trkpt>
      <trkpt lat="44.47588" lon="5.55587">
        <ele>1498.83</ele>
        <time>2017-07-02T12:11:56Z</time>
      </trkpt>
      <trkpt lat="44.47574" lon="5.5559">
        <ele>1496.91</ele>
        <time>2017-07-02T12:12:11Z</time>
      </trkpt>
      <trkpt lat="44.47556" lon="5.55598">
        <ele>1494.99</ele>
        <time>2017-07-02T12:12:27Z</time>
      </trkpt>
      <trkpt lat="44.47537" lon="5.55605">
        <ele>1493.06</ele>
        <time>2017-07-02T12:12:44Z</time>
      </trkpt>
      <trkpt lat="44.4752" lon="5.55619">
        <ele>1489.7</ele>
        <time>2017-07-02T12:13:00Z</time>
      </trkpt>
      <trkpt lat="44.47507" lon="5.55626">
        <ele>1486.82</ele>
        <time>2017-07-02T12:13:12Z</time>
      </trkpt>
      <trkpt lat="44.47506" lon="5.55627">
        <ele>1486.82</ele>
        <time>2017-07-02T12:13:13Z</time>
      </trkpt>
      <trkpt lat="44.47489" lon="5.55636">
        <ele>1483.45</ele>
        <time>2017-07-02T12:13:28Z</time>
      </trkpt>
      <trkpt lat="44.47468" lon="5.55648">
        <ele>1480.09</ele>
        <time>2017-07-02T12:13:46Z</time>
      </trkpt>
      <trkpt lat="44.47451" lon="5.55662">
        <ele>1477.2</ele>
        <time>2017-07-02T12:14:02Z</time>
      </trkpt>
      <trkpt lat="44.47434" lon="5.55684">
        <ele>1476.72</ele>
        <time>2017-07-02T12:14:21Z</time>
      </trkpt>
      <trkpt lat="44.47431" lon="5.55689">
        <ele>1478.16</ele>
        <time>2017-07-02T12:14:25Z</time>
      </trkpt>
      <trkpt lat="44.47417" lon="5.55709">
        <ele>1479.13</ele>
        <time>2017-07-02T12:14:41Z</time>
      </trkpt>
      <trkpt lat="44.47413" lon="5.55714">
        <ele>1477.68</ele>
        <time>2017-07-02T12:14:46Z</time>
      </trkpt>
      <trkpt lat="44.47401" lon="5.55728">
        <ele>1478.65</ele>
        <time>2017-07-02T12:15:04Z</time>
      </trkpt>
      <trkpt lat="44.47401" lon="5.55728">
        <ele>1478.65</ele>
        <time>2017-07-02T12:15:05Z</time>
      </trkpt>
      <trkpt lat="44.474" lon="5.55727">
        <ele>1478.65</ele>
        <time>2017-07-02T12:15:28Z</time>
      </trkpt>
      <trkpt lat="44.47399" lon="5.55728">
        <ele>1477.2</ele>
        <time>2017-07-02T12:15:37Z</time>
      </trkpt>
      <trkpt lat="44.47399" lon="5.55728">
        <ele>1478.16</ele>
        <time>2017-07-02T12:15:42Z</time>
      </trkpt>
      <trkpt lat="44.474" lon="5.55729">
        <ele>1478.65</ele>
        <time>2017-07-02T12:16:01Z</time>
      </trkpt>
      <trkpt lat="44.474" lon="5.55729">
        <ele>1477.2</ele>
        <time>2017-07-02T12:16:04Z</time>
      </trkpt>
      <trkpt lat="44.474" lon="5.55729">
        <ele>1477.68</ele>
        <time>2017-07-02T12:16:18Z</time>
      </trkpt>
      <trkpt lat="44.47397" lon="5.55731">
        <ele>1476.72</ele>
        <time>2017-07-02T12:16:26Z</time>
      </trkpt>
      <trkpt lat="44.47381" lon="5.55744">
        <ele>1475.76</ele>
        <time>2017-07-02T12:16:43Z</time>
      </trkpt>
      <trkpt lat="44.47371" lon="5.55753">
        <ele>1472.4</ele>
        <time>2017-07-02T12:16:53Z</time>
      </trkpt>
      <trkpt lat="44.47355" lon="5.55766">
        <ele>1469.51</ele>
        <time>2017-07-02T12:17:10Z</time>
      </trkpt>
      <trkpt lat="44.4734" lon="5.55779">
        <ele>1466.63</ele>
        <time>2017-07-02T12:17:26Z</time>
      </trkpt>
      <trkpt lat="44.47328" lon="5.55785">
        <ele>1463.26</ele>
        <time>2017-07-02T12:17:37Z</time>
      </trkpt>
      <trkpt lat="44.47308" lon="5.55798">
        <ele>1460.86</ele>
        <time>2017-07-02T12:17:56Z</time>
      </trkpt>
      <trkpt lat="44.47295" lon="5.55806">
        <ele>1457.5</ele>
        <time>2017-07-02T12:18:07Z</time>
      </trkpt>
      <trkpt lat="44.47281" lon="5.55813">
        <ele>1454.13</ele>
        <time>2017-07-02T12:18:21Z</time>
      </trkpt>
      <trkpt lat="44.47264" lon="5.55821">
        <ele>1450.77</ele>
        <time>2017-07-02T12:18:35Z</time>
      </trkpt>
      <trkpt lat="44.47243" lon="5.5583">
        <ele>1447.4</ele>
        <time>2017-07-02T12:18:53Z</time>
      </trkpt>
      <trkpt lat="44.47226" lon="5.55843">
        <ele>1444.52</ele>
        <time>2017-07-02T12:19:10Z</time>
      </trkpt>
      <trkpt lat="44.47222" lon="5.55862">
        <ele>1441.15</ele>
        <time>2017-07-02T12:19:23Z</time>
      </trkpt>
      <trkpt lat="44.47219" lon="5.55882">
        <ele>1437.79</ele>
        <time>2017-07-02T12:19:37Z</time>
      </trkpt>
      <trkpt lat="44.47219" lon="5.55887">
        <ele>1436.35</ele>
        <time>2017-07-02T12:19:41Z</time>
      </trkpt>
      <trkpt lat="44.47219" lon="5.55895">
        <ele>1435.39</ele>
        <time>2017-07-02T12:19:47Z</time>
      </trkpt>
      <trkpt lat="44.47214" lon="5.55916">
        <ele>1432.02</ele>
        <time>2017-07-02T12:20:02Z</time>
      </trkpt>
      <trkpt lat="44.47205" lon="5.55944">
        <ele>1430.1</ele>
        <time>2017-07-02T12:20:19Z</time>
      </trkpt>
      <trkpt lat="44.47194" lon="5.55977">
        <ele>1431.06</ele>
        <time>2017-07-02T12:20:38Z</time>
      </trkpt>
      <trkpt lat="44.47182" lon="5.56">
        <ele>1431.06</ele>
        <time>2017-07-02T12:20:54Z</time>
      </trkpt>
      <trkpt lat="44.47168" lon="5.56018">
        <ele>1432.02</ele>
        <time>2017-07-02T12:21:09Z</time>
      </trkpt>
      <trkpt lat="44.47162" lon="5.56028">
        <ele>1430.58</ele>
        <time>2017-07-02T12:21:15Z</time>
      </trkpt>
      <trkpt lat="44.4715" lon="5.5605">
        <ele>1430.1</ele>
        <time>2017-07-02T12:21:31Z</time>
      </trkpt>
      <trkpt lat="44.47136" lon="5.56073">
        <ele>1427.7</ele>
        <time>2017-07-02T12:21:49Z</time>
      </trkpt>
      <trkpt lat="44.47123" lon="5.56088">
        <ele>1424.33</ele>
        <time>2017-07-02T12:22:03Z</time>
      </trkpt>
      <trkpt lat="44.47113" lon="5.56095">
        <ele>1420.97</ele>
        <time>2017-07-02T12:22:13Z</time>
      </trkpt>
      <trkpt lat="44.47103" lon="5.56105">
        <ele>1418.08</ele>
        <time>2017-07-02T12:22:26Z</time>
      </trkpt>
      <trkpt lat="44.4709" lon="5.56116">
        <ele>1415.2</ele>
        <time>2017-07-02T12:22:39Z</time>
      </trkpt>
      <trkpt lat="44.47086" lon="5.56122">
        <ele>1413.28</ele>
        <time>2017-07-02T12:22:44Z</time>
      </trkpt>
      <trkpt lat="44.47075" lon="5.56131">
        <ele>1410.39</ele>
        <time>2017-07-02T12:22:55Z</time>
      </trkpt>
      <trkpt lat="44.47062" lon="5.56142">
        <ele>1407.03</ele>
        <time>2017-07-02T12:23:09Z</time>
      </trkpt>
      <trkpt lat="44.47053" lon="5.5615">
        <ele>1403.66</ele>
        <time>2017-07-02T12:23:19Z</time>
      </trkpt>
      <trkpt lat="44.47047" lon="5.56159">
        <ele>1401.26</ele>
        <time>2017-07-02T12:23:27Z</time>
      </trkpt>
      <trkpt lat="44.47039" lon="5.56173">
        <ele>1397.89</ele>
        <time>2017-07-02T12:23:38Z</time>
      </trkpt>
      <trkpt lat="44.47027" lon="5.56188">
        <ele>1395.01</ele>
        <time>2017-07-02T12:23:52Z</time>
      </trkpt>
      <trkpt lat="44.47013" lon="5.56204">
        <ele>1393.09</ele>
        <time>2017-07-02T12:24:08Z</time>
      </trkpt>
      <trkpt lat="44.47013" lon="5.56205">
        <ele>1393.09</ele>
        <time>2017-07-02T12:24:09Z</time>
      </trkpt>
      <trkpt lat="44.47007" lon="5.56222">
        <ele>1391.65</ele>
        <time>2017-07-02T12:24:26Z</time>
      </trkpt>
      <trkpt lat="44.47005" lon="5.56227">
        <ele>1393.57</ele>
        <time>2017-07-02T12:25:41Z</time>
      </trkpt>
      <trkpt lat="44.47004" lon="5.56227">
        <ele>1392.61</ele>
        <time>2017-07-02T12:25:57Z</time>
      </trkpt>
      <trkpt lat="44.47002" lon="5.56229">
        <ele>1393.57</ele>
        <time>2017-07-02T12:26:18Z</time>
      </trkpt>
      <trkpt lat="44.46996" lon="5.56238">
        <ele>1392.13</ele>
        <time>2017-07-02T12:26:31Z</time>
      </trkpt>
      <trkpt lat="44.46979" lon="5.56258">
        <ele>1389.72</ele>
        <time>2017-07-02T12:26:51Z</time>
      </trkpt>
      <trkpt lat="44.46968" lon="5.56277">
        <ele>1387.8</ele>
        <time>2017-07-02T12:27:09Z</time>
      </trkpt>
      <trkpt lat="44.46966" lon="5.56284">
        <ele>1384.44</ele>
        <time>2017-07-02T12:27:21Z</time>
      </trkpt>
      <trkpt lat="44.46966" lon="5.56292">
        <ele>1382.03</ele>
        <time>2017-07-02T12:27:33Z</time>
      </trkpt>
      <trkpt lat="44.4697" lon="5.56303">
        <ele>1379.15</ele>
        <time>2017-07-02T12:27:48Z</time>
      </trkpt>
      <trkpt lat="44.4697" lon="5.56316">
        <ele>1375.78</ele>
        <time>2017-07-02T12:28:01Z</time>
      </trkpt>
      <trkpt lat="44.46971" lon="5.56322">
        <ele>1374.34</ele>
        <time>2017-07-02T12:28:06Z</time>
      </trkpt>
      <trkpt lat="44.4697" lon="5.56353">
        <ele>1371.46</ele>
        <time>2017-07-02T12:28:25Z</time>
      </trkpt>
      <trkpt lat="44.46972" lon="5.56368">
        <ele>1369.05</ele>
        <time>2017-07-02T12:28:35Z</time>
      </trkpt>
      <trkpt lat="44.46972" lon="5.56382">
        <ele>1366.65</ele>
        <time>2017-07-02T12:28:44Z</time>
      </trkpt>
      <trkpt lat="44.46971" lon="5.56398">
        <ele>1364.25</ele>
        <time>2017-07-02T12:28:54Z</time>
      </trkpt>
      <trkpt lat="44.46975" lon="5.56409">
        <ele>1362.33</ele>
        <time>2017-07-02T12:29:03Z</time>
      </trkpt>
      <trkpt lat="44.46981" lon="5.56421">
        <ele>1358.48</ele>
        <time>2017-07-02T12:29:14Z</time>
      </trkpt>
      <trkpt lat="44.46982" lon="5.56422">
        <ele>1358.48</ele>
        <time>2017-07-02T12:29:15Z</time>
      </trkpt>
      <trkpt lat="44.46985" lon="5.56426">
        <ele>1357.04</ele>
        <time>2017-07-02T12:29:21Z</time>
      </trkpt>
      <trkpt lat="44.46989" lon="5.56423">
        <ele>1358</ele>
        <time>2017-07-02T12:29:30Z</time>
      </trkpt>
      <trkpt lat="44.4699" lon="5.56423">
        <ele>1355.6</ele>
        <time>2017-07-02T12:29:51Z</time>
      </trkpt>
      <trkpt lat="44.46991" lon="5.56423">
        <ele>1356.56</ele>
        <time>2017-07-02T12:30:04Z</time>
      </trkpt>
      <trkpt lat="44.46995" lon="5.5642">
        <ele>1355.12</ele>
        <time>2017-07-02T12:30:09Z</time>
      </trkpt>
      <trkpt lat="44.47005" lon="5.56415">
        <ele>1355.6</ele>
        <time>2017-07-02T12:30:20Z</time>
      </trkpt>
      <trkpt lat="44.47007" lon="5.56414">
        <ele>1353.67</ele>
        <time>2017-07-02T12:30:22Z</time>
      </trkpt>
      <trkpt lat="44.47015" lon="5.56408">
        <ele>1352.23</ele>
        <time>2017-07-02T12:30:40Z</time>
      </trkpt>
      <trkpt lat="44.47021" lon="5.56404">
        <ele>1351.27</ele>
        <time>2017-07-02T12:31:16Z</time>
      </trkpt>
      <trkpt lat="44.47036" lon="5.56392">
        <ele>1349.35</ele>
        <time>2017-07-02T12:31:32Z</time>
      </trkpt>
      <trkpt lat="44.47049" lon="5.56382">
        <ele>1346.46</ele>
        <time>2017-07-02T12:31:45Z</time>
      </trkpt>
      <trkpt lat="44.47057" lon="5.56374">
        <ele>1345.98</ele>
        <time>2017-07-02T12:31:54Z</time>
      </trkpt>
      <trkpt lat="44.47059" lon="5.56373">
        <ele>1345.98</ele>
        <time>2017-07-02T12:31:56Z</time>
      </trkpt>
      <trkpt lat="44.4708" lon="5.56359">
        <ele>1344.06</ele>
        <time>2017-07-02T12:32:14Z</time>
      </trkpt>
      <trkpt lat="44.471" lon="5.56348">
        <ele>1342.62</ele>
        <time>2017-07-02T12:32:32Z</time>
      </trkpt>
      <trkpt lat="44.47101" lon="5.56347">
        <ele>1341.66</ele>
        <time>2017-07-02T12:32:33Z</time>
      </trkpt>
      <trkpt lat="44.47105" lon="5.56346">
        <ele>1343.1</ele>
        <time>2017-07-02T12:32:36Z</time>
      </trkpt>
      <trkpt lat="44.47112" lon="5.56343">
        <ele>1341.66</ele>
        <time>2017-07-02T12:32:42Z</time>
      </trkpt>
      <trkpt lat="44.47129" lon="5.56334">
        <ele>1340.7</ele>
        <time>2017-07-02T12:32:58Z</time>
      </trkpt>
      <trkpt lat="44.4713" lon="5.56333">
        <ele>1340.22</ele>
        <time>2017-07-02T12:33:00Z</time>
      </trkpt>
      <trkpt lat="44.4714" lon="5.5633">
        <ele>1340.22</ele>
        <time>2017-07-02T12:33:08Z</time>
      </trkpt>
      <trkpt lat="44.47156" lon="5.56324">
        <ele>1337.81</ele>
        <time>2017-07-02T12:33:22Z</time>
      </trkpt>
      <trkpt lat="44.47174" lon="5.56317">
        <ele>1335.89</ele>
        <time>2017-07-02T12:33:38Z</time>
      </trkpt>
      <trkpt lat="44.47194" lon="5.56309">
        <ele>1333.49</ele>
        <time>2017-07-02T12:33:56Z</time>
      </trkpt>
      <trkpt lat="44.47213" lon="5.563">
        <ele>1331.56</ele>
        <time>2017-07-02T12:34:13Z</time>
      </trkpt>
      <trkpt lat="44.47217" lon="5.56299">
        <ele>1330.12</ele>
        <time>2017-07-02T12:34:16Z</time>
      </trkpt>
      <trkpt lat="44.47219" lon="5.56298">
        <ele>1331.56</ele>
        <time>2017-07-02T12:34:18Z</time>
      </trkpt>
      <trkpt lat="44.47223" lon="5.56296">
        <ele>1328.68</ele>
        <time>2017-07-02T12:34:22Z</time>
      </trkpt>
      <trkpt lat="44.47226" lon="5.56295">
        <ele>1328.2</ele>
        <time>2017-07-02T12:34:24Z</time>
      </trkpt>
      <trkpt lat="44.4723" lon="5.56292">
        <ele>1328.68</ele>
        <time>2017-07-02T12:34:28Z</time>
      </trkpt>
      <trkpt lat="44.47232" lon="5.56291">
        <ele>1329.64</ele>
        <time>2017-07-02T12:34:30Z</time>
      </trkpt>
      <trkpt lat="44.4724" lon="5.56286">
        <ele>1328.68</ele>
        <time>2017-07-02T12:34:37Z</time>
      </trkpt>
      <trkpt lat="44.47243" lon="5.56285">
        <ele>1327.24</ele>
        <time>2017-07-02T12:34:40Z</time>
      </trkpt>
      <trkpt lat="44.47256" lon="5.56277">
        <ele>1326.76</ele>
        <time>2017-07-02T12:34:53Z</time>
      </trkpt>
      <trkpt lat="44.47266" lon="5.56271">
        <ele>1325.31</ele>
        <time>2017-07-02T12:35:02Z</time>
      </trkpt>
      <trkpt lat="44.47271" lon="5.56268">
        <ele>1323.87</ele>
        <time>2017-07-02T12:35:07Z</time>
      </trkpt>
      <trkpt lat="44.47282" lon="5.56261">
        <ele>1322.91</ele>
        <time>2017-07-02T12:35:18Z</time>
      </trkpt>
      <trkpt lat="44.47298" lon="5.56252">
        <ele>1321.47</ele>
        <time>2017-07-02T12:35:31Z</time>
      </trkpt>
      <trkpt lat="44.47301" lon="5.56249">
        <ele>1322.43</ele>
        <time>2017-07-02T12:35:35Z</time>
      </trkpt>
      <trkpt lat="44.4731" lon="5.56243">
        <ele>1319.55</ele>
        <time>2017-07-02T12:35:43Z</time>
      </trkpt>
      <trkpt lat="44.47314" lon="5.5624">
        <ele>1321.47</ele>
        <time>2017-07-02T12:35:47Z</time>
      </trkpt>
      <trkpt lat="44.47317" lon="5.56238">
        <ele>1320.03</ele>
        <time>2017-07-02T12:35:49Z</time>
      </trkpt>
      <trkpt lat="44.47325" lon="5.56233">
        <ele>1318.59</ele>
        <time>2017-07-02T12:35:56Z</time>
      </trkpt>
      <trkpt lat="44.47328" lon="5.5623">
        <ele>1318.59</ele>
        <time>2017-07-02T12:35:59Z</time>
      </trkpt>
      <trkpt lat="44.47342" lon="5.56215">
        <ele>1318.1</ele>
        <time>2017-07-02T12:36:14Z</time>
      </trkpt>
      <trkpt lat="44.47353" lon="5.56203">
        <ele>1316.66</ele>
        <time>2017-07-02T12:36:26Z</time>
      </trkpt>
      <trkpt lat="44.47363" lon="5.56194">
        <ele>1314.26</ele>
        <time>2017-07-02T12:36:37Z</time>
      </trkpt>
      <trkpt lat="44.47364" lon="5.56193">
        <ele>1314.26</ele>
        <time>2017-07-02T12:36:38Z</time>
      </trkpt>
      <trkpt lat="44.47376" lon="5.5618">
        <ele>1312.82</ele>
        <time>2017-07-02T12:36:51Z</time>
      </trkpt>
      <trkpt lat="44.47393" lon="5.56169">
        <ele>1310.9</ele>
        <time>2017-07-02T12:37:06Z</time>
      </trkpt>
      <trkpt lat="44.47401" lon="5.56163">
        <ele>1311.86</ele>
        <time>2017-07-02T12:37:13Z</time>
      </trkpt>
      <trkpt lat="44.47406" lon="5.5616">
        <ele>1309.93</ele>
        <time>2017-07-02T12:37:17Z</time>
      </trkpt>
      <trkpt lat="44.47413" lon="5.56154">
        <ele>1308.49</ele>
        <time>2017-07-02T12:37:24Z</time>
      </trkpt>
      <trkpt lat="44.47416" lon="5.56153">
        <ele>1309.93</ele>
        <time>2017-07-02T12:37:27Z</time>
      </trkpt>
      <trkpt lat="44.47425" lon="5.56145">
        <ele>1308.49</ele>
        <time>2017-07-02T12:37:37Z</time>
      </trkpt>
      <trkpt lat="44.47439" lon="5.56133">
        <ele>1306.57</ele>
        <time>2017-07-02T12:37:51Z</time>
      </trkpt>
      <trkpt lat="44.4744" lon="5.56132">
        <ele>1305.61</ele>
        <time>2017-07-02T12:37:53Z</time>
      </trkpt>
      <trkpt lat="44.47455" lon="5.5612">
        <ele>1305.13</ele>
        <time>2017-07-02T12:38:07Z</time>
      </trkpt>
      <trkpt lat="44.47466" lon="5.56109">
        <ele>1304.65</ele>
        <time>2017-07-02T12:38:20Z</time>
      </trkpt>
      <trkpt lat="44.47479" lon="5.56097">
        <ele>1303.69</ele>
        <time>2017-07-02T12:38:34Z</time>
      </trkpt>
      <trkpt lat="44.4749" lon="5.56086">
        <ele>1303.2</ele>
        <time>2017-07-02T12:38:46Z</time>
      </trkpt>
      <trkpt lat="44.47493" lon="5.56084">
        <ele>1302.72</ele>
        <time>2017-07-02T12:38:48Z</time>
      </trkpt>
      <trkpt lat="44.47504" lon="5.56073">
        <ele>1302.24</ele>
        <time>2017-07-02T12:39:00Z</time>
      </trkpt>
      <trkpt lat="44.47506" lon="5.56072">
        <ele>1302.24</ele>
        <time>2017-07-02T12:39:02Z</time>
      </trkpt>
      <trkpt lat="44.47518" lon="5.56064">
        <ele>1301.76</ele>
        <time>2017-07-02T12:39:13Z</time>
      </trkpt>
      <trkpt lat="44.4753" lon="5.56054">
        <ele>1301.76</ele>
        <time>2017-07-02T12:39:26Z</time>
      </trkpt>
      <trkpt lat="44.47532" lon="5.56052">
        <ele>1301.76</ele>
        <time>2017-07-02T12:39:28Z</time>
      </trkpt>
      <trkpt lat="44.47545" lon="5.56044">
        <ele>1301.28</ele>
        <time>2017-07-02T12:39:41Z</time>
      </trkpt>
      <trkpt lat="44.47559" lon="5.56032">
        <ele>1302.24</ele>
        <time>2017-07-02T12:39:56Z</time>
      </trkpt>
      <trkpt lat="44.47578" lon="5.56023">
        <ele>1300.32</ele>
        <time>2017-07-02T12:40:11Z</time>
      </trkpt>
      <trkpt lat="44.47593" lon="5.56022">
        <ele>1298.4</ele>
        <time>2017-07-02T12:40:24Z</time>
      </trkpt>
      <trkpt lat="44.47596" lon="5.56022">
        <ele>1297.44</ele>
        <time>2017-07-02T12:40:27Z</time>
      </trkpt>
      <trkpt lat="44.47615" lon="5.56021">
        <ele>1295.99</ele>
        <time>2017-07-02T12:40:44Z</time>
      </trkpt>
      <trkpt lat="44.47619" lon="5.56022">
        <ele>1295.51</ele>
        <time>2017-07-02T12:40:49Z</time>
      </trkpt>
      <trkpt lat="44.47624" lon="5.5602">
        <ele>1295.03</ele>
        <time>2017-07-02T12:41:02Z</time>
      </trkpt>
      <trkpt lat="44.4763" lon="5.56017">
        <ele>1295.03</ele>
        <time>2017-07-02T12:41:15Z</time>
      </trkpt>
      <trkpt lat="44.47645" lon="5.56007">
        <ele>1293.11</ele>
        <time>2017-07-02T12:41:32Z</time>
      </trkpt>
      <trkpt lat="44.47649" lon="5.56005">
        <ele>1293.11</ele>
        <time>2017-07-02T12:41:36Z</time>
      </trkpt>
      <trkpt lat="44.47662" lon="5.56">
        <ele>1291.67</ele>
        <time>2017-07-02T12:41:48Z</time>
      </trkpt>
      <trkpt lat="44.47685" lon="5.55993">
        <ele>1289.75</ele>
        <time>2017-07-02T12:42:07Z</time>
      </trkpt>
      <trkpt lat="44.47701" lon="5.55987">
        <ele>1287.34</ele>
        <time>2017-07-02T12:42:21Z</time>
      </trkpt>
      <trkpt lat="44.47719" lon="5.55987">
        <ele>1285.42</ele>
        <time>2017-07-02T12:42:36Z</time>
      </trkpt>
      <trkpt lat="44.47726" lon="5.55991">
        <ele>1284.94</ele>
        <time>2017-07-02T12:42:51Z</time>
      </trkpt>
      <trkpt lat="44.47724" lon="5.55993">
        <ele>1284.46</ele>
        <time>2017-07-02T12:43:04Z</time>
      </trkpt>
      <trkpt lat="44.47718" lon="5.56003">
        <ele>1281.09</ele>
        <time>2017-07-02T12:43:20Z</time>
      </trkpt>
      <trkpt lat="44.47712" lon="5.56011">
        <ele>1278.69</ele>
        <time>2017-07-02T12:43:36Z</time>
      </trkpt>
      <trkpt lat="44.47707" lon="5.56019">
        <ele>1276.77</ele>
        <time>2017-07-02T12:43:51Z</time>
      </trkpt>
      <trkpt lat="44.47705" lon="5.56026">
        <ele>1273.4</ele>
        <time>2017-07-02T12:44:01Z</time>
      </trkpt>
      <trkpt lat="44.47701" lon="5.56034">
        <ele>1270.52</ele>
        <time>2017-07-02T12:44:12Z</time>
      </trkpt>
      <trkpt lat="44.47696" lon="5.56044">
        <ele>1267.64</ele>
        <time>2017-07-02T12:44:27Z</time>
      </trkpt>
      <trkpt lat="44.47691" lon="5.56054">
        <ele>1265.71</ele>
        <time>2017-07-02T12:44:42Z</time>
      </trkpt>
      <trkpt lat="44.47687" lon="5.56065">
        <ele>1262.35</ele>
        <time>2017-07-02T12:44:55Z</time>
      </trkpt>
      <trkpt lat="44.47684" lon="5.56071">
        <ele>1261.87</ele>
        <time>2017-07-02T12:45:13Z</time>
      </trkpt>
      <trkpt lat="44.4768" lon="5.56082">
        <ele>1260.43</ele>
        <time>2017-07-02T12:45:26Z</time>
      </trkpt>
      <trkpt lat="44.47676" lon="5.56096">
        <ele>1257.54</ele>
        <time>2017-07-02T12:45:37Z</time>
      </trkpt>
      <trkpt lat="44.47673" lon="5.56109">
        <ele>1254.18</ele>
        <time>2017-07-02T12:45:48Z</time>
      </trkpt>
      <trkpt lat="44.47667" lon="5.56119">
        <ele>1252.25</ele>
        <time>2017-07-02T12:46:02Z</time>
      </trkpt>
      <trkpt lat="44.4766" lon="5.56125">
        <ele>1251.77</ele>
        <time>2017-07-02T12:46:14Z</time>
      </trkpt>
      <trkpt lat="44.47654" lon="5.5614">
        <ele>1248.89</ele>
        <time>2017-07-02T12:46:31Z</time>
      </trkpt>
      <trkpt lat="44.47654" lon="5.56148">
        <ele>1246.01</ele>
        <time>2017-07-02T12:46:41Z</time>
      </trkpt>
      <trkpt lat="44.47655" lon="5.56162">
        <ele>1243.6</ele>
        <time>2017-07-02T12:46:55Z</time>
      </trkpt>
      <trkpt lat="44.47655" lon="5.56174">
        <ele>1241.2</ele>
        <time>2017-07-02T12:47:07Z</time>
      </trkpt>
      <trkpt lat="44.47656" lon="5.56183">
        <ele>1237.83</ele>
        <time>2017-07-02T12:47:17Z</time>
      </trkpt>
      <trkpt lat="44.47657" lon="5.56199">
        <ele>1235.91</ele>
        <time>2017-07-02T12:47:32Z</time>
      </trkpt>
      <trkpt lat="44.47657" lon="5.56215">
        <ele>1232.55</ele>
        <time>2017-07-02T12:47:44Z</time>
      </trkpt>
      <trkpt lat="44.47654" lon="5.56234">
        <ele>1229.66</ele>
        <time>2017-07-02T12:47:59Z</time>
      </trkpt>
      <trkpt lat="44.47655" lon="5.56247">
        <ele>1226.78</ele>
        <time>2017-07-02T12:48:14Z</time>
      </trkpt>
      <trkpt lat="44.47655" lon="5.5626">
        <ele>1223.42</ele>
        <time>2017-07-02T12:48:32Z</time>
      </trkpt>
      <trkpt lat="44.47655" lon="5.56273">
        <ele>1219.57</ele>
        <time>2017-07-02T12:48:46Z</time>
      </trkpt>
      <trkpt lat="44.47656" lon="5.56276">
        <ele>1219.57</ele>
        <time>2017-07-02T12:48:49Z</time>
      </trkpt>
      <trkpt lat="44.47661" lon="5.56287">
        <ele>1218.13</ele>
        <time>2017-07-02T12:49:02Z</time>
      </trkpt>
      <trkpt lat="44.47663" lon="5.56296">
        <ele>1217.17</ele>
        <time>2017-07-02T12:49:19Z</time>
      </trkpt>
      <trkpt lat="44.47666" lon="5.56309">
        <ele>1214.76</ele>
        <time>2017-07-02T12:49:35Z</time>
      </trkpt>
      <trkpt lat="44.47671" lon="5.56321">
        <ele>1212.84</ele>
        <time>2017-07-02T12:49:51Z</time>
      </trkpt>
      <trkpt lat="44.47673" lon="5.56333">
        <ele>1209.96</ele>
        <time>2017-07-02T12:50:06Z</time>
      </trkpt>
      <trkpt lat="44.47677" lon="5.56342">
        <ele>1207.55</ele>
        <time>2017-07-02T12:50:20Z</time>
      </trkpt>
      <trkpt lat="44.47679" lon="5.56344">
        <ele>1205.63</ele>
        <time>2017-07-02T12:50:24Z</time>
      </trkpt>
      <trkpt lat="44.47682" lon="5.56349">
        <ele>1202.75</ele>
        <time>2017-07-02T12:50:38Z</time>
      </trkpt>
      <trkpt lat="44.4769" lon="5.56358">
        <ele>1201.79</ele>
        <time>2017-07-02T12:50:53Z</time>
      </trkpt>
      <trkpt lat="44.47694" lon="5.56372">
        <ele>1201.3</ele>
        <time>2017-07-02T12:51:05Z</time>
      </trkpt>
      <trkpt lat="44.47695" lon="5.5638">
        <ele>1201.3</ele>
        <time>2017-07-02T12:51:23Z</time>
      </trkpt>
      <trkpt lat="44.47698" lon="5.56377">
        <ele>1201.79</ele>
        <time>2017-07-02T12:51:39Z</time>
      </trkpt>
      <trkpt lat="44.47704" lon="5.56382">
        <ele>1201.79</ele>
        <time>2017-07-02T12:51:51Z</time>
      </trkpt>
      <trkpt lat="44.4771" lon="5.56386">
        <ele>1200.82</ele>
        <time>2017-07-02T12:51:58Z</time>
      </trkpt>
      <trkpt lat="44.47724" lon="5.56388">
        <ele>1200.82</ele>
        <time>2017-07-02T12:52:14Z</time>
      </trkpt>
      <trkpt lat="44.47732" lon="5.56386">
        <ele>1201.79</ele>
        <time>2017-07-02T12:52:30Z</time>
      </trkpt>
      <trkpt lat="44.47747" lon="5.56385">
        <ele>1202.27</ele>
        <time>2017-07-02T12:52:44Z</time>
      </trkpt>
      <trkpt lat="44.47767" lon="5.56388">
        <ele>1203.23</ele>
        <time>2017-07-02T12:52:58Z</time>
      </trkpt>
      <trkpt lat="44.47784" lon="5.56387">
        <ele>1203.71</ele>
        <time>2017-07-02T12:53:12Z</time>
      </trkpt>
      <trkpt lat="44.47802" lon="5.56384">
        <ele>1206.11</ele>
        <time>2017-07-02T12:53:28Z</time>
      </trkpt>
      <trkpt lat="44.4781" lon="5.5638">
        <ele>1205.15</ele>
        <time>2017-07-02T12:53:36Z</time>
      </trkpt>
      <trkpt lat="44.47811" lon="5.5638">
        <ele>1205.15</ele>
        <time>2017-07-02T12:53:37Z</time>
      </trkpt>
      <trkpt lat="44.47813" lon="5.56379">
        <ele>1206.11</ele>
        <time>2017-07-02T12:53:39Z</time>
      </trkpt>
      <trkpt lat="44.47817" lon="5.56378">
        <ele>1207.07</ele>
        <time>2017-07-02T12:53:42Z</time>
      </trkpt>
      <trkpt lat="44.47821" lon="5.56376">
        <ele>1205.63</ele>
        <time>2017-07-02T12:53:46Z</time>
      </trkpt>
      <trkpt lat="44.47834" lon="5.56373">
        <ele>1207.07</ele>
        <time>2017-07-02T12:53:57Z</time>
      </trkpt>
      <trkpt lat="44.47839" lon="5.56372">
        <ele>1205.63</ele>
        <time>2017-07-02T12:54:01Z</time>
      </trkpt>
      <trkpt lat="44.47849" lon="5.56371">
        <ele>1207.07</ele>
        <time>2017-07-02T12:54:10Z</time>
      </trkpt>
      <trkpt lat="44.47858" lon="5.56372">
        <ele>1207.07</ele>
        <time>2017-07-02T12:54:18Z</time>
      </trkpt>
      <trkpt lat="44.4786" lon="5.56372">
        <ele>1207.07</ele>
        <time>2017-07-02T12:54:19Z</time>
      </trkpt>
      <trkpt lat="44.47872" lon="5.56377">
        <ele>1207.55</ele>
        <time>2017-07-02T12:54:30Z</time>
      </trkpt>
      <trkpt lat="44.47874" lon="5.56378">
        <ele>1207.07</ele>
        <time>2017-07-02T12:54:32Z</time>
      </trkpt>
      <trkpt lat="44.47889" lon="5.5638">
        <ele>1208.51</ele>
        <time>2017-07-02T12:54:45Z</time>
      </trkpt>
      <trkpt lat="44.47905" lon="5.56377">
        <ele>1208.51</ele>
        <time>2017-07-02T12:55:00Z</time>
      </trkpt>
      <trkpt lat="44.47926" lon="5.56379">
        <ele>1210.44</ele>
        <time>2017-07-02T12:55:16Z</time>
      </trkpt>
      <trkpt lat="44.47941" lon="5.56375">
        <ele>1209.96</ele>
        <time>2017-07-02T12:55:31Z</time>
      </trkpt>
      <trkpt lat="44.47946" lon="5.56374">
        <ele>1209.96</ele>
        <time>2017-07-02T12:55:36Z</time>
      </trkpt>
      <trkpt lat="44.47957" lon="5.56377">
        <ele>1210.44</ele>
        <time>2017-07-02T12:55:44Z</time>
      </trkpt>
      <trkpt lat="44.47966" lon="5.56379">
        <ele>1209.96</ele>
        <time>2017-07-02T12:55:51Z</time>
      </trkpt>
      <trkpt lat="44.4797" lon="5.5638">
        <ele>1211.4</ele>
        <time>2017-07-02T12:55:55Z</time>
      </trkpt>
      <trkpt lat="44.47989" lon="5.56385">
        <ele>1211.88</ele>
        <time>2017-07-02T12:56:09Z</time>
      </trkpt>
      <trkpt lat="44.47994" lon="5.56386">
        <ele>1211.88</ele>
        <time>2017-07-02T12:56:13Z</time>
      </trkpt>
      <trkpt lat="44.48014" lon="5.56382">
        <ele>1212.36</ele>
        <time>2017-07-02T12:56:27Z</time>
      </trkpt>
      <trkpt lat="44.48025" lon="5.56379">
        <ele>1211.88</ele>
        <time>2017-07-02T12:56:37Z</time>
      </trkpt>
      <trkpt lat="44.4804" lon="5.56378">
        <ele>1212.36</ele>
        <time>2017-07-02T12:56:49Z</time>
      </trkpt>
      <trkpt lat="44.48042" lon="5.56378">
        <ele>1212.84</ele>
        <time>2017-07-02T12:56:51Z</time>
      </trkpt>
      <trkpt lat="44.48051" lon="5.56376">
        <ele>1214.28</ele>
        <time>2017-07-02T12:57:00Z</time>
      </trkpt>
      <trkpt lat="44.48053" lon="5.56376">
        <ele>1212.84</ele>
        <time>2017-07-02T12:57:02Z</time>
      </trkpt>
      <trkpt lat="44.48059" lon="5.56376">
        <ele>1214.76</ele>
        <time>2017-07-02T12:57:07Z</time>
      </trkpt>
      <trkpt lat="44.48073" lon="5.56376">
        <ele>1213.32</ele>
        <time>2017-07-02T12:57:20Z</time>
      </trkpt>
      <trkpt lat="44.48091" lon="5.56373">
        <ele>1214.76</ele>
        <time>2017-07-02T12:57:34Z</time>
      </trkpt>
      <trkpt lat="44.48109" lon="5.5637">
        <ele>1214.28</ele>
        <time>2017-07-02T12:57:47Z</time>
      </trkpt>
      <trkpt lat="44.48112" lon="5.56369">
        <ele>1214.76</ele>
        <time>2017-07-02T12:57:50Z</time>
      </trkpt>
      <trkpt lat="44.48123" lon="5.56367">
        <ele>1215.72</ele>
        <time>2017-07-02T12:58:00Z</time>
      </trkpt>
      <trkpt lat="44.48128" lon="5.56364">
        <ele>1215.72</ele>
        <time>2017-07-02T12:58:05Z</time>
      </trkpt>
      <trkpt lat="44.48143" lon="5.56364">
        <ele>1216.21</ele>
        <time>2017-07-02T12:58:18Z</time>
      </trkpt>
      <trkpt lat="44.48146" lon="5.56363">
        <ele>1216.21</ele>
        <time>2017-07-02T12:58:20Z</time>
      </trkpt>
      <trkpt lat="44.4815" lon="5.56362">
        <ele>1216.21</ele>
        <time>2017-07-02T12:58:22Z</time>
      </trkpt>
      <trkpt lat="44.48159" lon="5.56362">
        <ele>1216.21</ele>
        <time>2017-07-02T12:58:29Z</time>
      </trkpt>
      <trkpt lat="44.48174" lon="5.56365">
        <ele>1218.13</ele>
        <time>2017-07-02T12:58:42Z</time>
      </trkpt>
      <trkpt lat="44.48187" lon="5.56364">
        <ele>1218.13</ele>
        <time>2017-07-02T12:58:53Z</time>
      </trkpt>
      <trkpt lat="44.482" lon="5.56365">
        <ele>1218.13</ele>
        <time>2017-07-02T12:59:05Z</time>
      </trkpt>
      <trkpt lat="44.48215" lon="5.56367">
        <ele>1218.13</ele>
        <time>2017-07-02T12:59:18Z</time>
      </trkpt>
      <trkpt lat="44.48228" lon="5.56368">
        <ele>1218.61</ele>
        <time>2017-07-02T12:59:30Z</time>
      </trkpt>
      <trkpt lat="44.48232" lon="5.56369">
        <ele>1218.13</ele>
        <time>2017-07-02T12:59:33Z</time>
      </trkpt>
      <trkpt lat="44.48249" lon="5.56374">
        <ele>1218.61</ele>
        <time>2017-07-02T12:59:47Z</time>
      </trkpt>
      <trkpt lat="44.48268" lon="5.56377">
        <ele>1218.13</ele>
        <time>2017-07-02T13:00:01Z</time>
      </trkpt>
      <trkpt lat="44.48273" lon="5.56378">
        <ele>1218.13</ele>
        <time>2017-07-02T13:00:04Z</time>
      </trkpt>
      <trkpt lat="44.48282" lon="5.56378">
        <ele>1218.13</ele>
        <time>2017-07-02T13:00:10Z</time>
      </trkpt>
      <trkpt lat="44.4829" lon="5.56379">
        <ele>1218.13</ele>
        <time>2017-07-02T13:00:16Z</time>
      </trkpt>
      <trkpt lat="44.48304" lon="5.56376">
        <ele>1218.13</ele>
        <time>2017-07-02T13:00:24Z</time>
      </trkpt>
      <trkpt lat="44.48329" lon="5.5637">
        <ele>1218.61</ele>
        <time>2017-07-02T13:00:39Z</time>
      </trkpt>
      <trkpt lat="44.48342" lon="5.56368">
        <ele>1219.09</ele>
        <time>2017-07-02T13:00:51Z</time>
      </trkpt>
      <trkpt lat="44.48354" lon="5.56365">
        <ele>1219.09</ele>
        <time>2017-07-02T13:01:04Z</time>
      </trkpt>
      <trkpt lat="44.48371" lon="5.56374">
        <ele>1220.53</ele>
        <time>2017-07-02T13:01:18Z</time>
      </trkpt>
      <trkpt lat="44.48382" lon="5.56393">
        <ele>1221.49</ele>
        <time>2017-07-02T13:01:33Z</time>
      </trkpt>
      <trkpt lat="44.48386" lon="5.56412">
        <ele>1221.01</ele>
        <time>2017-07-02T13:01:46Z</time>
      </trkpt>
      <trkpt lat="44.48384" lon="5.56424">
        <ele>1221.01</ele>
        <time>2017-07-02T13:02:05Z</time>
      </trkpt>
      <trkpt lat="44.48383" lon="5.56426">
        <ele>1221.01</ele>
        <time>2017-07-02T13:02:06Z</time>
      </trkpt>
      <trkpt lat="44.48382" lon="5.56429">
        <ele>1219.09</ele>
        <time>2017-07-02T13:02:09Z</time>
      </trkpt>
      <trkpt lat="44.48377" lon="5.56439">
        <ele>1218.61</ele>
        <time>2017-07-02T13:02:17Z</time>
      </trkpt>
      <trkpt lat="44.48368" lon="5.56461">
        <ele>1218.13</ele>
        <time>2017-07-02T13:02:33Z</time>
      </trkpt>
      <trkpt lat="44.48367" lon="5.56476">
        <ele>1218.13</ele>
        <time>2017-07-02T13:02:41Z</time>
      </trkpt>
      <trkpt lat="44.48368" lon="5.56481">
        <ele>1218.13</ele>
        <time>2017-07-02T13:02:44Z</time>
      </trkpt>
      <trkpt lat="44.48373" lon="5.56507">
        <ele>1217.65</ele>
        <time>2017-07-02T13:02:58Z</time>
      </trkpt>
      <trkpt lat="44.48377" lon="5.56537">
        <ele>1216.21</ele>
        <time>2017-07-02T13:03:14Z</time>
      </trkpt>
      <trkpt lat="44.48383" lon="5.5657">
        <ele>1215.72</ele>
        <time>2017-07-02T13:03:31Z</time>
      </trkpt>
      <trkpt lat="44.48383" lon="5.56574">
        <ele>1215.72</ele>
        <time>2017-07-02T13:03:33Z</time>
      </trkpt>
      <trkpt lat="44.48387" lon="5.56585">
        <ele>1215.72</ele>
        <time>2017-07-02T13:03:40Z</time>
      </trkpt>
      <trkpt lat="44.4839" lon="5.56604">
        <ele>1215.72</ele>
        <time>2017-07-02T13:03:50Z</time>
      </trkpt>
      <trkpt lat="44.48398" lon="5.56629">
        <ele>1217.17</ele>
        <time>2017-07-02T13:04:06Z</time>
      </trkpt>
      <trkpt lat="44.48401" lon="5.56635">
        <ele>1217.17</ele>
        <time>2017-07-02T13:04:10Z</time>
      </trkpt>
      <trkpt lat="44.48404" lon="5.56639">
        <ele>1217.17</ele>
        <time>2017-07-02T13:04:13Z</time>
      </trkpt>
      <trkpt lat="44.48415" lon="5.56652">
        <ele>1215.72</ele>
        <time>2017-07-02T13:04:25Z</time>
      </trkpt>
      <trkpt lat="44.48432" lon="5.56671">
        <ele>1215.24</ele>
        <time>2017-07-02T13:04:41Z</time>
      </trkpt>
      <trkpt lat="44.48436" lon="5.567">
        <ele>1215.24</ele>
        <time>2017-07-02T13:04:56Z</time>
      </trkpt>
      <trkpt lat="44.48433" lon="5.56724">
        <ele>1215.24</ele>
        <time>2017-07-02T13:05:10Z</time>
      </trkpt>
      <trkpt lat="44.48425" lon="5.56743">
        <ele>1215.24</ele>
        <time>2017-07-02T13:05:24Z</time>
      </trkpt>
      <trkpt lat="44.48423" lon="5.56747">
        <ele>1215.24</ele>
        <time>2017-07-02T13:05:27Z</time>
      </trkpt>
      <trkpt lat="44.48413" lon="5.56767">
        <ele>1214.28</ele>
        <time>2017-07-02T13:05:41Z</time>
      </trkpt>
      <trkpt lat="44.4841" lon="5.56774">
        <ele>1214.28</ele>
        <time>2017-07-02T13:05:45Z</time>
      </trkpt>
      <trkpt lat="44.48409" lon="5.56782">
        <ele>1214.28</ele>
        <time>2017-07-02T13:05:50Z</time>
      </trkpt>
      <trkpt lat="44.48398" lon="5.56815">
        <ele>1215.72</ele>
        <time>2017-07-02T13:06:09Z</time>
      </trkpt>
      <trkpt lat="44.48395" lon="5.5684">
        <ele>1218.13</ele>
        <time>2017-07-02T13:06:23Z</time>
      </trkpt>
      <trkpt lat="44.4839" lon="5.56853">
        <ele>1218.61</ele>
        <time>2017-07-02T13:06:30Z</time>
      </trkpt>
      <trkpt lat="44.48383" lon="5.5688">
        <ele>1219.09</ele>
        <time>2017-07-02T13:06:45Z</time>
      </trkpt>
      <trkpt lat="44.48372" lon="5.56903">
        <ele>1220.05</ele>
        <time>2017-07-02T13:06:59Z</time>
      </trkpt>
      <trkpt lat="44.48358" lon="5.56926">
        <ele>1221.01</ele>
        <time>2017-07-02T13:07:17Z</time>
      </trkpt>
      <trkpt lat="44.48345" lon="5.56945">
        <ele>1222.93</ele>
        <time>2017-07-02T13:07:33Z</time>
      </trkpt>
      <trkpt lat="44.48331" lon="5.5696">
        <ele>1223.9</ele>
        <time>2017-07-02T13:07:48Z</time>
      </trkpt>
      <trkpt lat="44.48314" lon="5.56972">
        <ele>1225.34</ele>
        <time>2017-07-02T13:08:03Z</time>
      </trkpt>
      <trkpt lat="44.483" lon="5.56988">
        <ele>1226.78</ele>
        <time>2017-07-02T13:08:18Z</time>
      </trkpt>
      <trkpt lat="44.48291" lon="5.57014">
        <ele>1228.22</ele>
        <time>2017-07-02T13:08:33Z</time>
      </trkpt>
      <trkpt lat="44.48286" lon="5.57041">
        <ele>1229.66</ele>
        <time>2017-07-02T13:08:48Z</time>
      </trkpt>
      <trkpt lat="44.48286" lon="5.57067">
        <ele>1230.14</ele>
        <time>2017-07-02T13:09:02Z</time>
      </trkpt>
      <trkpt lat="44.48278" lon="5.5709">
        <ele>1231.11</ele>
        <time>2017-07-02T13:09:18Z</time>
      </trkpt>
      <trkpt lat="44.48286" lon="5.57091">
        <ele>1232.55</ele>
        <time>2017-07-02T13:12:44Z</time>
      </trkpt>
      <trkpt lat="44.48294" lon="5.57093">
        <ele>1232.55</ele>
        <time>2017-07-02T13:13:00Z</time>
      </trkpt>
      <trkpt lat="44.48301" lon="5.57102">
        <ele>1229.66</ele>
        <time>2017-07-02T13:13:15Z</time>
      </trkpt>
      <trkpt lat="44.48311" lon="5.57108">
        <ele>1227.26</ele>
        <time>2017-07-02T13:13:29Z</time>
      </trkpt>
      <trkpt lat="44.48323" lon="5.57118">
        <ele>1224.38</ele>
        <time>2017-07-02T13:13:45Z</time>
      </trkpt>
      <trkpt lat="44.48325" lon="5.57119">
        <ele>1223.9</ele>
        <time>2017-07-02T13:13:48Z</time>
      </trkpt>
      <trkpt lat="44.48332" lon="5.57122">
        <ele>1221.49</ele>
        <time>2017-07-02T13:13:55Z</time>
      </trkpt>
      <trkpt lat="44.48347" lon="5.57132">
        <ele>1218.13</ele>
        <time>2017-07-02T13:14:10Z</time>
      </trkpt>
      <trkpt lat="44.4836" lon="5.57138">
        <ele>1215.24</ele>
        <time>2017-07-02T13:14:22Z</time>
      </trkpt>
      <trkpt lat="44.48377" lon="5.57145">
        <ele>1212.36</ele>
        <time>2017-07-02T13:14:38Z</time>
      </trkpt>
      <trkpt lat="44.48384" lon="5.57149">
        <ele>1210.44</ele>
        <time>2017-07-02T13:14:45Z</time>
      </trkpt>
      <trkpt lat="44.48391" lon="5.57152">
        <ele>1208.51</ele>
        <time>2017-07-02T13:15:00Z</time>
      </trkpt>
      <trkpt lat="44.48401" lon="5.57158">
        <ele>1208.03</ele>
        <time>2017-07-02T13:15:23Z</time>
      </trkpt>
      <trkpt lat="44.48407" lon="5.5716">
        <ele>1205.63</ele>
        <time>2017-07-02T13:15:30Z</time>
      </trkpt>
      <trkpt lat="44.48419" lon="5.57166">
        <ele>1202.27</ele>
        <time>2017-07-02T13:15:44Z</time>
      </trkpt>
      <trkpt lat="44.48425" lon="5.57167">
        <ele>1198.9</ele>
        <time>2017-07-02T13:15:52Z</time>
      </trkpt>
      <trkpt lat="44.48437" lon="5.57168">
        <ele>1195.54</ele>
        <time>2017-07-02T13:16:04Z</time>
      </trkpt>
      <trkpt lat="44.48438" lon="5.57168">
        <ele>1195.54</ele>
        <time>2017-07-02T13:16:05Z</time>
      </trkpt>
      <trkpt lat="44.4844" lon="5.57169">
        <ele>1196.5</ele>
        <time>2017-07-02T13:16:08Z</time>
      </trkpt>
      <trkpt lat="44.48445" lon="5.57171">
        <ele>1194.58</ele>
        <time>2017-07-02T13:16:12Z</time>
      </trkpt>
      <trkpt lat="44.48454" lon="5.57175">
        <ele>1191.21</ele>
        <time>2017-07-02T13:16:22Z</time>
      </trkpt>
      <trkpt lat="44.48473" lon="5.57183">
        <ele>1187.85</ele>
        <time>2017-07-02T13:16:41Z</time>
      </trkpt>
      <trkpt lat="44.48486" lon="5.57191">
        <ele>1184.48</ele>
        <time>2017-07-02T13:16:53Z</time>
      </trkpt>
      <trkpt lat="44.48506" lon="5.57198">
        <ele>1181.6</ele>
        <time>2017-07-02T13:17:10Z</time>
      </trkpt>
      <trkpt lat="44.48519" lon="5.57204">
        <ele>1178.23</ele>
        <time>2017-07-02T13:17:25Z</time>
      </trkpt>
      <trkpt lat="44.48527" lon="5.57209">
        <ele>1177.75</ele>
        <time>2017-07-02T13:17:43Z</time>
      </trkpt>
      <trkpt lat="44.48531" lon="5.57205">
        <ele>1176.79</ele>
        <time>2017-07-02T13:17:58Z</time>
      </trkpt>
      <trkpt lat="44.48543" lon="5.57197">
        <ele>1176.31</ele>
        <time>2017-07-02T13:18:11Z</time>
      </trkpt>
      <trkpt lat="44.48545" lon="5.57195">
        <ele>1175.83</ele>
        <time>2017-07-02T13:18:14Z</time>
      </trkpt>
      <trkpt lat="44.48554" lon="5.5719">
        <ele>1174.87</ele>
        <time>2017-07-02T13:18:22Z</time>
      </trkpt>
      <trkpt lat="44.48555" lon="5.57188">
        <ele>1174.39</ele>
        <time>2017-07-02T13:18:24Z</time>
      </trkpt>
      <trkpt lat="44.48569" lon="5.57179">
        <ele>1172.95</ele>
        <time>2017-07-02T13:18:37Z</time>
      </trkpt>
      <trkpt lat="44.48585" lon="5.57174">
        <ele>1171.02</ele>
        <time>2017-07-02T13:18:50Z</time>
      </trkpt>
      <trkpt lat="44.486" lon="5.57171">
        <ele>1169.58</ele>
        <time>2017-07-02T13:19:02Z</time>
      </trkpt>
      <trkpt lat="44.48609" lon="5.57167">
        <ele>1168.14</ele>
        <time>2017-07-02T13:19:12Z</time>
      </trkpt>
      <trkpt lat="44.48622" lon="5.5716">
        <ele>1166.7</ele>
        <time>2017-07-02T13:19:24Z</time>
      </trkpt>
      <trkpt lat="44.48627" lon="5.57159">
        <ele>1166.7</ele>
        <time>2017-07-02T13:19:28Z</time>
      </trkpt>
      <trkpt lat="44.48649" lon="5.57161">
        <ele>1164.29</ele>
        <time>2017-07-02T13:19:45Z</time>
      </trkpt>
      <trkpt lat="44.48668" lon="5.57162">
        <ele>1161.41</ele>
        <time>2017-07-02T13:19:59Z</time>
      </trkpt>
      <trkpt lat="44.48696" lon="5.57165">
        <ele>1159.97</ele>
        <time>2017-07-02T13:20:17Z</time>
      </trkpt>
      <trkpt lat="44.48701" lon="5.57165">
        <ele>1158.53</ele>
        <time>2017-07-02T13:20:20Z</time>
      </trkpt>
      <trkpt lat="44.48721" lon="5.57167">
        <ele>1156.6</ele>
        <time>2017-07-02T13:20:35Z</time>
      </trkpt>
      <trkpt lat="44.48743" lon="5.57176">
        <ele>1154.68</ele>
        <time>2017-07-02T13:20:51Z</time>
      </trkpt>
      <trkpt lat="44.48754" lon="5.57184">
        <ele>1152.76</ele>
        <time>2017-07-02T13:21:06Z</time>
      </trkpt>
      <trkpt lat="44.48768" lon="5.5719">
        <ele>1151.8</ele>
        <time>2017-07-02T13:21:28Z</time>
      </trkpt>
      <trkpt lat="44.48788" lon="5.57197">
        <ele>1148.91</ele>
        <time>2017-07-02T13:21:44Z</time>
      </trkpt>
      <trkpt lat="44.48806" lon="5.57198">
        <ele>1146.51</ele>
        <time>2017-07-02T13:22:02Z</time>
      </trkpt>
      <trkpt lat="44.48821" lon="5.57189">
        <ele>1145.07</ele>
        <time>2017-07-02T13:22:16Z</time>
      </trkpt>
      <trkpt lat="44.48846" lon="5.57181">
        <ele>1142.66</ele>
        <time>2017-07-02T13:22:34Z</time>
      </trkpt>
      <trkpt lat="44.48859" lon="5.57175">
        <ele>1141.22</ele>
        <time>2017-07-02T13:22:46Z</time>
      </trkpt>
      <trkpt lat="44.4887" lon="5.57168">
        <ele>1140.26</ele>
        <time>2017-07-02T13:23:01Z</time>
      </trkpt>
      <trkpt lat="44.48873" lon="5.57164">
        <ele>1140.26</ele>
        <time>2017-07-02T13:23:07Z</time>
      </trkpt>
      <trkpt lat="44.48873" lon="5.57161">
        <ele>1140.26</ele>
        <time>2017-07-02T13:23:09Z</time>
      </trkpt>
      <trkpt lat="44.48876" lon="5.57147">
        <ele>1139.3</ele>
        <time>2017-07-02T13:23:21Z</time>
      </trkpt>
      <trkpt lat="44.48881" lon="5.57139">
        <ele>1138.34</ele>
        <time>2017-07-02T13:23:31Z</time>
      </trkpt>
      <trkpt lat="44.48882" lon="5.5714">
        <ele>1137.86</ele>
        <time>2017-07-02T13:23:43Z</time>
      </trkpt>
      <trkpt lat="44.48884" lon="5.57141">
        <ele>1138.82</ele>
        <time>2017-07-02T13:23:51Z</time>
      </trkpt>
      <trkpt lat="44.48891" lon="5.57147">
        <ele>1136.9</ele>
        <time>2017-07-02T13:24:07Z</time>
      </trkpt>
      <trkpt lat="44.48893" lon="5.57145">
        <ele>1136.9</ele>
        <time>2017-07-02T13:24:28Z</time>
      </trkpt>
      <trkpt lat="44.48901" lon="5.57143">
        <ele>1137.86</ele>
        <time>2017-07-02T13:24:46Z</time>
      </trkpt>
      <trkpt lat="44.48904" lon="5.57144">
        <ele>1136.42</ele>
        <time>2017-07-02T13:24:50Z</time>
      </trkpt>
      <trkpt lat="44.48906" lon="5.57143">
        <ele>1134.97</ele>
        <time>2017-07-02T13:24:53Z</time>
      </trkpt>
      <trkpt lat="44.4891" lon="5.57141">
        <ele>1134.49</ele>
        <time>2017-07-02T13:24:57Z</time>
      </trkpt>
      <trkpt lat="44.48926" lon="5.57131">
        <ele>1131.13</ele>
        <time>2017-07-02T13:25:15Z</time>
      </trkpt>
      <trkpt lat="44.48927" lon="5.57131">
        <ele>1131.13</ele>
        <time>2017-07-02T13:25:16Z</time>
      </trkpt>
      <trkpt lat="44.48941" lon="5.57123">
        <ele>1130.17</ele>
        <time>2017-07-02T13:25:31Z</time>
      </trkpt>
      <trkpt lat="44.4895" lon="5.57118">
        <ele>1127.76</ele>
        <time>2017-07-02T13:25:44Z</time>
      </trkpt>
      <trkpt lat="44.48963" lon="5.57111">
        <ele>1125.36</ele>
        <time>2017-07-02T13:25:59Z</time>
      </trkpt>
      <trkpt lat="44.48981" lon="5.57105">
        <ele>1122.96</ele>
        <time>2017-07-02T13:26:13Z</time>
      </trkpt>
      <trkpt lat="44.48998" lon="5.57099">
        <ele>1120.07</ele>
        <time>2017-07-02T13:26:28Z</time>
      </trkpt>
      <trkpt lat="44.49013" lon="5.57096">
        <ele>1118.63</ele>
        <time>2017-07-02T13:26:42Z</time>
      </trkpt>
      <trkpt lat="44.49033" lon="5.5709">
        <ele>1115.75</ele>
        <time>2017-07-02T13:26:58Z</time>
      </trkpt>
      <trkpt lat="44.49047" lon="5.57086">
        <ele>1113.82</ele>
        <time>2017-07-02T13:27:12Z</time>
      </trkpt>
      <trkpt lat="44.49062" lon="5.57082">
        <ele>1110.46</ele>
        <time>2017-07-02T13:27:26Z</time>
      </trkpt>
      <trkpt lat="44.49077" lon="5.57078">
        <ele>1107.58</ele>
        <time>2017-07-02T13:27:41Z</time>
      </trkpt>
      <trkpt lat="44.49096" lon="5.57075">
        <ele>1104.21</ele>
        <time>2017-07-02T13:27:56Z</time>
      </trkpt>
      <trkpt lat="44.49111" lon="5.57073">
        <ele>1101.33</ele>
        <time>2017-07-02T13:28:09Z</time>
      </trkpt>
      <trkpt lat="44.49126" lon="5.57069">
        <ele>1098.92</ele>
        <time>2017-07-02T13:28:24Z</time>
      </trkpt>
      <trkpt lat="44.49134" lon="5.57066">
        <ele>1097.96</ele>
        <time>2017-07-02T13:28:30Z</time>
      </trkpt>
      <trkpt lat="44.49149" lon="5.5706">
        <ele>1095.08</ele>
        <time>2017-07-02T13:28:42Z</time>
      </trkpt>
      <trkpt lat="44.49168" lon="5.57055">
        <ele>1091.71</ele>
        <time>2017-07-02T13:28:58Z</time>
      </trkpt>
      <trkpt lat="44.49183" lon="5.57051">
        <ele>1088.83</ele>
        <time>2017-07-02T13:29:10Z</time>
      </trkpt>
      <trkpt lat="44.49189" lon="5.57047">
        <ele>1087.39</ele>
        <time>2017-07-02T13:29:22Z</time>
      </trkpt>
      <trkpt lat="44.4921" lon="5.57039">
        <ele>1083.54</ele>
        <time>2017-07-02T13:29:40Z</time>
      </trkpt>
      <trkpt lat="44.49218" lon="5.57035">
        <ele>1080.18</ele>
        <time>2017-07-02T13:29:50Z</time>
      </trkpt>
      <trkpt lat="44.49234" lon="5.57033">
        <ele>1077.78</ele>
        <time>2017-07-02T13:30:03Z</time>
      </trkpt>
      <trkpt lat="44.49251" lon="5.57028">
        <ele>1073.93</ele>
        <time>2017-07-02T13:30:16Z</time>
      </trkpt>
      <trkpt lat="44.49266" lon="5.57029">
        <ele>1071.05</ele>
        <time>2017-07-02T13:30:28Z</time>
      </trkpt>
      <trkpt lat="44.49282" lon="5.57028">
        <ele>1067.68</ele>
        <time>2017-07-02T13:30:39Z</time>
      </trkpt>
      <trkpt lat="44.49298" lon="5.57026">
        <ele>1064.32</ele>
        <time>2017-07-02T13:30:55Z</time>
      </trkpt>
      <trkpt lat="44.49304" lon="5.57025">
        <ele>1063.36</ele>
        <time>2017-07-02T13:31:08Z</time>
      </trkpt>
      <trkpt lat="44.49307" lon="5.57027">
        <ele>1063.36</ele>
        <time>2017-07-02T13:31:26Z</time>
      </trkpt>
      <trkpt lat="44.4931" lon="5.57027">
        <ele>1063.36</ele>
        <time>2017-07-02T13:31:46Z</time>
      </trkpt>
      <trkpt lat="44.49321" lon="5.57025">
        <ele>1061.91</ele>
        <time>2017-07-02T13:32:00Z</time>
      </trkpt>
      <trkpt lat="44.49328" lon="5.57023">
        <ele>1059.99</ele>
        <time>2017-07-02T13:32:10Z</time>
      </trkpt>
      <trkpt lat="44.49339" lon="5.57023">
        <ele>1058.07</ele>
        <time>2017-07-02T13:32:20Z</time>
      </trkpt>
      <trkpt lat="44.49353" lon="5.57024">
        <ele>1054.7</ele>
        <time>2017-07-02T13:32:33Z</time>
      </trkpt>
      <trkpt lat="44.49365" lon="5.57024">
        <ele>1051.34</ele>
        <time>2017-07-02T13:32:46Z</time>
      </trkpt>
      <trkpt lat="44.49373" lon="5.57024">
        <ele>1049.42</ele>
        <time>2017-07-02T13:32:53Z</time>
      </trkpt>
      <trkpt lat="44.49387" lon="5.57024">
        <ele>1046.05</ele>
        <time>2017-07-02T13:33:05Z</time>
      </trkpt>
      <trkpt lat="44.49388" lon="5.57024">
        <ele>1046.05</ele>
        <time>2017-07-02T13:33:06Z</time>
      </trkpt>
      <trkpt lat="44.49404" lon="5.57021">
        <ele>1042.69</ele>
        <time>2017-07-02T13:33:19Z</time>
      </trkpt>
      <trkpt lat="44.49414" lon="5.5702">
        <ele>1039.8</ele>
        <time>2017-07-02T13:33:29Z</time>
      </trkpt>
      <trkpt lat="44.49426" lon="5.57017">
        <ele>1037.4</ele>
        <time>2017-07-02T13:33:42Z</time>
      </trkpt>
      <trkpt lat="44.49434" lon="5.57015">
        <ele>1034.52</ele>
        <time>2017-07-02T13:33:53Z</time>
      </trkpt>
      <trkpt lat="44.49447" lon="5.57012">
        <ele>1031.15</ele>
        <time>2017-07-02T13:34:06Z</time>
      </trkpt>
      <trkpt lat="44.49459" lon="5.57011">
        <ele>1028.27</ele>
        <time>2017-07-02T13:34:17Z</time>
      </trkpt>
      <trkpt lat="44.49473" lon="5.57006">
        <ele>1025.38</ele>
        <time>2017-07-02T13:34:30Z</time>
      </trkpt>
      <trkpt lat="44.4948" lon="5.57001">
        <ele>1022.5</ele>
        <time>2017-07-02T13:34:39Z</time>
      </trkpt>
      <trkpt lat="44.49492" lon="5.56995">
        <ele>1019.13</ele>
        <time>2017-07-02T13:34:50Z</time>
      </trkpt>
      <trkpt lat="44.49502" lon="5.56989">
        <ele>1016.25</ele>
        <time>2017-07-02T13:35:01Z</time>
      </trkpt>
      <trkpt lat="44.49507" lon="5.56985">
        <ele>1013.37</ele>
        <time>2017-07-02T13:35:08Z</time>
      </trkpt>
      <trkpt lat="44.49511" lon="5.56979">
        <ele>1010.48</ele>
        <time>2017-07-02T13:35:15Z</time>
      </trkpt>
      <trkpt lat="44.49523" lon="5.56971">
        <ele>1008.08</ele>
        <time>2017-07-02T13:35:27Z</time>
      </trkpt>
      <trkpt lat="44.49533" lon="5.56966">
        <ele>1004.72</ele>
        <time>2017-07-02T13:35:37Z</time>
      </trkpt>
      <trkpt lat="44.49546" lon="5.56961">
        <ele>1001.83</ele>
        <time>2017-07-02T13:35:48Z</time>
      </trkpt>
      <trkpt lat="44.49554" lon="5.56957">
        <ele>998.47</ele>
        <time>2017-07-02T13:35:58Z</time>
      </trkpt>
      <trkpt lat="44.49555" lon="5.56956">
        <ele>997.99</ele>
        <time>2017-07-02T13:36:00Z</time>
      </trkpt>
      <trkpt lat="44.49567" lon="5.5695">
        <ele>995.1</ele>
        <time>2017-07-02T13:36:12Z</time>
      </trkpt>
      <trkpt lat="44.49578" lon="5.56943">
        <ele>991.74</ele>
        <time>2017-07-02T13:36:23Z</time>
      </trkpt>
      <trkpt lat="44.4959" lon="5.56932">
        <ele>989.33</ele>
        <time>2017-07-02T13:36:34Z</time>
      </trkpt>
      <trkpt lat="44.49597" lon="5.56927">
        <ele>986.45</ele>
        <time>2017-07-02T13:36:45Z</time>
      </trkpt>
      <trkpt lat="44.49603" lon="5.56919">
        <ele>983.09</ele>
        <time>2017-07-02T13:36:56Z</time>
      </trkpt>
      <trkpt lat="44.49615" lon="5.56908">
        <ele>980.2</ele>
        <time>2017-07-02T13:37:08Z</time>
      </trkpt>
      <trkpt lat="44.49623" lon="5.56896">
        <ele>976.84</ele>
        <time>2017-07-02T13:37:19Z</time>
      </trkpt>
      <trkpt lat="44.49629" lon="5.56887">
        <ele>973.95</ele>
        <time>2017-07-02T13:37:31Z</time>
      </trkpt>
      <trkpt lat="44.49634" lon="5.5688">
        <ele>970.59</ele>
        <time>2017-07-02T13:37:41Z</time>
      </trkpt>
      <trkpt lat="44.49638" lon="5.56875">
        <ele>969.15</ele>
        <time>2017-07-02T13:37:47Z</time>
      </trkpt>
      <trkpt lat="44.49647" lon="5.56866">
        <ele>965.3</ele>
        <time>2017-07-02T13:37:58Z</time>
      </trkpt>
      <trkpt lat="44.49655" lon="5.56858">
        <ele>962.9</ele>
        <time>2017-07-02T13:38:09Z</time>
      </trkpt>
      <trkpt lat="44.4966" lon="5.56852">
        <ele>959.53</ele>
        <time>2017-07-02T13:38:18Z</time>
      </trkpt>
      <trkpt lat="44.49669" lon="5.56835">
        <ele>956.17</ele>
        <time>2017-07-02T13:38:32Z</time>
      </trkpt>
      <trkpt lat="44.49681" lon="5.56817">
        <ele>952.8</ele>
        <time>2017-07-02T13:38:47Z</time>
      </trkpt>
      <trkpt lat="44.49687" lon="5.5681">
        <ele>950.4</ele>
        <time>2017-07-02T13:38:57Z</time>
      </trkpt>
      <trkpt lat="44.49693" lon="5.56799">
        <ele>948.48</ele>
        <time>2017-07-02T13:39:10Z</time>
      </trkpt>
      <trkpt lat="44.49699" lon="5.56786">
        <ele>947.52</ele>
        <time>2017-07-02T13:39:24Z</time>
      </trkpt>
      <trkpt lat="44.49704" lon="5.56772">
        <ele>945.59</ele>
        <time>2017-07-02T13:39:38Z</time>
      </trkpt>
      <trkpt lat="44.49709" lon="5.56762">
        <ele>942.23</ele>
        <time>2017-07-02T13:39:48Z</time>
      </trkpt>
      <trkpt lat="44.49714" lon="5.56751">
        <ele>940.79</ele>
        <time>2017-07-02T13:39:59Z</time>
      </trkpt>
      <trkpt lat="44.49722" lon="5.5674">
        <ele>938.38</ele>
        <time>2017-07-02T13:40:10Z</time>
      </trkpt>
      <trkpt lat="44.49732" lon="5.5673">
        <ele>936.94</ele>
        <time>2017-07-02T13:40:22Z</time>
      </trkpt>
      <trkpt lat="44.49747" lon="5.56712">
        <ele>935.02</ele>
        <time>2017-07-02T13:40:35Z</time>
      </trkpt>
      <trkpt lat="44.49756" lon="5.56696">
        <ele>932.14</ele>
        <time>2017-07-02T13:40:48Z</time>
      </trkpt>
      <trkpt lat="44.49767" lon="5.56687">
        <ele>929.73</ele>
        <time>2017-07-02T13:41:01Z</time>
      </trkpt>
      <trkpt lat="44.49779" lon="5.56684">
        <ele>927.33</ele>
        <time>2017-07-02T13:41:12Z</time>
      </trkpt>
      <trkpt lat="44.49793" lon="5.56679">
        <ele>924.45</ele>
        <time>2017-07-02T13:41:24Z</time>
      </trkpt>
      <trkpt lat="44.49807" lon="5.56676">
        <ele>922.52</ele>
        <time>2017-07-02T13:41:35Z</time>
      </trkpt>
      <trkpt lat="44.4982" lon="5.56674">
        <ele>920.12</ele>
        <time>2017-07-02T13:41:47Z</time>
      </trkpt>
      <trkpt lat="44.49834" lon="5.56672">
        <ele>917.24</ele>
        <time>2017-07-02T13:41:58Z</time>
      </trkpt>
      <trkpt lat="44.49847" lon="5.56671">
        <ele>914.83</ele>
        <time>2017-07-02T13:42:09Z</time>
      </trkpt>
      <trkpt lat="44.49861" lon="5.56669">
        <ele>912.43</ele>
        <time>2017-07-02T13:42:22Z</time>
      </trkpt>
      <trkpt lat="44.49875" lon="5.56668">
        <ele>910.51</ele>
        <time>2017-07-02T13:42:35Z</time>
      </trkpt>
      <trkpt lat="44.4989" lon="5.56666">
        <ele>907.14</ele>
        <time>2017-07-02T13:42:47Z</time>
      </trkpt>
      <trkpt lat="44.49897" lon="5.56665">
        <ele>903.3</ele>
        <time>2017-07-02T13:42:56Z</time>
      </trkpt>
      <trkpt lat="44.49898" lon="5.56665">
        <ele>903.3</ele>
        <time>2017-07-02T13:42:57Z</time>
      </trkpt>
      <trkpt lat="44.49913" lon="5.56663">
        <ele>900.41</ele>
        <time>2017-07-02T13:43:07Z</time>
      </trkpt>
      <trkpt lat="44.49925" lon="5.56665">
        <ele>898.01</ele>
        <time>2017-07-02T13:43:16Z</time>
      </trkpt>
      <trkpt lat="44.49938" lon="5.56669">
        <ele>894.64</ele>
        <time>2017-07-02T13:43:29Z</time>
      </trkpt>
      <trkpt lat="44.4995" lon="5.56669">
        <ele>891.76</ele>
        <time>2017-07-02T13:43:39Z</time>
      </trkpt>
      <trkpt lat="44.49952" lon="5.56669">
        <ele>891.28</ele>
        <time>2017-07-02T13:43:40Z</time>
      </trkpt>
      <trkpt lat="44.49965" lon="5.56664">
        <ele>887.91</ele>
        <time>2017-07-02T13:43:51Z</time>
      </trkpt>
      <trkpt lat="44.49974" lon="5.56659">
        <ele>884.55</ele>
        <time>2017-07-02T13:44:03Z</time>
      </trkpt>
      <trkpt lat="44.49983" lon="5.56654">
        <ele>881.19</ele>
        <time>2017-07-02T13:44:15Z</time>
      </trkpt>
      <trkpt lat="44.49992" lon="5.56648">
        <ele>877.82</ele>
        <time>2017-07-02T13:44:27Z</time>
      </trkpt>
      <trkpt lat="44.50011" lon="5.56643">
        <ele>874.94</ele>
        <time>2017-07-02T13:44:39Z</time>
      </trkpt>
      <trkpt lat="44.50022" lon="5.56634">
        <ele>872.53</ele>
        <time>2017-07-02T13:44:51Z</time>
      </trkpt>
      <trkpt lat="44.50032" lon="5.56627">
        <ele>870.13</ele>
        <time>2017-07-02T13:45:04Z</time>
      </trkpt>
      <trkpt lat="44.5004" lon="5.56619">
        <ele>867.73</ele>
        <time>2017-07-02T13:45:15Z</time>
      </trkpt>
      <trkpt lat="44.50047" lon="5.56618">
        <ele>863.88</ele>
        <time>2017-07-02T13:45:23Z</time>
      </trkpt>
      <trkpt lat="44.50052" lon="5.56617">
        <ele>861</ele>
        <time>2017-07-02T13:45:32Z</time>
      </trkpt>
      <trkpt lat="44.50061" lon="5.56617">
        <ele>859.08</ele>
        <time>2017-07-02T13:45:45Z</time>
      </trkpt>
      <trkpt lat="44.5007" lon="5.5662">
        <ele>856.19</ele>
        <time>2017-07-02T13:46:00Z</time>
      </trkpt>
      <trkpt lat="44.50078" lon="5.56627">
        <ele>852.83</ele>
        <time>2017-07-02T13:46:12Z</time>
      </trkpt>
      <trkpt lat="44.5008" lon="5.56638">
        <ele>848.98</ele>
        <time>2017-07-02T13:46:25Z</time>
      </trkpt>
      <trkpt lat="44.50082" lon="5.56647">
        <ele>845.62</ele>
        <time>2017-07-02T13:46:39Z</time>
      </trkpt>
      <trkpt lat="44.50085" lon="5.56659">
        <ele>842.25</ele>
        <time>2017-07-02T13:46:51Z</time>
      </trkpt>
      <trkpt lat="44.5009" lon="5.56657">
        <ele>840.33</ele>
        <time>2017-07-02T13:47:02Z</time>
      </trkpt>
      <trkpt lat="44.50099" lon="5.56646">
        <ele>837.45</ele>
        <time>2017-07-02T13:47:15Z</time>
      </trkpt>
      <trkpt lat="44.50108" lon="5.56645">
        <ele>834.08</ele>
        <time>2017-07-02T13:47:26Z</time>
      </trkpt>
      <trkpt lat="44.50118" lon="5.56639">
        <ele>832.16</ele>
        <time>2017-07-02T13:47:37Z</time>
      </trkpt>
      <trkpt lat="44.50135" lon="5.56657">
        <ele>834.08</ele>
        <time>2017-07-02T13:55:06Z</time>
      </trkpt>
      <trkpt lat="44.50146" lon="5.56661">
        <ele>832.16</ele>
        <time>2017-07-02T13:55:15Z</time>
      </trkpt>
      <trkpt lat="44.50158" lon="5.5667">
        <ele>831.2</ele>
        <time>2017-07-02T13:55:30Z</time>
      </trkpt>
      <trkpt lat="44.5017" lon="5.56684">
        <ele>829.27</ele>
        <time>2017-07-02T13:55:43Z</time>
      </trkpt>
      <trkpt lat="44.50182" lon="5.567">
        <ele>828.31</ele>
        <time>2017-07-02T13:55:57Z</time>
      </trkpt>
      <trkpt lat="44.50186" lon="5.56704">
        <ele>827.83</ele>
        <time>2017-07-02T13:56:01Z</time>
      </trkpt>
      <trkpt lat="44.50188" lon="5.56706">
        <ele>827.35</ele>
        <time>2017-07-02T13:56:03Z</time>
      </trkpt>
      <trkpt lat="44.5019" lon="5.56708">
        <ele>827.35</ele>
        <time>2017-07-02T13:56:05Z</time>
      </trkpt>
      <trkpt lat="44.50203" lon="5.5672">
        <ele>825.91</ele>
        <time>2017-07-02T13:56:18Z</time>
      </trkpt>
      <trkpt lat="44.50215" lon="5.56735">
        <ele>824.47</ele>
        <time>2017-07-02T13:56:33Z</time>
      </trkpt>
      <trkpt lat="44.50228" lon="5.56762">
        <ele>821.58</ele>
        <time>2017-07-02T13:56:50Z</time>
      </trkpt>
      <trkpt lat="44.50232" lon="5.56771">
        <ele>820.62</ele>
        <time>2017-07-02T13:56:55Z</time>
      </trkpt>
      <trkpt lat="44.5024" lon="5.56784">
        <ele>820.14</ele>
        <time>2017-07-02T13:57:07Z</time>
      </trkpt>
      <trkpt lat="44.50253" lon="5.56807">
        <ele>817.74</ele>
        <time>2017-07-02T13:57:25Z</time>
      </trkpt>
      <trkpt lat="44.50261" lon="5.56834">
        <ele>815.82</ele>
        <time>2017-07-02T13:57:41Z</time>
      </trkpt>
      <trkpt lat="44.50263" lon="5.56838">
        <ele>815.82</ele>
        <time>2017-07-02T13:57:45Z</time>
      </trkpt>
      <trkpt lat="44.50266" lon="5.56878">
        <ele>814.85</ele>
        <time>2017-07-02T13:58:04Z</time>
      </trkpt>
      <trkpt lat="44.50271" lon="5.56908">
        <ele>813.89</ele>
        <time>2017-07-02T13:58:22Z</time>
      </trkpt>
      <trkpt lat="44.50276" lon="5.56932">
        <ele>811.97</ele>
        <time>2017-07-02T13:58:39Z</time>
      </trkpt>
      <trkpt lat="44.50287" lon="5.56955">
        <ele>811.01</ele>
        <time>2017-07-02T13:58:55Z</time>
      </trkpt>
      <trkpt lat="44.50296" lon="5.56962">
        <ele>810.05</ele>
        <time>2017-07-02T13:59:09Z</time>
      </trkpt>
      <trkpt lat="44.50308" lon="5.56959">
        <ele>808.61</ele>
        <time>2017-07-02T13:59:21Z</time>
      </trkpt>
      <trkpt lat="44.50313" lon="5.56959">
        <ele>808.61</ele>
        <time>2017-07-02T13:59:24Z</time>
      </trkpt>
      <trkpt lat="44.5033" lon="5.56975">
        <ele>807.64</ele>
        <time>2017-07-02T13:59:40Z</time>
      </trkpt>
      <trkpt lat="44.50337" lon="5.56987">
        <ele>807.64</ele>
        <time>2017-07-02T13:59:53Z</time>
      </trkpt>
      <trkpt lat="44.50338" lon="5.56994">
        <ele>807.64</ele>
        <time>2017-07-02T14:00:04Z</time>
      </trkpt>
      <trkpt lat="44.50339" lon="5.56998">
        <ele>807.64</ele>
        <time>2017-07-02T14:00:07Z</time>
      </trkpt>
      <trkpt lat="44.50343" lon="5.57017">
        <ele>806.2</ele>
        <time>2017-07-02T14:00:22Z</time>
      </trkpt>
      <trkpt lat="44.50347" lon="5.57041">
        <ele>805.24</ele>
        <time>2017-07-02T14:00:38Z</time>
      </trkpt>
      <trkpt lat="44.50352" lon="5.57055">
        <ele>804.76</ele>
        <time>2017-07-02T14:00:48Z</time>
      </trkpt>
      <trkpt lat="44.50353" lon="5.57062">
        <ele>804.76</ele>
        <time>2017-07-02T14:01:03Z</time>
      </trkpt>
      <trkpt lat="44.50365" lon="5.57086">
        <ele>803.8</ele>
        <time>2017-07-02T14:01:22Z</time>
      </trkpt>
      <trkpt lat="44.50375" lon="5.5711">
        <ele>802.36</ele>
        <time>2017-07-02T14:01:39Z</time>
      </trkpt>
      <trkpt lat="44.50378" lon="5.57116">
        <ele>802.36</ele>
        <time>2017-07-02T14:01:44Z</time>
      </trkpt>
      <trkpt lat="44.50379" lon="5.57117">
        <ele>802.36</ele>
        <time>2017-07-02T14:01:54Z</time>
      </trkpt>
      <trkpt lat="44.50381" lon="5.57116">
        <ele>803.32</ele>
        <time>2017-07-02T14:02:12Z</time>
      </trkpt>
      <trkpt lat="44.50382" lon="5.5712">
        <ele>803.32</ele>
        <time>2017-07-02T14:02:16Z</time>
      </trkpt>
      <trkpt lat="44.50384" lon="5.57125">
        <ele>803.32</ele>
        <time>2017-07-02T14:02:20Z</time>
      </trkpt>
      <trkpt lat="44.5039" lon="5.57136">
        <ele>801.88</ele>
        <time>2017-07-02T14:02:29Z</time>
      </trkpt>
      <trkpt lat="44.504" lon="5.57161">
        <ele>801.4</ele>
        <time>2017-07-02T14:02:45Z</time>
      </trkpt>
      <trkpt lat="44.50407" lon="5.57174">
        <ele>802.36</ele>
        <time>2017-07-02T14:02:56Z</time>
      </trkpt>
      <trkpt lat="44.50416" lon="5.57196">
        <ele>803.8</ele>
        <time>2017-07-02T14:03:10Z</time>
      </trkpt>
      <trkpt lat="44.50423" lon="5.57206">
        <ele>805.24</ele>
        <time>2017-07-02T14:03:19Z</time>
      </trkpt>
      <trkpt lat="44.50431" lon="5.57217">
        <ele>807.64</ele>
        <time>2017-07-02T14:03:32Z</time>
      </trkpt>
      <trkpt lat="44.50439" lon="5.57233">
        <ele>810.05</ele>
        <time>2017-07-02T14:03:48Z</time>
      </trkpt>
      <trkpt lat="44.50444" lon="5.57239">
        <ele>810.05</ele>
        <time>2017-07-02T14:03:59Z</time>
      </trkpt>
      <trkpt lat="44.50448" lon="5.57241">
        <ele>809.09</ele>
        <time>2017-07-02T14:04:03Z</time>
      </trkpt>
      <trkpt lat="44.5046" lon="5.57253">
        <ele>807.64</ele>
        <time>2017-07-02T14:04:16Z</time>
      </trkpt>
      <trkpt lat="44.50471" lon="5.57266">
        <ele>806.2</ele>
        <time>2017-07-02T14:04:31Z</time>
      </trkpt>
      <trkpt lat="44.50473" lon="5.57267">
        <ele>806.2</ele>
        <time>2017-07-02T14:04:47Z</time>
      </trkpt>
    </trkseg>
  </trk>
</gpx>